<?xml version="1.0" encoding="UTF-8" standalone="no" ?>
<gpx xmlns="http://www.topografix.com/GPX/1/1" xmlns:xsi="http://www.w3.org/2001/XMLSchema-instance" xsi:schemaLocation="http://www.topografix.com/GPX/1/1 http://www.topografix.com/GPX/1/1/gpx.xsd" version="1.1" creator="VisuGPX - https://www.visugpx.com">
  <metadata>
    <name>Parcours du 27/09/2022 - Foret de St Germain</name>
  </metadata>
  <trk>
    <name><![CDATA[Parcours du 27/09/2022 12h26]]></name>
    <extensions>
      <line xmlns="http://www.topografix.com/GPX/gpx_style/0/2">
        <color>0000FF</color>
        <width>4</width>
      </line>
    </extensions>
    <trkseg>
      <trkpt lat="48.92388" lon="2.05448">
        <ele>58.6</ele>
        <time>2022-09-27T08:05:31Z</time>
      </trkpt>
      <trkpt lat="48.92391" lon="2.05454">
        <ele>57.4</ele>
        <time>2022-09-27T08:05:41Z</time>
      </trkpt>
      <trkpt lat="48.92395" lon="2.05458">
        <ele>58</ele>
        <time>2022-09-27T08:05:42Z</time>
      </trkpt>
      <trkpt lat="48.92829" lon="2.05989">
        <ele>61.6</ele>
      </trkpt>
      <trkpt lat="48.92935" lon="2.05815">
        <ele>48.3</ele>
      </trkpt>
      <trkpt lat="48.92993" lon="2.05916">
        <ele>52.5</ele>
      </trkpt>
      <trkpt lat="48.93065" lon="2.06002">
        <ele>52.2</ele>
      </trkpt>
      <trkpt lat="48.93219" lon="2.06133">
        <ele>49.7</ele>
      </trkpt>
      <trkpt lat="48.93338" lon="2.06242">
        <ele>48.5</ele>
      </trkpt>
      <trkpt lat="48.93418" lon="2.06399">
        <ele>50.3</ele>
      </trkpt>
      <trkpt lat="48.93355" lon="2.06633">
        <ele>59</ele>
      </trkpt>
      <trkpt lat="48.93791" lon="2.07188">
        <ele>58.3</ele>
      </trkpt>
      <trkpt lat="48.93743" lon="2.07262">
        <ele>57.2</ele>
        <time>2022-09-27T08:34:42Z</time>
      </trkpt>
      <trkpt lat="48.9374" lon="2.07268">
        <ele>58.6</ele>
        <time>2022-09-27T08:35:31Z</time>
      </trkpt>
      <trkpt lat="48.93739" lon="2.07276">
        <ele>58.8</ele>
        <time>2022-09-27T08:35:36Z</time>
      </trkpt>
      <trkpt lat="48.93735" lon="2.0728">
        <ele>59.2</ele>
        <time>2022-09-27T08:35:41Z</time>
      </trkpt>
      <trkpt lat="48.93732" lon="2.07285">
        <ele>60.1</ele>
        <time>2022-09-27T08:35:45Z</time>
      </trkpt>
      <trkpt lat="48.93727" lon="2.07286">
        <ele>60.6</ele>
        <time>2022-09-27T08:35:52Z</time>
      </trkpt>
      <trkpt lat="48.93722" lon="2.07286">
        <ele>60.8</ele>
        <time>2022-09-27T08:35:55Z</time>
      </trkpt>
      <trkpt lat="48.93717" lon="2.07287">
        <ele>61.2</ele>
        <time>2022-09-27T08:36:00Z</time>
      </trkpt>
      <trkpt lat="48.93713" lon="2.07294">
        <ele>61.3</ele>
        <time>2022-09-27T08:36:07Z</time>
      </trkpt>
      <trkpt lat="48.93711" lon="2.073">
        <ele>61.1</ele>
        <time>2022-09-27T08:36:14Z</time>
      </trkpt>
      <trkpt lat="48.93709" lon="2.07307">
        <ele>60.8</ele>
        <time>2022-09-27T08:36:18Z</time>
      </trkpt>
      <trkpt lat="48.93707" lon="2.07314">
        <ele>59.7</ele>
        <time>2022-09-27T08:36:22Z</time>
      </trkpt>
      <trkpt lat="48.93703" lon="2.0732">
        <ele>60</ele>
        <time>2022-09-27T08:36:26Z</time>
      </trkpt>
      <trkpt lat="48.937" lon="2.07325">
        <ele>59.4</ele>
        <time>2022-09-27T08:36:30Z</time>
      </trkpt>
      <trkpt lat="48.93697" lon="2.07331">
        <ele>58.3</ele>
        <time>2022-09-27T08:36:33Z</time>
      </trkpt>
      <trkpt lat="48.93694" lon="2.07337">
        <ele>56.8</ele>
        <time>2022-09-27T08:36:37Z</time>
      </trkpt>
      <trkpt lat="48.93691" lon="2.07343">
        <ele>56.6</ele>
        <time>2022-09-27T08:36:41Z</time>
      </trkpt>
      <trkpt lat="48.93686" lon="2.07347">
        <ele>55.9</ele>
        <time>2022-09-27T08:36:46Z</time>
      </trkpt>
      <trkpt lat="48.93682" lon="2.07353">
        <ele>55.6</ele>
        <time>2022-09-27T08:36:50Z</time>
      </trkpt>
      <trkpt lat="48.93679" lon="2.07358">
        <ele>54</ele>
        <time>2022-09-27T08:36:53Z</time>
      </trkpt>
      <trkpt lat="48.93676" lon="2.07365">
        <ele>53.4</ele>
        <time>2022-09-27T08:36:58Z</time>
      </trkpt>
      <trkpt lat="48.93673" lon="2.07371">
        <ele>53</ele>
        <time>2022-09-27T08:37:02Z</time>
      </trkpt>
      <trkpt lat="48.93669" lon="2.07376">
        <ele>52.1</ele>
        <time>2022-09-27T08:37:06Z</time>
      </trkpt>
      <trkpt lat="48.93666" lon="2.07382">
        <ele>50.4</ele>
        <time>2022-09-27T08:37:10Z</time>
      </trkpt>
      <trkpt lat="48.93662" lon="2.07388">
        <ele>49.7</ele>
        <time>2022-09-27T08:37:15Z</time>
      </trkpt>
      <trkpt lat="48.93658" lon="2.07394">
        <ele>49.5</ele>
        <time>2022-09-27T08:37:19Z</time>
      </trkpt>
      <trkpt lat="48.93654" lon="2.07399">
        <ele>48.4</ele>
        <time>2022-09-27T08:37:23Z</time>
      </trkpt>
      <trkpt lat="48.9365" lon="2.07404">
        <ele>47.8</ele>
        <time>2022-09-27T08:37:27Z</time>
      </trkpt>
      <trkpt lat="48.93646" lon="2.0741">
        <ele>47.4</ele>
        <time>2022-09-27T08:37:31Z</time>
      </trkpt>
      <trkpt lat="48.93642" lon="2.07417">
        <ele>47.4</ele>
        <time>2022-09-27T08:37:35Z</time>
      </trkpt>
      <trkpt lat="48.93638" lon="2.07424">
        <ele>46.6</ele>
        <time>2022-09-27T08:37:39Z</time>
      </trkpt>
      <trkpt lat="48.93634" lon="2.07428">
        <ele>45.7</ele>
        <time>2022-09-27T08:37:42Z</time>
      </trkpt>
      <trkpt lat="48.93629" lon="2.07433">
        <ele>44.3</ele>
        <time>2022-09-27T08:37:46Z</time>
      </trkpt>
      <trkpt lat="48.93624" lon="2.07435">
        <ele>44.3</ele>
        <time>2022-09-27T08:37:50Z</time>
      </trkpt>
      <trkpt lat="48.93618" lon="2.07436">
        <ele>43.6</ele>
        <time>2022-09-27T08:37:54Z</time>
      </trkpt>
      <trkpt lat="48.93613" lon="2.07438">
        <ele>42.6</ele>
        <time>2022-09-27T08:37:58Z</time>
      </trkpt>
      <trkpt lat="48.93607" lon="2.07441">
        <ele>42.1</ele>
        <time>2022-09-27T08:38:02Z</time>
      </trkpt>
      <trkpt lat="48.93603" lon="2.07442">
        <ele>41.4</ele>
        <time>2022-09-27T08:38:05Z</time>
      </trkpt>
      <trkpt lat="48.93598" lon="2.07443">
        <ele>41.2</ele>
        <time>2022-09-27T08:38:09Z</time>
      </trkpt>
      <trkpt lat="48.93592" lon="2.07442">
        <ele>41.2</ele>
        <time>2022-09-27T08:38:14Z</time>
      </trkpt>
      <trkpt lat="48.93587" lon="2.07441">
        <ele>40.6</ele>
        <time>2022-09-27T08:38:19Z</time>
      </trkpt>
      <trkpt lat="48.93581" lon="2.07438">
        <ele>40</ele>
        <time>2022-09-27T08:38:23Z</time>
      </trkpt>
      <trkpt lat="48.93576" lon="2.07434">
        <ele>40</ele>
        <time>2022-09-27T08:38:28Z</time>
      </trkpt>
      <trkpt lat="48.93572" lon="2.07431">
        <ele>39.4</ele>
        <time>2022-09-27T08:38:33Z</time>
      </trkpt>
      <trkpt lat="48.93567" lon="2.0743">
        <ele>38.2</ele>
        <time>2022-09-27T08:38:37Z</time>
      </trkpt>
      <trkpt lat="48.93561" lon="2.07428">
        <ele>38.2</ele>
        <time>2022-09-27T08:38:41Z</time>
      </trkpt>
      <trkpt lat="48.93556" lon="2.07425">
        <ele>35.7</ele>
        <time>2022-09-27T08:38:44Z</time>
      </trkpt>
      <trkpt lat="48.93551" lon="2.07423">
        <ele>35.2</ele>
        <time>2022-09-27T08:38:47Z</time>
      </trkpt>
      <trkpt lat="48.93546" lon="2.07421">
        <ele>34.6</ele>
        <time>2022-09-27T08:38:51Z</time>
      </trkpt>
      <trkpt lat="48.93541" lon="2.07418">
        <ele>33.9</ele>
        <time>2022-09-27T08:38:55Z</time>
      </trkpt>
      <trkpt lat="48.93536" lon="2.07416">
        <ele>33.6</ele>
        <time>2022-09-27T08:38:58Z</time>
      </trkpt>
      <trkpt lat="48.93532" lon="2.07413">
        <ele>33.8</ele>
        <time>2022-09-27T08:39:01Z</time>
      </trkpt>
      <trkpt lat="48.93527" lon="2.07411">
        <ele>33.6</ele>
        <time>2022-09-27T08:39:05Z</time>
      </trkpt>
      <trkpt lat="48.93522" lon="2.07408">
        <ele>33.7</ele>
        <time>2022-09-27T08:39:08Z</time>
      </trkpt>
      <trkpt lat="48.93517" lon="2.07407">
        <ele>33.7</ele>
        <time>2022-09-27T08:39:11Z</time>
      </trkpt>
      <trkpt lat="48.93512" lon="2.07406">
        <ele>34.7</ele>
        <time>2022-09-27T08:39:15Z</time>
      </trkpt>
      <trkpt lat="48.93507" lon="2.07406">
        <ele>35.1</ele>
        <time>2022-09-27T08:39:19Z</time>
      </trkpt>
      <trkpt lat="48.93503" lon="2.07404">
        <ele>35.2</ele>
        <time>2022-09-27T08:39:23Z</time>
      </trkpt>
      <trkpt lat="48.93498" lon="2.07404">
        <ele>35.3</ele>
        <time>2022-09-27T08:39:27Z</time>
      </trkpt>
      <trkpt lat="48.93492" lon="2.07404">
        <ele>35.3</ele>
        <time>2022-09-27T08:39:31Z</time>
      </trkpt>
      <trkpt lat="48.93487" lon="2.07404">
        <ele>35.9</ele>
        <time>2022-09-27T08:39:35Z</time>
      </trkpt>
      <trkpt lat="48.93481" lon="2.07402">
        <ele>35.7</ele>
        <time>2022-09-27T08:39:40Z</time>
      </trkpt>
      <trkpt lat="48.93477" lon="2.07399">
        <ele>34.1</ele>
        <time>2022-09-27T08:39:44Z</time>
      </trkpt>
      <trkpt lat="48.93473" lon="2.07395">
        <ele>33.1</ele>
        <time>2022-09-27T08:39:48Z</time>
      </trkpt>
      <trkpt lat="48.93468" lon="2.0739">
        <ele>32.8</ele>
        <time>2022-09-27T08:39:52Z</time>
      </trkpt>
      <trkpt lat="48.93464" lon="2.07385">
        <ele>32.6</ele>
        <time>2022-09-27T08:39:55Z</time>
      </trkpt>
      <trkpt lat="48.93461" lon="2.07379">
        <ele>31.9</ele>
        <time>2022-09-27T08:39:58Z</time>
      </trkpt>
      <trkpt lat="48.93457" lon="2.07373">
        <ele>31.7</ele>
        <time>2022-09-27T08:40:02Z</time>
      </trkpt>
      <trkpt lat="48.93453" lon="2.07368">
        <ele>31.7</ele>
        <time>2022-09-27T08:40:06Z</time>
      </trkpt>
      <trkpt lat="48.93449" lon="2.07364">
        <ele>31.6</ele>
        <time>2022-09-27T08:40:10Z</time>
      </trkpt>
      <trkpt lat="48.93444" lon="2.07363">
        <ele>31</ele>
        <time>2022-09-27T08:40:13Z</time>
      </trkpt>
      <trkpt lat="48.93438" lon="2.07365">
        <ele>30.7</ele>
        <time>2022-09-27T08:40:16Z</time>
      </trkpt>
      <trkpt lat="48.93432" lon="2.07368">
        <ele>30.7</ele>
        <time>2022-09-27T08:40:20Z</time>
      </trkpt>
      <trkpt lat="48.93428" lon="2.07368">
        <ele>30.6</ele>
        <time>2022-09-27T08:40:23Z</time>
      </trkpt>
      <trkpt lat="48.93422" lon="2.07368">
        <ele>30.7</ele>
        <time>2022-09-27T08:40:26Z</time>
      </trkpt>
      <trkpt lat="48.93417" lon="2.07367">
        <ele>30.7</ele>
        <time>2022-09-27T08:40:29Z</time>
      </trkpt>
      <trkpt lat="48.93411" lon="2.07365">
        <ele>31</ele>
        <time>2022-09-27T08:40:33Z</time>
      </trkpt>
      <trkpt lat="48.93406" lon="2.07364">
        <ele>31</ele>
        <time>2022-09-27T08:40:36Z</time>
      </trkpt>
      <trkpt lat="48.934" lon="2.07364">
        <ele>30.8</ele>
        <time>2022-09-27T08:40:40Z</time>
      </trkpt>
      <trkpt lat="48.93395" lon="2.07361">
        <ele>31.1</ele>
        <time>2022-09-27T08:40:43Z</time>
      </trkpt>
      <trkpt lat="48.9339" lon="2.07358">
        <ele>31.5</ele>
        <time>2022-09-27T08:40:47Z</time>
      </trkpt>
      <trkpt lat="48.93385" lon="2.07356">
        <ele>32.1</ele>
        <time>2022-09-27T08:40:51Z</time>
      </trkpt>
      <trkpt lat="48.93381" lon="2.07352">
        <ele>31.8</ele>
        <time>2022-09-27T08:40:55Z</time>
      </trkpt>
      <trkpt lat="48.93376" lon="2.0735">
        <ele>31.9</ele>
        <time>2022-09-27T08:40:58Z</time>
      </trkpt>
      <trkpt lat="48.93372" lon="2.07346">
        <ele>31.8</ele>
        <time>2022-09-27T08:41:01Z</time>
      </trkpt>
      <trkpt lat="48.93368" lon="2.07346">
        <ele>31.8</ele>
        <time>2022-09-27T08:41:04Z</time>
      </trkpt>
      <trkpt lat="48.93363" lon="2.07347">
        <ele>32.3</ele>
        <time>2022-09-27T08:41:08Z</time>
      </trkpt>
      <trkpt lat="48.93358" lon="2.07351">
        <ele>32.5</ele>
        <time>2022-09-27T08:41:11Z</time>
      </trkpt>
      <trkpt lat="48.93354" lon="2.07355">
        <ele>32.8</ele>
        <time>2022-09-27T08:41:15Z</time>
      </trkpt>
      <trkpt lat="48.93349" lon="2.07359">
        <ele>33.6</ele>
        <time>2022-09-27T08:41:19Z</time>
      </trkpt>
      <trkpt lat="48.93345" lon="2.07363">
        <ele>34.2</ele>
        <time>2022-09-27T08:41:24Z</time>
      </trkpt>
      <trkpt lat="48.93341" lon="2.07369">
        <ele>35</ele>
        <time>2022-09-27T08:41:29Z</time>
      </trkpt>
      <trkpt lat="48.93336" lon="2.07373">
        <ele>36.7</ele>
        <time>2022-09-27T08:41:33Z</time>
      </trkpt>
      <trkpt lat="48.93332" lon="2.07378">
        <ele>41.2</ele>
        <time>2022-09-27T08:41:37Z</time>
      </trkpt>
      <trkpt lat="48.93328" lon="2.07383">
        <ele>43.6</ele>
        <time>2022-09-27T08:41:42Z</time>
      </trkpt>
      <trkpt lat="48.93325" lon="2.07391">
        <ele>43.6</ele>
        <time>2022-09-27T08:41:46Z</time>
      </trkpt>
      <trkpt lat="48.93322" lon="2.07398">
        <ele>46.2</ele>
        <time>2022-09-27T08:41:50Z</time>
      </trkpt>
      <trkpt lat="48.93319" lon="2.07404">
        <ele>48.2</ele>
        <time>2022-09-27T08:41:53Z</time>
      </trkpt>
      <trkpt lat="48.93316" lon="2.0741">
        <ele>49</ele>
        <time>2022-09-27T08:41:57Z</time>
      </trkpt>
      <trkpt lat="48.93312" lon="2.07415">
        <ele>48.4</ele>
        <time>2022-09-27T08:42:00Z</time>
      </trkpt>
      <trkpt lat="48.93309" lon="2.07419">
        <ele>47.8</ele>
        <time>2022-09-27T08:42:04Z</time>
      </trkpt>
      <trkpt lat="48.93304" lon="2.07425">
        <ele>48.2</ele>
        <time>2022-09-27T08:42:08Z</time>
      </trkpt>
      <trkpt lat="48.93299" lon="2.0743">
        <ele>48.5</ele>
        <time>2022-09-27T08:42:13Z</time>
      </trkpt>
      <trkpt lat="48.93295" lon="2.07435">
        <ele>50</ele>
        <time>2022-09-27T08:42:17Z</time>
      </trkpt>
      <trkpt lat="48.9329" lon="2.0744">
        <ele>49.7</ele>
        <time>2022-09-27T08:42:21Z</time>
      </trkpt>
      <trkpt lat="48.93286" lon="2.07445">
        <ele>49.5</ele>
        <time>2022-09-27T08:42:26Z</time>
      </trkpt>
      <trkpt lat="48.93282" lon="2.07449">
        <ele>49.8</ele>
        <time>2022-09-27T08:42:31Z</time>
      </trkpt>
      <trkpt lat="48.93279" lon="2.07454">
        <ele>50.7</ele>
        <time>2022-09-27T08:42:36Z</time>
      </trkpt>
      <trkpt lat="48.93275" lon="2.0746">
        <ele>52.7</ele>
        <time>2022-09-27T08:42:41Z</time>
      </trkpt>
      <trkpt lat="48.93272" lon="2.07465">
        <ele>53.5</ele>
        <time>2022-09-27T08:42:45Z</time>
      </trkpt>
      <trkpt lat="48.93269" lon="2.0747">
        <ele>54.5</ele>
        <time>2022-09-27T08:42:49Z</time>
      </trkpt>
      <trkpt lat="48.93265" lon="2.07474">
        <ele>56.6</ele>
        <time>2022-09-27T08:42:55Z</time>
      </trkpt>
      <trkpt lat="48.93261" lon="2.0748">
        <ele>57.2</ele>
        <time>2022-09-27T08:43:00Z</time>
      </trkpt>
      <trkpt lat="48.93258" lon="2.07488">
        <ele>57.3</ele>
        <time>2022-09-27T08:43:04Z</time>
      </trkpt>
      <trkpt lat="48.93255" lon="2.07494">
        <ele>57.7</ele>
        <time>2022-09-27T08:43:08Z</time>
      </trkpt>
      <trkpt lat="48.93252" lon="2.07499">
        <ele>57.9</ele>
        <time>2022-09-27T08:43:12Z</time>
      </trkpt>
      <trkpt lat="48.93248" lon="2.07506">
        <ele>58.2</ele>
        <time>2022-09-27T08:43:16Z</time>
      </trkpt>
      <trkpt lat="48.93244" lon="2.07512">
        <ele>58.2</ele>
        <time>2022-09-27T08:43:20Z</time>
      </trkpt>
      <trkpt lat="48.9324" lon="2.07518">
        <ele>58.9</ele>
        <time>2022-09-27T08:43:24Z</time>
      </trkpt>
      <trkpt lat="48.93236" lon="2.07524">
        <ele>58.9</ele>
        <time>2022-09-27T08:43:28Z</time>
      </trkpt>
      <trkpt lat="48.93232" lon="2.07531">
        <ele>59.5</ele>
        <time>2022-09-27T08:43:32Z</time>
      </trkpt>
      <trkpt lat="48.93229" lon="2.07537">
        <ele>60.4</ele>
        <time>2022-09-27T08:43:36Z</time>
      </trkpt>
      <trkpt lat="48.93226" lon="2.07543">
        <ele>60.4</ele>
        <time>2022-09-27T08:43:40Z</time>
      </trkpt>
      <trkpt lat="48.93223" lon="2.07548">
        <ele>60.5</ele>
        <time>2022-09-27T08:43:43Z</time>
      </trkpt>
      <trkpt lat="48.93218" lon="2.07553">
        <ele>59.7</ele>
        <time>2022-09-27T08:43:47Z</time>
      </trkpt>
      <trkpt lat="48.93215" lon="2.07559">
        <ele>60</ele>
        <time>2022-09-27T08:43:51Z</time>
      </trkpt>
      <trkpt lat="48.93211" lon="2.07565">
        <ele>61.5</ele>
        <time>2022-09-27T08:43:55Z</time>
      </trkpt>
      <trkpt lat="48.93206" lon="2.07571">
        <ele>61</ele>
        <time>2022-09-27T08:43:59Z</time>
      </trkpt>
      <trkpt lat="48.93203" lon="2.07576">
        <ele>61.3</ele>
        <time>2022-09-27T08:44:03Z</time>
      </trkpt>
      <trkpt lat="48.93199" lon="2.07581">
        <ele>61.5</ele>
        <time>2022-09-27T08:44:07Z</time>
      </trkpt>
      <trkpt lat="48.93195" lon="2.07588">
        <ele>61.6</ele>
        <time>2022-09-27T08:44:11Z</time>
      </trkpt>
      <trkpt lat="48.93191" lon="2.07595">
        <ele>62.1</ele>
        <time>2022-09-27T08:44:16Z</time>
      </trkpt>
      <trkpt lat="48.93188" lon="2.07601">
        <ele>62.3</ele>
        <time>2022-09-27T08:44:20Z</time>
      </trkpt>
      <trkpt lat="48.93184" lon="2.07605">
        <ele>62.2</ele>
        <time>2022-09-27T08:44:24Z</time>
      </trkpt>
      <trkpt lat="48.93181" lon="2.0761">
        <ele>62.9</ele>
        <time>2022-09-27T08:44:28Z</time>
      </trkpt>
      <trkpt lat="48.93177" lon="2.07606">
        <ele>63.2</ele>
        <time>2022-09-27T08:44:33Z</time>
      </trkpt>
      <trkpt lat="48.93173" lon="2.0761">
        <ele>63.4</ele>
        <time>2022-09-27T08:44:43Z</time>
      </trkpt>
      <trkpt lat="48.93169" lon="2.07616">
        <ele>63.4</ele>
        <time>2022-09-27T08:44:47Z</time>
      </trkpt>
      <trkpt lat="48.93167" lon="2.07623">
        <ele>63.1</ele>
        <time>2022-09-27T08:44:52Z</time>
      </trkpt>
      <trkpt lat="48.93171" lon="2.07626">
        <ele>63.8</ele>
        <time>2022-09-27T08:44:59Z</time>
      </trkpt>
      <trkpt lat="48.93167" lon="2.07632">
        <ele>63.6</ele>
        <time>2022-09-27T08:45:23Z</time>
      </trkpt>
      <trkpt lat="48.93164" lon="2.07637">
        <ele>64</ele>
        <time>2022-09-27T08:45:30Z</time>
      </trkpt>
      <trkpt lat="48.93159" lon="2.07643">
        <ele>64</ele>
        <time>2022-09-27T08:45:36Z</time>
      </trkpt>
      <trkpt lat="48.93155" lon="2.07648">
        <ele>64</ele>
        <time>2022-09-27T08:45:41Z</time>
      </trkpt>
      <trkpt lat="48.93151" lon="2.07652">
        <ele>64.5</ele>
        <time>2022-09-27T08:45:45Z</time>
      </trkpt>
      <trkpt lat="48.93145" lon="2.07655">
        <ele>64.4</ele>
        <time>2022-09-27T08:45:50Z</time>
      </trkpt>
      <trkpt lat="48.9314" lon="2.07658">
        <ele>63.6</ele>
        <time>2022-09-27T08:45:54Z</time>
      </trkpt>
      <trkpt lat="48.93136" lon="2.07663">
        <ele>63.5</ele>
        <time>2022-09-27T08:45:59Z</time>
      </trkpt>
      <trkpt lat="48.93132" lon="2.07669">
        <ele>63.6</ele>
        <time>2022-09-27T08:46:03Z</time>
      </trkpt>
      <trkpt lat="48.93129" lon="2.07674">
        <ele>63.1</ele>
        <time>2022-09-27T08:46:07Z</time>
      </trkpt>
      <trkpt lat="48.93125" lon="2.07679">
        <ele>63.3</ele>
        <time>2022-09-27T08:46:11Z</time>
      </trkpt>
      <trkpt lat="48.93121" lon="2.07685">
        <ele>62.4</ele>
        <time>2022-09-27T08:46:15Z</time>
      </trkpt>
      <trkpt lat="48.93117" lon="2.07688">
        <ele>61.5</ele>
        <time>2022-09-27T08:46:18Z</time>
      </trkpt>
      <trkpt lat="48.93113" lon="2.07693">
        <ele>61.5</ele>
        <time>2022-09-27T08:46:21Z</time>
      </trkpt>
      <trkpt lat="48.93111" lon="2.07699">
        <ele>61.8</ele>
        <time>2022-09-27T08:46:24Z</time>
      </trkpt>
      <trkpt lat="48.93109" lon="2.07707">
        <ele>61.7</ele>
        <time>2022-09-27T08:46:28Z</time>
      </trkpt>
      <trkpt lat="48.93106" lon="2.07714">
        <ele>61.3</ele>
        <time>2022-09-27T08:46:32Z</time>
      </trkpt>
      <trkpt lat="48.93103" lon="2.0772">
        <ele>61.5</ele>
        <time>2022-09-27T08:46:37Z</time>
      </trkpt>
      <trkpt lat="48.93099" lon="2.07726">
        <ele>61.8</ele>
        <time>2022-09-27T08:46:41Z</time>
      </trkpt>
      <trkpt lat="48.93095" lon="2.07732">
        <ele>62.3</ele>
        <time>2022-09-27T08:46:46Z</time>
      </trkpt>
      <trkpt lat="48.93091" lon="2.07736">
        <ele>63</ele>
        <time>2022-09-27T08:46:50Z</time>
      </trkpt>
      <trkpt lat="48.93086" lon="2.0774">
        <ele>62.9</ele>
        <time>2022-09-27T08:46:54Z</time>
      </trkpt>
      <trkpt lat="48.93083" lon="2.07745">
        <ele>63.1</ele>
        <time>2022-09-27T08:46:58Z</time>
      </trkpt>
      <trkpt lat="48.9308" lon="2.07752">
        <ele>63</ele>
        <time>2022-09-27T08:47:02Z</time>
      </trkpt>
      <trkpt lat="48.93076" lon="2.07758">
        <ele>62.8</ele>
        <time>2022-09-27T08:47:06Z</time>
      </trkpt>
      <trkpt lat="48.93073" lon="2.07763">
        <ele>62.8</ele>
        <time>2022-09-27T08:47:10Z</time>
      </trkpt>
      <trkpt lat="48.93068" lon="2.07768">
        <ele>63</ele>
        <time>2022-09-27T08:47:14Z</time>
      </trkpt>
      <trkpt lat="48.93064" lon="2.07767">
        <ele>62.8</ele>
        <time>2022-09-27T08:47:17Z</time>
      </trkpt>
      <trkpt lat="48.9306" lon="2.07761">
        <ele>61.9</ele>
        <time>2022-09-27T08:47:20Z</time>
      </trkpt>
      <trkpt lat="48.93059" lon="2.07754">
        <ele>61.6</ele>
        <time>2022-09-27T08:47:24Z</time>
      </trkpt>
      <trkpt lat="48.93059" lon="2.07747">
        <ele>60.7</ele>
        <time>2022-09-27T08:47:27Z</time>
      </trkpt>
      <trkpt lat="48.93058" lon="2.07739">
        <ele>60.8</ele>
        <time>2022-09-27T08:47:31Z</time>
      </trkpt>
      <trkpt lat="48.93055" lon="2.07734">
        <ele>59.9</ele>
        <time>2022-09-27T08:47:35Z</time>
      </trkpt>
      <trkpt lat="48.93053" lon="2.07729">
        <ele>58.9</ele>
        <time>2022-09-27T08:47:40Z</time>
      </trkpt>
      <trkpt lat="48.93051" lon="2.07722">
        <ele>58.6</ele>
        <time>2022-09-27T08:47:43Z</time>
      </trkpt>
      <trkpt lat="48.9305" lon="2.07715">
        <ele>58.8</ele>
        <time>2022-09-27T08:47:47Z</time>
      </trkpt>
      <trkpt lat="48.93047" lon="2.07708">
        <ele>58.9</ele>
        <time>2022-09-27T08:47:51Z</time>
      </trkpt>
      <trkpt lat="48.93044" lon="2.07701">
        <ele>58.7</ele>
        <time>2022-09-27T08:47:56Z</time>
      </trkpt>
      <trkpt lat="48.93041" lon="2.07696">
        <ele>59.2</ele>
        <time>2022-09-27T08:48:00Z</time>
      </trkpt>
      <trkpt lat="48.93038" lon="2.07689">
        <ele>59.5</ele>
        <time>2022-09-27T08:48:04Z</time>
      </trkpt>
      <trkpt lat="48.93036" lon="2.07682">
        <ele>60</ele>
        <time>2022-09-27T08:48:09Z</time>
      </trkpt>
      <trkpt lat="48.93032" lon="2.07675">
        <ele>60.2</ele>
        <time>2022-09-27T08:48:13Z</time>
      </trkpt>
      <trkpt lat="48.93029" lon="2.07668">
        <ele>60.8</ele>
        <time>2022-09-27T08:48:18Z</time>
      </trkpt>
      <trkpt lat="48.93026" lon="2.0766">
        <ele>61.2</ele>
        <time>2022-09-27T08:48:22Z</time>
      </trkpt>
      <trkpt lat="48.93022" lon="2.07654">
        <ele>61.7</ele>
        <time>2022-09-27T08:48:26Z</time>
      </trkpt>
      <trkpt lat="48.9302" lon="2.07648">
        <ele>61.7</ele>
        <time>2022-09-27T08:48:30Z</time>
      </trkpt>
      <trkpt lat="48.93019" lon="2.0764">
        <ele>61.6</ele>
        <time>2022-09-27T08:48:34Z</time>
      </trkpt>
      <trkpt lat="48.93017" lon="2.07632">
        <ele>61.9</ele>
        <time>2022-09-27T08:48:39Z</time>
      </trkpt>
      <trkpt lat="48.93015" lon="2.07624">
        <ele>62.2</ele>
        <time>2022-09-27T08:48:43Z</time>
      </trkpt>
      <trkpt lat="48.93013" lon="2.07616">
        <ele>62.7</ele>
        <time>2022-09-27T08:48:48Z</time>
      </trkpt>
      <trkpt lat="48.93009" lon="2.0761">
        <ele>62.9</ele>
        <time>2022-09-27T08:48:52Z</time>
      </trkpt>
      <trkpt lat="48.93005" lon="2.07605">
        <ele>63.2</ele>
        <time>2022-09-27T08:48:56Z</time>
      </trkpt>
      <trkpt lat="48.93002" lon="2.076">
        <ele>63.3</ele>
        <time>2022-09-27T08:49:00Z</time>
      </trkpt>
      <trkpt lat="48.92999" lon="2.07594">
        <ele>64.5</ele>
        <time>2022-09-27T08:49:04Z</time>
      </trkpt>
      <trkpt lat="48.92996" lon="2.07588">
        <ele>64.8</ele>
        <time>2022-09-27T08:49:08Z</time>
      </trkpt>
      <trkpt lat="48.92993" lon="2.07581">
        <ele>66.1</ele>
        <time>2022-09-27T08:49:12Z</time>
      </trkpt>
      <trkpt lat="48.92991" lon="2.07574">
        <ele>65.7</ele>
        <time>2022-09-27T08:49:16Z</time>
      </trkpt>
      <trkpt lat="48.92988" lon="2.07568">
        <ele>67</ele>
        <time>2022-09-27T08:49:20Z</time>
      </trkpt>
      <trkpt lat="48.92985" lon="2.07562">
        <ele>67.1</ele>
        <time>2022-09-27T08:49:24Z</time>
      </trkpt>
      <trkpt lat="48.92981" lon="2.07555">
        <ele>66.3</ele>
        <time>2022-09-27T08:49:28Z</time>
      </trkpt>
      <trkpt lat="48.92978" lon="2.07549">
        <ele>66.7</ele>
        <time>2022-09-27T08:49:32Z</time>
      </trkpt>
      <trkpt lat="48.92975" lon="2.07542">
        <ele>66.8</ele>
        <time>2022-09-27T08:49:36Z</time>
      </trkpt>
      <trkpt lat="48.92972" lon="2.07534">
        <ele>67.3</ele>
        <time>2022-09-27T08:49:41Z</time>
      </trkpt>
      <trkpt lat="48.92969" lon="2.07526">
        <ele>67</ele>
        <time>2022-09-27T08:49:45Z</time>
      </trkpt>
      <trkpt lat="48.92967" lon="2.07521">
        <ele>66.9</ele>
        <time>2022-09-27T08:49:49Z</time>
      </trkpt>
      <trkpt lat="48.92964" lon="2.07515">
        <ele>66.1</ele>
        <time>2022-09-27T08:49:52Z</time>
      </trkpt>
      <trkpt lat="48.9296" lon="2.0751">
        <ele>65.5</ele>
        <time>2022-09-27T08:49:55Z</time>
      </trkpt>
      <trkpt lat="48.92956" lon="2.07506">
        <ele>64.8</ele>
        <time>2022-09-27T08:49:59Z</time>
      </trkpt>
      <trkpt lat="48.92953" lon="2.07501">
        <ele>63.8</ele>
        <time>2022-09-27T08:50:02Z</time>
      </trkpt>
      <trkpt lat="48.92949" lon="2.07496">
        <ele>64.4</ele>
        <time>2022-09-27T08:50:06Z</time>
      </trkpt>
      <trkpt lat="48.92945" lon="2.0749">
        <ele>64.3</ele>
        <time>2022-09-27T08:50:10Z</time>
      </trkpt>
      <trkpt lat="48.92941" lon="2.07483">
        <ele>63.8</ele>
        <time>2022-09-27T08:50:14Z</time>
      </trkpt>
      <trkpt lat="48.92938" lon="2.07476">
        <ele>63.6</ele>
        <time>2022-09-27T08:50:18Z</time>
      </trkpt>
      <trkpt lat="48.92936" lon="2.0747">
        <ele>63.2</ele>
        <time>2022-09-27T08:50:22Z</time>
      </trkpt>
      <trkpt lat="48.92933" lon="2.07463">
        <ele>63</ele>
        <time>2022-09-27T08:50:26Z</time>
      </trkpt>
      <trkpt lat="48.92931" lon="2.07455">
        <ele>62.9</ele>
        <time>2022-09-27T08:50:30Z</time>
      </trkpt>
      <trkpt lat="48.92928" lon="2.07449">
        <ele>63.3</ele>
        <time>2022-09-27T08:50:34Z</time>
      </trkpt>
      <trkpt lat="48.92926" lon="2.07441">
        <ele>63.3</ele>
        <time>2022-09-27T08:50:38Z</time>
      </trkpt>
      <trkpt lat="48.92924" lon="2.07434">
        <ele>63.5</ele>
        <time>2022-09-27T08:50:42Z</time>
      </trkpt>
      <trkpt lat="48.92922" lon="2.07427">
        <ele>63.4</ele>
        <time>2022-09-27T08:50:46Z</time>
      </trkpt>
      <trkpt lat="48.92917" lon="2.07424">
        <ele>63.5</ele>
        <time>2022-09-27T08:50:50Z</time>
      </trkpt>
      <trkpt lat="48.92912" lon="2.07419">
        <ele>63.7</ele>
        <time>2022-09-27T08:50:54Z</time>
      </trkpt>
      <trkpt lat="48.92909" lon="2.07412">
        <ele>63.5</ele>
        <time>2022-09-27T08:50:58Z</time>
      </trkpt>
      <trkpt lat="48.92907" lon="2.07405">
        <ele>63.8</ele>
        <time>2022-09-27T08:51:02Z</time>
      </trkpt>
      <trkpt lat="48.92903" lon="2.07398">
        <ele>64.2</ele>
        <time>2022-09-27T08:51:07Z</time>
      </trkpt>
      <trkpt lat="48.92901" lon="2.07392">
        <ele>64.3</ele>
        <time>2022-09-27T08:51:11Z</time>
      </trkpt>
      <trkpt lat="48.92899" lon="2.07386">
        <ele>64.4</ele>
        <time>2022-09-27T08:51:15Z</time>
      </trkpt>
      <trkpt lat="48.92895" lon="2.0738">
        <ele>64.6</ele>
        <time>2022-09-27T08:51:19Z</time>
      </trkpt>
      <trkpt lat="48.92894" lon="2.07373">
        <ele>64.1</ele>
        <time>2022-09-27T08:51:23Z</time>
      </trkpt>
      <trkpt lat="48.92891" lon="2.07377">
        <ele>64.1</ele>
        <time>2022-09-27T08:51:26Z</time>
      </trkpt>
      <trkpt lat="48.9289" lon="2.07367">
        <ele>64.4</ele>
        <time>2022-09-27T08:51:45Z</time>
      </trkpt>
      <trkpt lat="48.92888" lon="2.07359">
        <ele>65.2</ele>
        <time>2022-09-27T08:51:48Z</time>
      </trkpt>
      <trkpt lat="48.92885" lon="2.07353">
        <ele>65.7</ele>
        <time>2022-09-27T08:51:52Z</time>
      </trkpt>
      <trkpt lat="48.92881" lon="2.07347">
        <ele>65.9</ele>
        <time>2022-09-27T08:51:56Z</time>
      </trkpt>
      <trkpt lat="48.92879" lon="2.07341">
        <ele>66.1</ele>
        <time>2022-09-27T08:51:59Z</time>
      </trkpt>
      <trkpt lat="48.92877" lon="2.07333">
        <ele>66.4</ele>
        <time>2022-09-27T08:52:03Z</time>
      </trkpt>
      <trkpt lat="48.92873" lon="2.07328">
        <ele>66.5</ele>
        <time>2022-09-27T08:52:07Z</time>
      </trkpt>
      <trkpt lat="48.92869" lon="2.07323">
        <ele>66.8</ele>
        <time>2022-09-27T08:52:11Z</time>
      </trkpt>
      <trkpt lat="48.92866" lon="2.07316">
        <ele>66.6</ele>
        <time>2022-09-27T08:52:15Z</time>
      </trkpt>
      <trkpt lat="48.92863" lon="2.07311">
        <ele>66.6</ele>
        <time>2022-09-27T08:52:18Z</time>
      </trkpt>
      <trkpt lat="48.92858" lon="2.07306">
        <ele>66.4</ele>
        <time>2022-09-27T08:52:22Z</time>
      </trkpt>
      <trkpt lat="48.92854" lon="2.07301">
        <ele>65.4</ele>
        <time>2022-09-27T08:52:25Z</time>
      </trkpt>
      <trkpt lat="48.9285" lon="2.07296">
        <ele>64.2</ele>
        <time>2022-09-27T08:52:29Z</time>
      </trkpt>
      <trkpt lat="48.92848" lon="2.07289">
        <ele>63.2</ele>
        <time>2022-09-27T08:52:32Z</time>
      </trkpt>
      <trkpt lat="48.92845" lon="2.07285">
        <ele>60.1</ele>
        <time>2022-09-27T08:52:37Z</time>
      </trkpt>
      <trkpt lat="48.92844" lon="2.07277">
        <ele>57.9</ele>
        <time>2022-09-27T08:52:41Z</time>
      </trkpt>
      <trkpt lat="48.92842" lon="2.0727">
        <ele>56.8</ele>
        <time>2022-09-27T08:52:46Z</time>
      </trkpt>
      <trkpt lat="48.92839" lon="2.07263">
        <ele>56.1</ele>
        <time>2022-09-27T08:52:52Z</time>
      </trkpt>
      <trkpt lat="48.92834" lon="2.07265">
        <ele>56.4</ele>
        <time>2022-09-27T08:52:57Z</time>
      </trkpt>
      <trkpt lat="48.92831" lon="2.07273">
        <ele>56.4</ele>
        <time>2022-09-27T08:53:02Z</time>
      </trkpt>
      <trkpt lat="48.9283" lon="2.0728">
        <ele>56.9</ele>
        <time>2022-09-27T08:53:07Z</time>
      </trkpt>
      <trkpt lat="48.92828" lon="2.07288">
        <ele>56.9</ele>
        <time>2022-09-27T08:53:12Z</time>
      </trkpt>
      <trkpt lat="48.92825" lon="2.07295">
        <ele>59.4</ele>
        <time>2022-09-27T08:53:16Z</time>
      </trkpt>
      <trkpt lat="48.92822" lon="2.07301">
        <ele>60.7</ele>
        <time>2022-09-27T08:53:22Z</time>
      </trkpt>
      <trkpt lat="48.92819" lon="2.07307">
        <ele>61.7</ele>
        <time>2022-09-27T08:53:26Z</time>
      </trkpt>
      <trkpt lat="48.92817" lon="2.07314">
        <ele>62.1</ele>
        <time>2022-09-27T08:53:31Z</time>
      </trkpt>
      <trkpt lat="48.92814" lon="2.07321">
        <ele>63.6</ele>
        <time>2022-09-27T08:53:36Z</time>
      </trkpt>
      <trkpt lat="48.92811" lon="2.07326">
        <ele>63.5</ele>
        <time>2022-09-27T08:53:41Z</time>
      </trkpt>
      <trkpt lat="48.92807" lon="2.07333">
        <ele>63.8</ele>
        <time>2022-09-27T08:53:45Z</time>
      </trkpt>
      <trkpt lat="48.92804" lon="2.07339">
        <ele>64.5</ele>
        <time>2022-09-27T08:53:49Z</time>
      </trkpt>
      <trkpt lat="48.92802" lon="2.07345">
        <ele>64.8</ele>
        <time>2022-09-27T08:53:54Z</time>
      </trkpt>
      <trkpt lat="48.92802" lon="2.07353">
        <ele>64.8</ele>
        <time>2022-09-27T08:53:59Z</time>
      </trkpt>
      <trkpt lat="48.92801" lon="2.07361">
        <ele>65.2</ele>
        <time>2022-09-27T08:54:03Z</time>
      </trkpt>
      <trkpt lat="48.92799" lon="2.07367">
        <ele>65.4</ele>
        <time>2022-09-27T08:54:07Z</time>
      </trkpt>
      <trkpt lat="48.92796" lon="2.07373">
        <ele>65.6</ele>
        <time>2022-09-27T08:54:11Z</time>
      </trkpt>
      <trkpt lat="48.92793" lon="2.07379">
        <ele>65.3</ele>
        <time>2022-09-27T08:54:16Z</time>
      </trkpt>
      <trkpt lat="48.9279" lon="2.07386">
        <ele>65.1</ele>
        <time>2022-09-27T08:54:21Z</time>
      </trkpt>
      <trkpt lat="48.92787" lon="2.07392">
        <ele>64.9</ele>
        <time>2022-09-27T08:54:25Z</time>
      </trkpt>
      <trkpt lat="48.92783" lon="2.07399">
        <ele>64.4</ele>
        <time>2022-09-27T08:54:29Z</time>
      </trkpt>
      <trkpt lat="48.9278" lon="2.07405">
        <ele>64.3</ele>
        <time>2022-09-27T08:54:32Z</time>
      </trkpt>
      <trkpt lat="48.92779" lon="2.07412">
        <ele>64</ele>
        <time>2022-09-27T08:54:36Z</time>
      </trkpt>
      <trkpt lat="48.92778" lon="2.0742">
        <ele>63.2</ele>
        <time>2022-09-27T08:54:40Z</time>
      </trkpt>
      <trkpt lat="48.92777" lon="2.07427">
        <ele>62.5</ele>
        <time>2022-09-27T08:54:45Z</time>
      </trkpt>
      <trkpt lat="48.92775" lon="2.07434">
        <ele>62.8</ele>
        <time>2022-09-27T08:54:49Z</time>
      </trkpt>
      <trkpt lat="48.92772" lon="2.07441">
        <ele>62.8</ele>
        <time>2022-09-27T08:54:52Z</time>
      </trkpt>
      <trkpt lat="48.92769" lon="2.07447">
        <ele>62.7</ele>
        <time>2022-09-27T08:54:56Z</time>
      </trkpt>
      <trkpt lat="48.92767" lon="2.07456">
        <ele>62.9</ele>
        <time>2022-09-27T08:55:00Z</time>
      </trkpt>
      <trkpt lat="48.92764" lon="2.07463">
        <ele>63.5</ele>
        <time>2022-09-27T08:55:04Z</time>
      </trkpt>
      <trkpt lat="48.92761" lon="2.07469">
        <ele>64</ele>
        <time>2022-09-27T08:55:08Z</time>
      </trkpt>
      <trkpt lat="48.92758" lon="2.07475">
        <ele>64</ele>
        <time>2022-09-27T08:55:12Z</time>
      </trkpt>
      <trkpt lat="48.92755" lon="2.07482">
        <ele>64.6</ele>
        <time>2022-09-27T08:55:16Z</time>
      </trkpt>
      <trkpt lat="48.92753" lon="2.07488">
        <ele>65.1</ele>
        <time>2022-09-27T08:55:20Z</time>
      </trkpt>
      <trkpt lat="48.9275" lon="2.07494">
        <ele>65.3</ele>
        <time>2022-09-27T08:55:24Z</time>
      </trkpt>
      <trkpt lat="48.92746" lon="2.07502">
        <ele>65.3</ele>
        <time>2022-09-27T08:55:28Z</time>
      </trkpt>
      <trkpt lat="48.92743" lon="2.07509">
        <ele>65.4</ele>
        <time>2022-09-27T08:55:32Z</time>
      </trkpt>
      <trkpt lat="48.9274" lon="2.07514">
        <ele>65.6</ele>
        <time>2022-09-27T08:55:35Z</time>
      </trkpt>
      <trkpt lat="48.92737" lon="2.0752">
        <ele>66</ele>
        <time>2022-09-27T08:55:39Z</time>
      </trkpt>
      <trkpt lat="48.92734" lon="2.07525">
        <ele>66</ele>
        <time>2022-09-27T08:55:42Z</time>
      </trkpt>
      <trkpt lat="48.92731" lon="2.07532">
        <ele>65.6</ele>
        <time>2022-09-27T08:55:46Z</time>
      </trkpt>
      <trkpt lat="48.92729" lon="2.07539">
        <ele>65.5</ele>
        <time>2022-09-27T08:55:50Z</time>
      </trkpt>
      <trkpt lat="48.92729" lon="2.07546">
        <ele>65.3</ele>
        <time>2022-09-27T08:55:54Z</time>
      </trkpt>
      <trkpt lat="48.92727" lon="2.07553">
        <ele>65.3</ele>
        <time>2022-09-27T08:55:58Z</time>
      </trkpt>
      <trkpt lat="48.92725" lon="2.0756">
        <ele>65.6</ele>
        <time>2022-09-27T08:56:01Z</time>
      </trkpt>
      <trkpt lat="48.92723" lon="2.07568">
        <ele>65.9</ele>
        <time>2022-09-27T08:56:05Z</time>
      </trkpt>
      <trkpt lat="48.9272" lon="2.07575">
        <ele>66</ele>
        <time>2022-09-27T08:56:09Z</time>
      </trkpt>
      <trkpt lat="48.92718" lon="2.07581">
        <ele>65.7</ele>
        <time>2022-09-27T08:56:12Z</time>
      </trkpt>
      <trkpt lat="48.92715" lon="2.07587">
        <ele>65.5</ele>
        <time>2022-09-27T08:56:15Z</time>
      </trkpt>
      <trkpt lat="48.92711" lon="2.07593">
        <ele>65</ele>
        <time>2022-09-27T08:56:19Z</time>
      </trkpt>
      <trkpt lat="48.92708" lon="2.07599">
        <ele>65.4</ele>
        <time>2022-09-27T08:56:22Z</time>
      </trkpt>
      <trkpt lat="48.92706" lon="2.07605">
        <ele>65.3</ele>
        <time>2022-09-27T08:56:25Z</time>
      </trkpt>
      <trkpt lat="48.92702" lon="2.07613">
        <ele>65</ele>
        <time>2022-09-27T08:56:29Z</time>
      </trkpt>
      <trkpt lat="48.927" lon="2.07621">
        <ele>64.7</ele>
        <time>2022-09-27T08:56:33Z</time>
      </trkpt>
      <trkpt lat="48.92692" lon="2.07652">
        <ele>64</ele>
        <time>2022-09-27T08:56:48Z</time>
      </trkpt>
      <trkpt lat="48.9269" lon="2.07659">
        <ele>63.9</ele>
        <time>2022-09-27T08:56:52Z</time>
      </trkpt>
      <trkpt lat="48.92688" lon="2.07667">
        <ele>63.8</ele>
        <time>2022-09-27T08:56:56Z</time>
      </trkpt>
      <trkpt lat="48.92685" lon="2.07675">
        <ele>63.4</ele>
        <time>2022-09-27T08:57:00Z</time>
      </trkpt>
      <trkpt lat="48.92682" lon="2.07681">
        <ele>63.3</ele>
        <time>2022-09-27T08:57:03Z</time>
      </trkpt>
      <trkpt lat="48.92679" lon="2.07688">
        <ele>63.3</ele>
        <time>2022-09-27T08:57:07Z</time>
      </trkpt>
      <trkpt lat="48.92677" lon="2.07694">
        <ele>63.2</ele>
        <time>2022-09-27T08:57:10Z</time>
      </trkpt>
      <trkpt lat="48.92675" lon="2.07701">
        <ele>63.2</ele>
        <time>2022-09-27T08:57:14Z</time>
      </trkpt>
      <trkpt lat="48.92673" lon="2.07708">
        <ele>63.4</ele>
        <time>2022-09-27T08:57:17Z</time>
      </trkpt>
      <trkpt lat="48.92671" lon="2.07715">
        <ele>63.6</ele>
        <time>2022-09-27T08:57:21Z</time>
      </trkpt>
      <trkpt lat="48.92668" lon="2.07723">
        <ele>63.3</ele>
        <time>2022-09-27T08:57:25Z</time>
      </trkpt>
      <trkpt lat="48.92666" lon="2.07731">
        <ele>63.8</ele>
        <time>2022-09-27T08:57:29Z</time>
      </trkpt>
      <trkpt lat="48.92663" lon="2.0774">
        <ele>64.2</ele>
        <time>2022-09-27T08:57:33Z</time>
      </trkpt>
      <trkpt lat="48.9266" lon="2.07748">
        <ele>64.6</ele>
        <time>2022-09-27T08:57:38Z</time>
      </trkpt>
      <trkpt lat="48.92658" lon="2.07754">
        <ele>66.4</ele>
        <time>2022-09-27T08:57:41Z</time>
      </trkpt>
      <trkpt lat="48.92655" lon="2.0776">
        <ele>67.5</ele>
        <time>2022-09-27T08:57:45Z</time>
      </trkpt>
      <trkpt lat="48.92652" lon="2.07768">
        <ele>68.7</ele>
        <time>2022-09-27T08:57:49Z</time>
      </trkpt>
      <trkpt lat="48.9265" lon="2.07776">
        <ele>68.6</ele>
        <time>2022-09-27T08:57:53Z</time>
      </trkpt>
      <trkpt lat="48.92649" lon="2.07783">
        <ele>70.1</ele>
        <time>2022-09-27T08:57:56Z</time>
      </trkpt>
      <trkpt lat="48.92641" lon="2.07813">
        <ele>70.1</ele>
        <time>2022-09-27T08:58:12Z</time>
      </trkpt>
      <trkpt lat="48.92637" lon="2.0783">
        <ele>70</ele>
        <time>2022-09-27T08:58:20Z</time>
      </trkpt>
      <trkpt lat="48.92635" lon="2.07838">
        <ele>70.5</ele>
        <time>2022-09-27T08:58:24Z</time>
      </trkpt>
      <trkpt lat="48.92633" lon="2.07845">
        <ele>70.7</ele>
        <time>2022-09-27T08:58:28Z</time>
      </trkpt>
      <trkpt lat="48.92631" lon="2.07853">
        <ele>70.8</ele>
        <time>2022-09-27T08:58:32Z</time>
      </trkpt>
      <trkpt lat="48.92628" lon="2.07861">
        <ele>70.3</ele>
        <time>2022-09-27T08:58:36Z</time>
      </trkpt>
      <trkpt lat="48.92626" lon="2.07868">
        <ele>70.2</ele>
        <time>2022-09-27T08:58:39Z</time>
      </trkpt>
      <trkpt lat="48.92624" lon="2.07875">
        <ele>70.2</ele>
        <time>2022-09-27T08:58:43Z</time>
      </trkpt>
      <trkpt lat="48.92621" lon="2.07882">
        <ele>69.8</ele>
        <time>2022-09-27T08:58:47Z</time>
      </trkpt>
      <trkpt lat="48.92619" lon="2.07888">
        <ele>69.3</ele>
        <time>2022-09-27T08:58:51Z</time>
      </trkpt>
      <trkpt lat="48.92615" lon="2.07894">
        <ele>69.1</ele>
        <time>2022-09-27T08:58:56Z</time>
      </trkpt>
      <trkpt lat="48.92616" lon="2.07887">
        <ele>69</ele>
        <time>2022-09-27T08:59:48Z</time>
      </trkpt>
      <trkpt lat="48.9262" lon="2.07886">
        <ele>67.9</ele>
        <time>2022-09-27T09:01:17Z</time>
      </trkpt>
      <trkpt lat="48.92626" lon="2.07889">
        <ele>67.6</ele>
        <time>2022-09-27T09:01:32Z</time>
      </trkpt>
      <trkpt lat="48.92631" lon="2.07889">
        <ele>67.7</ele>
        <time>2022-09-27T09:01:34Z</time>
      </trkpt>
      <trkpt lat="48.92636" lon="2.0789">
        <ele>67.4</ele>
        <time>2022-09-27T09:01:37Z</time>
      </trkpt>
      <trkpt lat="48.92641" lon="2.07893">
        <ele>66.4</ele>
        <time>2022-09-27T09:01:41Z</time>
      </trkpt>
      <trkpt lat="48.92647" lon="2.0789">
        <ele>66.2</ele>
        <time>2022-09-27T09:01:45Z</time>
      </trkpt>
      <trkpt lat="48.92651" lon="2.07894">
        <ele>66</ele>
        <time>2022-09-27T09:01:49Z</time>
      </trkpt>
      <trkpt lat="48.92656" lon="2.07898">
        <ele>65.5</ele>
        <time>2022-09-27T09:01:53Z</time>
      </trkpt>
      <trkpt lat="48.92661" lon="2.07903">
        <ele>64.6</ele>
        <time>2022-09-27T09:01:57Z</time>
      </trkpt>
      <trkpt lat="48.92667" lon="2.07906">
        <ele>64.8</ele>
        <time>2022-09-27T09:02:02Z</time>
      </trkpt>
      <trkpt lat="48.92671" lon="2.07909">
        <ele>64.9</ele>
        <time>2022-09-27T09:02:06Z</time>
      </trkpt>
      <trkpt lat="48.92675" lon="2.07912">
        <ele>64.2</ele>
        <time>2022-09-27T09:02:10Z</time>
      </trkpt>
      <trkpt lat="48.9268" lon="2.07915">
        <ele>64.3</ele>
        <time>2022-09-27T09:02:14Z</time>
      </trkpt>
      <trkpt lat="48.92685" lon="2.07917">
        <ele>64.1</ele>
        <time>2022-09-27T09:02:18Z</time>
      </trkpt>
      <trkpt lat="48.92691" lon="2.07919">
        <ele>63.8</ele>
        <time>2022-09-27T09:02:22Z</time>
      </trkpt>
      <trkpt lat="48.92696" lon="2.07921">
        <ele>63.6</ele>
        <time>2022-09-27T09:02:26Z</time>
      </trkpt>
      <trkpt lat="48.92701" lon="2.07924">
        <ele>63.5</ele>
        <time>2022-09-27T09:02:30Z</time>
      </trkpt>
      <trkpt lat="48.92706" lon="2.07925">
        <ele>63.1</ele>
        <time>2022-09-27T09:02:34Z</time>
      </trkpt>
      <trkpt lat="48.92711" lon="2.07928">
        <ele>63.3</ele>
        <time>2022-09-27T09:02:38Z</time>
      </trkpt>
      <trkpt lat="48.92716" lon="2.07928">
        <ele>63.2</ele>
        <time>2022-09-27T09:02:42Z</time>
      </trkpt>
      <trkpt lat="48.92722" lon="2.07929">
        <ele>63</ele>
        <time>2022-09-27T09:02:47Z</time>
      </trkpt>
      <trkpt lat="48.92727" lon="2.07931">
        <ele>62.7</ele>
        <time>2022-09-27T09:02:50Z</time>
      </trkpt>
      <trkpt lat="48.92732" lon="2.07934">
        <ele>62.4</ele>
        <time>2022-09-27T09:02:54Z</time>
      </trkpt>
      <trkpt lat="48.92737" lon="2.07936">
        <ele>62.3</ele>
        <time>2022-09-27T09:02:58Z</time>
      </trkpt>
      <trkpt lat="48.92742" lon="2.0794">
        <ele>62.5</ele>
        <time>2022-09-27T09:03:02Z</time>
      </trkpt>
      <trkpt lat="48.92747" lon="2.07942">
        <ele>62.8</ele>
        <time>2022-09-27T09:03:05Z</time>
      </trkpt>
      <trkpt lat="48.92752" lon="2.07945">
        <ele>62.8</ele>
        <time>2022-09-27T09:03:09Z</time>
      </trkpt>
      <trkpt lat="48.92757" lon="2.07948">
        <ele>63.5</ele>
        <time>2022-09-27T09:03:13Z</time>
      </trkpt>
      <trkpt lat="48.92762" lon="2.0795">
        <ele>63.7</ele>
        <time>2022-09-27T09:03:16Z</time>
      </trkpt>
      <trkpt lat="48.92767" lon="2.07953">
        <ele>63.3</ele>
        <time>2022-09-27T09:03:21Z</time>
      </trkpt>
      <trkpt lat="48.92773" lon="2.07954">
        <ele>62.9</ele>
        <time>2022-09-27T09:03:26Z</time>
      </trkpt>
      <trkpt lat="48.92778" lon="2.07955">
        <ele>63.3</ele>
        <time>2022-09-27T09:03:29Z</time>
      </trkpt>
      <trkpt lat="48.92783" lon="2.07958">
        <ele>63.6</ele>
        <time>2022-09-27T09:03:33Z</time>
      </trkpt>
      <trkpt lat="48.92787" lon="2.07959">
        <ele>63.6</ele>
        <time>2022-09-27T09:03:37Z</time>
      </trkpt>
      <trkpt lat="48.92792" lon="2.07962">
        <ele>64.4</ele>
        <time>2022-09-27T09:03:41Z</time>
      </trkpt>
      <trkpt lat="48.92797" lon="2.07965">
        <ele>64.3</ele>
        <time>2022-09-27T09:03:45Z</time>
      </trkpt>
      <trkpt lat="48.92803" lon="2.07968">
        <ele>64.1</ele>
        <time>2022-09-27T09:03:49Z</time>
      </trkpt>
      <trkpt lat="48.92808" lon="2.07971">
        <ele>63.9</ele>
        <time>2022-09-27T09:03:53Z</time>
      </trkpt>
      <trkpt lat="48.92813" lon="2.07974">
        <ele>63.7</ele>
        <time>2022-09-27T09:03:57Z</time>
      </trkpt>
      <trkpt lat="48.92818" lon="2.07977">
        <ele>64.3</ele>
        <time>2022-09-27T09:04:01Z</time>
      </trkpt>
      <trkpt lat="48.92823" lon="2.07982">
        <ele>64.1</ele>
        <time>2022-09-27T09:04:05Z</time>
      </trkpt>
      <trkpt lat="48.92827" lon="2.07986">
        <ele>64.2</ele>
        <time>2022-09-27T09:04:09Z</time>
      </trkpt>
      <trkpt lat="48.92831" lon="2.07988">
        <ele>64.5</ele>
        <time>2022-09-27T09:04:12Z</time>
      </trkpt>
      <trkpt lat="48.92835" lon="2.0799">
        <ele>65.3</ele>
        <time>2022-09-27T09:04:16Z</time>
      </trkpt>
      <trkpt lat="48.9284" lon="2.07993">
        <ele>65.2</ele>
        <time>2022-09-27T09:04:20Z</time>
      </trkpt>
      <trkpt lat="48.92845" lon="2.07995">
        <ele>65</ele>
        <time>2022-09-27T09:04:23Z</time>
      </trkpt>
      <trkpt lat="48.9285" lon="2.07997">
        <ele>64.7</ele>
        <time>2022-09-27T09:04:28Z</time>
      </trkpt>
      <trkpt lat="48.92856" lon="2.07999">
        <ele>64.6</ele>
        <time>2022-09-27T09:04:32Z</time>
      </trkpt>
      <trkpt lat="48.92861" lon="2.08001">
        <ele>64.5</ele>
        <time>2022-09-27T09:04:37Z</time>
      </trkpt>
      <trkpt lat="48.92865" lon="2.08004">
        <ele>64.2</ele>
        <time>2022-09-27T09:04:41Z</time>
      </trkpt>
      <trkpt lat="48.92871" lon="2.08006">
        <ele>64.2</ele>
        <time>2022-09-27T09:04:46Z</time>
      </trkpt>
      <trkpt lat="48.92876" lon="2.0801">
        <ele>63.8</ele>
        <time>2022-09-27T09:04:50Z</time>
      </trkpt>
      <trkpt lat="48.92881" lon="2.08012">
        <ele>63.6</ele>
        <time>2022-09-27T09:04:55Z</time>
      </trkpt>
      <trkpt lat="48.92886" lon="2.08014">
        <ele>63.8</ele>
        <time>2022-09-27T09:04:58Z</time>
      </trkpt>
      <trkpt lat="48.92889" lon="2.08021">
        <ele>63.6</ele>
        <time>2022-09-27T09:05:04Z</time>
      </trkpt>
      <trkpt lat="48.92893" lon="2.08024">
        <ele>63.3</ele>
        <time>2022-09-27T09:05:09Z</time>
      </trkpt>
      <trkpt lat="48.92898" lon="2.08024">
        <ele>63.4</ele>
        <time>2022-09-27T09:05:14Z</time>
      </trkpt>
      <trkpt lat="48.92902" lon="2.08029">
        <ele>63.6</ele>
        <time>2022-09-27T09:05:18Z</time>
      </trkpt>
      <trkpt lat="48.92903" lon="2.08036">
        <ele>63.9</ele>
        <time>2022-09-27T09:05:22Z</time>
      </trkpt>
      <trkpt lat="48.92902" lon="2.08043">
        <ele>63.9</ele>
        <time>2022-09-27T09:05:26Z</time>
      </trkpt>
      <trkpt lat="48.92897" lon="2.08048">
        <ele>64.2</ele>
        <time>2022-09-27T09:05:30Z</time>
      </trkpt>
      <trkpt lat="48.92898" lon="2.08055">
        <ele>64.5</ele>
        <time>2022-09-27T09:05:33Z</time>
      </trkpt>
      <trkpt lat="48.92897" lon="2.08062">
        <ele>64.6</ele>
        <time>2022-09-27T09:05:37Z</time>
      </trkpt>
      <trkpt lat="48.92894" lon="2.08069">
        <ele>64.1</ele>
        <time>2022-09-27T09:05:41Z</time>
      </trkpt>
      <trkpt lat="48.92892" lon="2.08076">
        <ele>63.9</ele>
        <time>2022-09-27T09:05:45Z</time>
      </trkpt>
      <trkpt lat="48.9289" lon="2.08083">
        <ele>63.7</ele>
        <time>2022-09-27T09:05:50Z</time>
      </trkpt>
      <trkpt lat="48.92889" lon="2.0809">
        <ele>63.4</ele>
        <time>2022-09-27T09:05:54Z</time>
      </trkpt>
      <trkpt lat="48.92888" lon="2.08099">
        <ele>63.2</ele>
        <time>2022-09-27T09:05:59Z</time>
      </trkpt>
      <trkpt lat="48.92888" lon="2.08107">
        <ele>62.9</ele>
        <time>2022-09-27T09:06:03Z</time>
      </trkpt>
      <trkpt lat="48.92887" lon="2.08116">
        <ele>62.5</ele>
        <time>2022-09-27T09:06:08Z</time>
      </trkpt>
      <trkpt lat="48.92886" lon="2.08124">
        <ele>62.2</ele>
        <time>2022-09-27T09:06:13Z</time>
      </trkpt>
      <trkpt lat="48.92885" lon="2.08131">
        <ele>61.7</ele>
        <time>2022-09-27T09:06:17Z</time>
      </trkpt>
      <trkpt lat="48.92885" lon="2.08138">
        <ele>61.4</ele>
        <time>2022-09-27T09:06:21Z</time>
      </trkpt>
      <trkpt lat="48.92885" lon="2.08146">
        <ele>61.2</ele>
        <time>2022-09-27T09:06:25Z</time>
      </trkpt>
      <trkpt lat="48.92885" lon="2.08153">
        <ele>60.4</ele>
        <time>2022-09-27T09:06:29Z</time>
      </trkpt>
      <trkpt lat="48.92885" lon="2.08162">
        <ele>59.4</ele>
        <time>2022-09-27T09:06:34Z</time>
      </trkpt>
      <trkpt lat="48.92884" lon="2.0817">
        <ele>59.4</ele>
        <time>2022-09-27T09:06:39Z</time>
      </trkpt>
      <trkpt lat="48.92883" lon="2.08177">
        <ele>59.2</ele>
        <time>2022-09-27T09:06:43Z</time>
      </trkpt>
      <trkpt lat="48.9288" lon="2.08185">
        <ele>58.9</ele>
        <time>2022-09-27T09:06:48Z</time>
      </trkpt>
      <trkpt lat="48.92877" lon="2.08193">
        <ele>58.5</ele>
        <time>2022-09-27T09:06:53Z</time>
      </trkpt>
      <trkpt lat="48.92876" lon="2.08201">
        <ele>58.2</ele>
        <time>2022-09-27T09:06:57Z</time>
      </trkpt>
      <trkpt lat="48.92875" lon="2.08209">
        <ele>57.8</ele>
        <time>2022-09-27T09:07:02Z</time>
      </trkpt>
      <trkpt lat="48.92874" lon="2.08217">
        <ele>57.2</ele>
        <time>2022-09-27T09:07:06Z</time>
      </trkpt>
      <trkpt lat="48.92873" lon="2.08225">
        <ele>57</ele>
        <time>2022-09-27T09:07:11Z</time>
      </trkpt>
      <trkpt lat="48.92871" lon="2.08234">
        <ele>56.8</ele>
        <time>2022-09-27T09:07:16Z</time>
      </trkpt>
      <trkpt lat="48.9287" lon="2.08241">
        <ele>56.6</ele>
        <time>2022-09-27T09:07:19Z</time>
      </trkpt>
      <trkpt lat="48.92869" lon="2.08249">
        <ele>56.3</ele>
        <time>2022-09-27T09:07:23Z</time>
      </trkpt>
      <trkpt lat="48.92868" lon="2.08256">
        <ele>55.5</ele>
        <time>2022-09-27T09:07:26Z</time>
      </trkpt>
      <trkpt lat="48.92868" lon="2.08263">
        <ele>55</ele>
        <time>2022-09-27T09:07:29Z</time>
      </trkpt>
      <trkpt lat="48.92867" lon="2.08271">
        <ele>55</ele>
        <time>2022-09-27T09:07:33Z</time>
      </trkpt>
      <trkpt lat="48.92866" lon="2.08278">
        <ele>55.3</ele>
        <time>2022-09-27T09:07:36Z</time>
      </trkpt>
      <trkpt lat="48.92865" lon="2.08287">
        <ele>55.1</ele>
        <time>2022-09-27T09:07:40Z</time>
      </trkpt>
      <trkpt lat="48.92864" lon="2.08294">
        <ele>54.9</ele>
        <time>2022-09-27T09:07:44Z</time>
      </trkpt>
      <trkpt lat="48.92863" lon="2.08301">
        <ele>55.3</ele>
        <time>2022-09-27T09:07:49Z</time>
      </trkpt>
      <trkpt lat="48.92864" lon="2.08308">
        <ele>55.6</ele>
        <time>2022-09-27T09:07:56Z</time>
      </trkpt>
      <trkpt lat="48.92862" lon="2.08301">
        <ele>55.9</ele>
        <time>2022-09-27T09:08:00Z</time>
      </trkpt>
      <trkpt lat="48.92867" lon="2.08296">
        <ele>55.6</ele>
        <time>2022-09-27T09:08:06Z</time>
      </trkpt>
      <trkpt lat="48.92868" lon="2.08305">
        <ele>56.3</ele>
        <time>2022-09-27T09:08:21Z</time>
      </trkpt>
      <trkpt lat="48.92868" lon="2.08312">
        <ele>56.3</ele>
        <time>2022-09-27T09:08:46Z</time>
      </trkpt>
      <trkpt lat="48.92867" lon="2.08319">
        <ele>56.9</ele>
        <time>2022-09-27T09:08:48Z</time>
      </trkpt>
      <trkpt lat="48.92866" lon="2.0833">
        <ele>57</ele>
        <time>2022-09-27T09:08:51Z</time>
      </trkpt>
      <trkpt lat="48.92865" lon="2.08337">
        <ele>56.7</ele>
        <time>2022-09-27T09:08:54Z</time>
      </trkpt>
      <trkpt lat="48.92864" lon="2.08347">
        <ele>56.5</ele>
        <time>2022-09-27T09:08:57Z</time>
      </trkpt>
      <trkpt lat="48.92863" lon="2.08353">
        <ele>57.3</ele>
        <time>2022-09-27T09:08:59Z</time>
      </trkpt>
      <trkpt lat="48.92861" lon="2.08362">
        <ele>57.4</ele>
        <time>2022-09-27T09:09:02Z</time>
      </trkpt>
      <trkpt lat="48.9286" lon="2.08369">
        <ele>57.9</ele>
        <time>2022-09-27T09:09:05Z</time>
      </trkpt>
      <trkpt lat="48.9286" lon="2.08378">
        <ele>58.4</ele>
        <time>2022-09-27T09:09:08Z</time>
      </trkpt>
      <trkpt lat="48.9286" lon="2.08386">
        <ele>58.5</ele>
        <time>2022-09-27T09:09:12Z</time>
      </trkpt>
      <trkpt lat="48.9286" lon="2.08395">
        <ele>58.6</ele>
        <time>2022-09-27T09:09:16Z</time>
      </trkpt>
      <trkpt lat="48.9286" lon="2.08402">
        <ele>58.2</ele>
        <time>2022-09-27T09:09:19Z</time>
      </trkpt>
      <trkpt lat="48.92859" lon="2.08409">
        <ele>58.9</ele>
        <time>2022-09-27T09:09:22Z</time>
      </trkpt>
      <trkpt lat="48.92858" lon="2.08418">
        <ele>59.9</ele>
        <time>2022-09-27T09:09:27Z</time>
      </trkpt>
      <trkpt lat="48.92858" lon="2.08425">
        <ele>60.1</ele>
        <time>2022-09-27T09:09:30Z</time>
      </trkpt>
      <trkpt lat="48.92857" lon="2.08433">
        <ele>60.8</ele>
        <time>2022-09-27T09:09:34Z</time>
      </trkpt>
      <trkpt lat="48.92857" lon="2.08442">
        <ele>60.8</ele>
        <time>2022-09-27T09:09:38Z</time>
      </trkpt>
      <trkpt lat="48.92857" lon="2.08449">
        <ele>61.5</ele>
        <time>2022-09-27T09:09:42Z</time>
      </trkpt>
      <trkpt lat="48.92856" lon="2.08456">
        <ele>62.5</ele>
        <time>2022-09-27T09:09:46Z</time>
      </trkpt>
      <trkpt lat="48.92856" lon="2.08464">
        <ele>63.4</ele>
        <time>2022-09-27T09:09:50Z</time>
      </trkpt>
      <trkpt lat="48.92854" lon="2.08472">
        <ele>63.8</ele>
        <time>2022-09-27T09:09:54Z</time>
      </trkpt>
      <trkpt lat="48.92853" lon="2.08481">
        <ele>65.1</ele>
        <time>2022-09-27T09:09:59Z</time>
      </trkpt>
      <trkpt lat="48.92852" lon="2.08489">
        <ele>66.4</ele>
        <time>2022-09-27T09:10:03Z</time>
      </trkpt>
      <trkpt lat="48.92852" lon="2.08497">
        <ele>66.8</ele>
        <time>2022-09-27T09:10:07Z</time>
      </trkpt>
      <trkpt lat="48.92851" lon="2.08505">
        <ele>66.5</ele>
        <time>2022-09-27T09:10:11Z</time>
      </trkpt>
      <trkpt lat="48.9285" lon="2.08513">
        <ele>66.5</ele>
        <time>2022-09-27T09:10:16Z</time>
      </trkpt>
      <trkpt lat="48.92849" lon="2.08521">
        <ele>66.1</ele>
        <time>2022-09-27T09:10:20Z</time>
      </trkpt>
      <trkpt lat="48.92849" lon="2.0853">
        <ele>65.4</ele>
        <time>2022-09-27T09:10:26Z</time>
      </trkpt>
      <trkpt lat="48.92849" lon="2.08537">
        <ele>64.7</ele>
        <time>2022-09-27T09:10:30Z</time>
      </trkpt>
      <trkpt lat="48.92847" lon="2.08545">
        <ele>62.4</ele>
        <time>2022-09-27T09:10:35Z</time>
      </trkpt>
      <trkpt lat="48.92846" lon="2.08552">
        <ele>60.6</ele>
        <time>2022-09-27T09:10:39Z</time>
      </trkpt>
      <trkpt lat="48.92844" lon="2.08559">
        <ele>61</ele>
        <time>2022-09-27T09:10:43Z</time>
      </trkpt>
      <trkpt lat="48.92842" lon="2.08567">
        <ele>59.5</ele>
        <time>2022-09-27T09:10:48Z</time>
      </trkpt>
      <trkpt lat="48.9284" lon="2.08574">
        <ele>58.8</ele>
        <time>2022-09-27T09:10:52Z</time>
      </trkpt>
      <trkpt lat="48.9284" lon="2.08582">
        <ele>58.5</ele>
        <time>2022-09-27T09:10:56Z</time>
      </trkpt>
      <trkpt lat="48.92839" lon="2.0859">
        <ele>57.9</ele>
        <time>2022-09-27T09:11:00Z</time>
      </trkpt>
      <trkpt lat="48.92838" lon="2.08598">
        <ele>57</ele>
        <time>2022-09-27T09:11:04Z</time>
      </trkpt>
      <trkpt lat="48.92838" lon="2.08605">
        <ele>57</ele>
        <time>2022-09-27T09:11:08Z</time>
      </trkpt>
      <trkpt lat="48.92837" lon="2.08614">
        <ele>56.9</ele>
        <time>2022-09-27T09:11:13Z</time>
      </trkpt>
      <trkpt lat="48.92836" lon="2.08623">
        <ele>56.7</ele>
        <time>2022-09-27T09:11:18Z</time>
      </trkpt>
      <trkpt lat="48.92837" lon="2.08631">
        <ele>56.2</ele>
        <time>2022-09-27T09:11:22Z</time>
      </trkpt>
      <trkpt lat="48.92837" lon="2.08639">
        <ele>56.2</ele>
        <time>2022-09-27T09:11:26Z</time>
      </trkpt>
      <trkpt lat="48.92837" lon="2.08646">
        <ele>56</ele>
        <time>2022-09-27T09:11:30Z</time>
      </trkpt>
      <trkpt lat="48.92836" lon="2.08653">
        <ele>56.3</ele>
        <time>2022-09-27T09:11:34Z</time>
      </trkpt>
      <trkpt lat="48.92835" lon="2.08661">
        <ele>56.5</ele>
        <time>2022-09-27T09:11:38Z</time>
      </trkpt>
      <trkpt lat="48.92835" lon="2.08669">
        <ele>57.2</ele>
        <time>2022-09-27T09:11:42Z</time>
      </trkpt>
      <trkpt lat="48.92834" lon="2.08677">
        <ele>57.8</ele>
        <time>2022-09-27T09:11:46Z</time>
      </trkpt>
      <trkpt lat="48.92833" lon="2.08685">
        <ele>57.9</ele>
        <time>2022-09-27T09:11:50Z</time>
      </trkpt>
      <trkpt lat="48.92833" lon="2.08694">
        <ele>58.2</ele>
        <time>2022-09-27T09:11:54Z</time>
      </trkpt>
      <trkpt lat="48.92833" lon="2.08701">
        <ele>57.9</ele>
        <time>2022-09-27T09:11:58Z</time>
      </trkpt>
      <trkpt lat="48.92832" lon="2.08708">
        <ele>58.3</ele>
        <time>2022-09-27T09:12:02Z</time>
      </trkpt>
      <trkpt lat="48.92831" lon="2.08717">
        <ele>58.6</ele>
        <time>2022-09-27T09:12:06Z</time>
      </trkpt>
      <trkpt lat="48.92826" lon="2.08722">
        <ele>59.3</ele>
        <time>2022-09-27T09:12:10Z</time>
      </trkpt>
      <trkpt lat="48.9282" lon="2.0872">
        <ele>59.6</ele>
        <time>2022-09-27T09:12:14Z</time>
      </trkpt>
      <trkpt lat="48.92815" lon="2.08716">
        <ele>59.5</ele>
        <time>2022-09-27T09:12:18Z</time>
      </trkpt>
      <trkpt lat="48.9281" lon="2.08713">
        <ele>59.4</ele>
        <time>2022-09-27T09:12:22Z</time>
      </trkpt>
      <trkpt lat="48.92805" lon="2.08709">
        <ele>59.6</ele>
        <time>2022-09-27T09:12:26Z</time>
      </trkpt>
      <trkpt lat="48.92801" lon="2.08705">
        <ele>59.8</ele>
        <time>2022-09-27T09:12:30Z</time>
      </trkpt>
      <trkpt lat="48.92796" lon="2.08702">
        <ele>60.4</ele>
        <time>2022-09-27T09:12:34Z</time>
      </trkpt>
      <trkpt lat="48.92791" lon="2.08698">
        <ele>60.8</ele>
        <time>2022-09-27T09:12:38Z</time>
      </trkpt>
      <trkpt lat="48.92785" lon="2.08694">
        <ele>60.8</ele>
        <time>2022-09-27T09:12:43Z</time>
      </trkpt>
      <trkpt lat="48.9278" lon="2.08691">
        <ele>61.3</ele>
        <time>2022-09-27T09:12:47Z</time>
      </trkpt>
      <trkpt lat="48.92774" lon="2.08688">
        <ele>61.7</ele>
        <time>2022-09-27T09:12:51Z</time>
      </trkpt>
      <trkpt lat="48.92768" lon="2.08687">
        <ele>62.8</ele>
        <time>2022-09-27T09:12:55Z</time>
      </trkpt>
      <trkpt lat="48.92763" lon="2.08686">
        <ele>63.2</ele>
        <time>2022-09-27T09:12:59Z</time>
      </trkpt>
      <trkpt lat="48.92758" lon="2.08686">
        <ele>63.7</ele>
        <time>2022-09-27T09:13:03Z</time>
      </trkpt>
      <trkpt lat="48.92753" lon="2.08686">
        <ele>63.9</ele>
        <time>2022-09-27T09:13:07Z</time>
      </trkpt>
      <trkpt lat="48.92748" lon="2.08685">
        <ele>64.4</ele>
        <time>2022-09-27T09:13:11Z</time>
      </trkpt>
      <trkpt lat="48.92743" lon="2.08683">
        <ele>64.9</ele>
        <time>2022-09-27T09:13:15Z</time>
      </trkpt>
      <trkpt lat="48.92738" lon="2.08682">
        <ele>65</ele>
        <time>2022-09-27T09:13:19Z</time>
      </trkpt>
      <trkpt lat="48.92734" lon="2.08679">
        <ele>65.1</ele>
        <time>2022-09-27T09:13:23Z</time>
      </trkpt>
      <trkpt lat="48.92729" lon="2.08677">
        <ele>65.1</ele>
        <time>2022-09-27T09:13:27Z</time>
      </trkpt>
      <trkpt lat="48.92725" lon="2.08674">
        <ele>65.2</ele>
        <time>2022-09-27T09:13:31Z</time>
      </trkpt>
      <trkpt lat="48.9272" lon="2.08671">
        <ele>65.2</ele>
        <time>2022-09-27T09:13:35Z</time>
      </trkpt>
      <trkpt lat="48.92715" lon="2.08668">
        <ele>65.4</ele>
        <time>2022-09-27T09:13:39Z</time>
      </trkpt>
      <trkpt lat="48.9271" lon="2.08665">
        <ele>65.6</ele>
        <time>2022-09-27T09:13:43Z</time>
      </trkpt>
      <trkpt lat="48.92706" lon="2.08663">
        <ele>65.7</ele>
        <time>2022-09-27T09:13:47Z</time>
      </trkpt>
      <trkpt lat="48.927" lon="2.08661">
        <ele>65.5</ele>
        <time>2022-09-27T09:13:51Z</time>
      </trkpt>
      <trkpt lat="48.92695" lon="2.08659">
        <ele>65.6</ele>
        <time>2022-09-27T09:13:55Z</time>
      </trkpt>
      <trkpt lat="48.92691" lon="2.08658">
        <ele>65.7</ele>
        <time>2022-09-27T09:13:58Z</time>
      </trkpt>
      <trkpt lat="48.92686" lon="2.08657">
        <ele>66.1</ele>
        <time>2022-09-27T09:14:02Z</time>
      </trkpt>
      <trkpt lat="48.9268" lon="2.08655">
        <ele>66.2</ele>
        <time>2022-09-27T09:14:06Z</time>
      </trkpt>
      <trkpt lat="48.92676" lon="2.08652">
        <ele>66.5</ele>
        <time>2022-09-27T09:14:10Z</time>
      </trkpt>
      <trkpt lat="48.92671" lon="2.08649">
        <ele>66.3</ele>
        <time>2022-09-27T09:14:14Z</time>
      </trkpt>
      <trkpt lat="48.92666" lon="2.08645">
        <ele>66.3</ele>
        <time>2022-09-27T09:14:18Z</time>
      </trkpt>
      <trkpt lat="48.92662" lon="2.08643">
        <ele>66.2</ele>
        <time>2022-09-27T09:14:22Z</time>
      </trkpt>
      <trkpt lat="48.92658" lon="2.08641">
        <ele>66.2</ele>
        <time>2022-09-27T09:14:26Z</time>
      </trkpt>
      <trkpt lat="48.92653" lon="2.0864">
        <ele>66.2</ele>
        <time>2022-09-27T09:14:29Z</time>
      </trkpt>
      <trkpt lat="48.92648" lon="2.08638">
        <ele>66.1</ele>
        <time>2022-09-27T09:14:33Z</time>
      </trkpt>
      <trkpt lat="48.92643" lon="2.08636">
        <ele>65.8</ele>
        <time>2022-09-27T09:14:37Z</time>
      </trkpt>
      <trkpt lat="48.92638" lon="2.08634">
        <ele>66</ele>
        <time>2022-09-27T09:14:40Z</time>
      </trkpt>
      <trkpt lat="48.92633" lon="2.08633">
        <ele>66</ele>
        <time>2022-09-27T09:14:43Z</time>
      </trkpt>
      <trkpt lat="48.92629" lon="2.0863">
        <ele>66.2</ele>
        <time>2022-09-27T09:14:47Z</time>
      </trkpt>
      <trkpt lat="48.92624" lon="2.08627">
        <ele>66.3</ele>
        <time>2022-09-27T09:14:51Z</time>
      </trkpt>
      <trkpt lat="48.92618" lon="2.08624">
        <ele>66.7</ele>
        <time>2022-09-27T09:14:55Z</time>
      </trkpt>
      <trkpt lat="48.92613" lon="2.08621">
        <ele>67.2</ele>
        <time>2022-09-27T09:15:00Z</time>
      </trkpt>
      <trkpt lat="48.92608" lon="2.08618">
        <ele>67.7</ele>
        <time>2022-09-27T09:15:04Z</time>
      </trkpt>
      <trkpt lat="48.92603" lon="2.08616">
        <ele>67.5</ele>
        <time>2022-09-27T09:15:08Z</time>
      </trkpt>
      <trkpt lat="48.92598" lon="2.08615">
        <ele>67.8</ele>
        <time>2022-09-27T09:15:12Z</time>
      </trkpt>
      <trkpt lat="48.92593" lon="2.08615">
        <ele>68.3</ele>
        <time>2022-09-27T09:15:16Z</time>
      </trkpt>
      <trkpt lat="48.92588" lon="2.08613">
        <ele>68.6</ele>
        <time>2022-09-27T09:15:20Z</time>
      </trkpt>
      <trkpt lat="48.92583" lon="2.08612">
        <ele>68.6</ele>
        <time>2022-09-27T09:15:24Z</time>
      </trkpt>
      <trkpt lat="48.92578" lon="2.08609">
        <ele>68.9</ele>
        <time>2022-09-27T09:15:28Z</time>
      </trkpt>
      <trkpt lat="48.92573" lon="2.08607">
        <ele>69.7</ele>
        <time>2022-09-27T09:15:32Z</time>
      </trkpt>
      <trkpt lat="48.92568" lon="2.08605">
        <ele>69.7</ele>
        <time>2022-09-27T09:15:36Z</time>
      </trkpt>
      <trkpt lat="48.92563" lon="2.08604">
        <ele>70.8</ele>
        <time>2022-09-27T09:15:40Z</time>
      </trkpt>
      <trkpt lat="48.92558" lon="2.08602">
        <ele>71.9</ele>
        <time>2022-09-27T09:15:44Z</time>
      </trkpt>
      <trkpt lat="48.92553" lon="2.08601">
        <ele>73.1</ele>
        <time>2022-09-27T09:15:48Z</time>
      </trkpt>
      <trkpt lat="48.92548" lon="2.08598">
        <ele>74.1</ele>
        <time>2022-09-27T09:15:53Z</time>
      </trkpt>
      <trkpt lat="48.92542" lon="2.08594">
        <ele>74.6</ele>
        <time>2022-09-27T09:15:58Z</time>
      </trkpt>
      <trkpt lat="48.92537" lon="2.08591">
        <ele>74.9</ele>
        <time>2022-09-27T09:16:02Z</time>
      </trkpt>
      <trkpt lat="48.92533" lon="2.08587">
        <ele>75.2</ele>
        <time>2022-09-27T09:16:06Z</time>
      </trkpt>
      <trkpt lat="48.92528" lon="2.08583">
        <ele>75.4</ele>
        <time>2022-09-27T09:16:40Z</time>
      </trkpt>
      <trkpt lat="48.92524" lon="2.08585">
        <ele>74.8</ele>
        <time>2022-09-27T09:17:05Z</time>
      </trkpt>
      <trkpt lat="48.92523" lon="2.08577">
        <ele>74.3</ele>
        <time>2022-09-27T09:17:24Z</time>
      </trkpt>
      <trkpt lat="48.92519" lon="2.08573">
        <ele>74</ele>
        <time>2022-09-27T09:17:28Z</time>
      </trkpt>
      <trkpt lat="48.92514" lon="2.0857">
        <ele>73.4</ele>
        <time>2022-09-27T09:17:32Z</time>
      </trkpt>
      <trkpt lat="48.92509" lon="2.08568">
        <ele>73.8</ele>
        <time>2022-09-27T09:17:36Z</time>
      </trkpt>
      <trkpt lat="48.92504" lon="2.08566">
        <ele>73.6</ele>
        <time>2022-09-27T09:17:39Z</time>
      </trkpt>
      <trkpt lat="48.92499" lon="2.08567">
        <ele>74.7</ele>
        <time>2022-09-27T09:17:44Z</time>
      </trkpt>
      <trkpt lat="48.92494" lon="2.08565">
        <ele>72.9</ele>
        <time>2022-09-27T09:17:50Z</time>
      </trkpt>
      <trkpt lat="48.92489" lon="2.08563">
        <ele>72</ele>
        <time>2022-09-27T09:17:54Z</time>
      </trkpt>
      <trkpt lat="48.92485" lon="2.08561">
        <ele>71</ele>
        <time>2022-09-27T09:17:57Z</time>
      </trkpt>
      <trkpt lat="48.9248" lon="2.0856">
        <ele>70.7</ele>
        <time>2022-09-27T09:18:01Z</time>
      </trkpt>
      <trkpt lat="48.92474" lon="2.0856">
        <ele>71.5</ele>
        <time>2022-09-27T09:18:05Z</time>
      </trkpt>
      <trkpt lat="48.92469" lon="2.0856">
        <ele>71.9</ele>
        <time>2022-09-27T09:18:10Z</time>
      </trkpt>
      <trkpt lat="48.92463" lon="2.0856">
        <ele>72.6</ele>
        <time>2022-09-27T09:18:14Z</time>
      </trkpt>
      <trkpt lat="48.92458" lon="2.0856">
        <ele>72.8</ele>
        <time>2022-09-27T09:18:18Z</time>
      </trkpt>
      <trkpt lat="48.92454" lon="2.08557">
        <ele>73.1</ele>
        <time>2022-09-27T09:18:22Z</time>
      </trkpt>
      <trkpt lat="48.92449" lon="2.08554">
        <ele>72.9</ele>
        <time>2022-09-27T09:18:26Z</time>
      </trkpt>
      <trkpt lat="48.92444" lon="2.08553">
        <ele>73.4</ele>
        <time>2022-09-27T09:18:30Z</time>
      </trkpt>
      <trkpt lat="48.92439" lon="2.08551">
        <ele>73.7</ele>
        <time>2022-09-27T09:18:34Z</time>
      </trkpt>
      <trkpt lat="48.92434" lon="2.0855">
        <ele>73.9</ele>
        <time>2022-09-27T09:18:38Z</time>
      </trkpt>
      <trkpt lat="48.92429" lon="2.08548">
        <ele>73.5</ele>
        <time>2022-09-27T09:18:42Z</time>
      </trkpt>
      <trkpt lat="48.92424" lon="2.08547">
        <ele>73.7</ele>
        <time>2022-09-27T09:18:46Z</time>
      </trkpt>
      <trkpt lat="48.92419" lon="2.08546">
        <ele>73.9</ele>
        <time>2022-09-27T09:18:50Z</time>
      </trkpt>
      <trkpt lat="48.92413" lon="2.08545">
        <ele>73.6</ele>
        <time>2022-09-27T09:18:54Z</time>
      </trkpt>
      <trkpt lat="48.92408" lon="2.08543">
        <ele>73</ele>
        <time>2022-09-27T09:18:58Z</time>
      </trkpt>
      <trkpt lat="48.92403" lon="2.08539">
        <ele>72.9</ele>
        <time>2022-09-27T09:19:02Z</time>
      </trkpt>
      <trkpt lat="48.924" lon="2.08533">
        <ele>72.4</ele>
        <time>2022-09-27T09:19:06Z</time>
      </trkpt>
      <trkpt lat="48.92396" lon="2.08529">
        <ele>72.4</ele>
        <time>2022-09-27T09:19:10Z</time>
      </trkpt>
      <trkpt lat="48.92391" lon="2.08525">
        <ele>72</ele>
        <time>2022-09-27T09:19:14Z</time>
      </trkpt>
      <trkpt lat="48.92386" lon="2.08523">
        <ele>71.6</ele>
        <time>2022-09-27T09:19:18Z</time>
      </trkpt>
      <trkpt lat="48.92381" lon="2.08522">
        <ele>71.3</ele>
        <time>2022-09-27T09:19:22Z</time>
      </trkpt>
      <trkpt lat="48.92376" lon="2.08521">
        <ele>71.6</ele>
        <time>2022-09-27T09:19:26Z</time>
      </trkpt>
      <trkpt lat="48.9237" lon="2.08519">
        <ele>71.3</ele>
        <time>2022-09-27T09:19:30Z</time>
      </trkpt>
      <trkpt lat="48.92366" lon="2.08518">
        <ele>71.2</ele>
        <time>2022-09-27T09:19:34Z</time>
      </trkpt>
      <trkpt lat="48.92361" lon="2.08516">
        <ele>71.2</ele>
        <time>2022-09-27T09:19:37Z</time>
      </trkpt>
      <trkpt lat="48.92356" lon="2.08513">
        <ele>71.6</ele>
        <time>2022-09-27T09:19:40Z</time>
      </trkpt>
      <trkpt lat="48.92351" lon="2.0851">
        <ele>71.6</ele>
        <time>2022-09-27T09:19:44Z</time>
      </trkpt>
      <trkpt lat="48.92345" lon="2.08506">
        <ele>71.6</ele>
        <time>2022-09-27T09:19:48Z</time>
      </trkpt>
      <trkpt lat="48.92341" lon="2.08505">
        <ele>71.5</ele>
        <time>2022-09-27T09:19:52Z</time>
      </trkpt>
      <trkpt lat="48.92336" lon="2.08504">
        <ele>71.6</ele>
        <time>2022-09-27T09:19:55Z</time>
      </trkpt>
      <trkpt lat="48.9233" lon="2.08504">
        <ele>71.4</ele>
        <time>2022-09-27T09:19:59Z</time>
      </trkpt>
      <trkpt lat="48.92325" lon="2.08503">
        <ele>71.1</ele>
        <time>2022-09-27T09:20:03Z</time>
      </trkpt>
      <trkpt lat="48.9232" lon="2.08501">
        <ele>71.7</ele>
        <time>2022-09-27T09:20:07Z</time>
      </trkpt>
      <trkpt lat="48.92315" lon="2.085">
        <ele>71.9</ele>
        <time>2022-09-27T09:20:11Z</time>
      </trkpt>
      <trkpt lat="48.9231" lon="2.08497">
        <ele>71.3</ele>
        <time>2022-09-27T09:20:15Z</time>
      </trkpt>
      <trkpt lat="48.92305" lon="2.08495">
        <ele>71.1</ele>
        <time>2022-09-27T09:20:19Z</time>
      </trkpt>
      <trkpt lat="48.923" lon="2.08492">
        <ele>70.5</ele>
        <time>2022-09-27T09:20:23Z</time>
      </trkpt>
      <trkpt lat="48.92295" lon="2.0849">
        <ele>70.1</ele>
        <time>2022-09-27T09:20:27Z</time>
      </trkpt>
      <trkpt lat="48.9229" lon="2.08489">
        <ele>69.9</ele>
        <time>2022-09-27T09:20:31Z</time>
      </trkpt>
      <trkpt lat="48.92285" lon="2.08488">
        <ele>70</ele>
        <time>2022-09-27T09:20:36Z</time>
      </trkpt>
      <trkpt lat="48.9228" lon="2.08488">
        <ele>70.6</ele>
        <time>2022-09-27T09:20:40Z</time>
      </trkpt>
      <trkpt lat="48.92275" lon="2.08487">
        <ele>70.7</ele>
        <time>2022-09-27T09:20:44Z</time>
      </trkpt>
      <trkpt lat="48.9227" lon="2.08483">
        <ele>70.6</ele>
        <time>2022-09-27T09:20:48Z</time>
      </trkpt>
      <trkpt lat="48.92267" lon="2.08477">
        <ele>70.9</ele>
        <time>2022-09-27T09:20:53Z</time>
      </trkpt>
      <trkpt lat="48.92264" lon="2.08469">
        <ele>70.9</ele>
        <time>2022-09-27T09:20:57Z</time>
      </trkpt>
      <trkpt lat="48.92264" lon="2.08461">
        <ele>71.7</ele>
        <time>2022-09-27T09:21:02Z</time>
      </trkpt>
      <trkpt lat="48.92267" lon="2.08456">
        <ele>72.1</ele>
        <time>2022-09-27T09:21:07Z</time>
      </trkpt>
      <trkpt lat="48.92264" lon="2.08451">
        <ele>72</ele>
        <time>2022-09-27T09:21:12Z</time>
      </trkpt>
      <trkpt lat="48.92261" lon="2.08444">
        <ele>71.9</ele>
        <time>2022-09-27T09:21:18Z</time>
      </trkpt>
      <trkpt lat="48.92257" lon="2.08437">
        <ele>72</ele>
        <time>2022-09-27T09:21:24Z</time>
      </trkpt>
      <trkpt lat="48.92254" lon="2.08431">
        <ele>71.6</ele>
        <time>2022-09-27T09:21:32Z</time>
      </trkpt>
      <trkpt lat="48.92249" lon="2.08425">
        <ele>71.4</ele>
        <time>2022-09-27T09:21:36Z</time>
      </trkpt>
      <trkpt lat="48.92245" lon="2.0842">
        <ele>71</ele>
        <time>2022-09-27T09:21:41Z</time>
      </trkpt>
      <trkpt lat="48.9224" lon="2.08416">
        <ele>70.6</ele>
        <time>2022-09-27T09:21:46Z</time>
      </trkpt>
      <trkpt lat="48.92236" lon="2.08413">
        <ele>70</ele>
        <time>2022-09-27T09:21:51Z</time>
      </trkpt>
      <trkpt lat="48.92232" lon="2.08408">
        <ele>69.4</ele>
        <time>2022-09-27T09:21:56Z</time>
      </trkpt>
      <trkpt lat="48.92231" lon="2.084">
        <ele>69.4</ele>
        <time>2022-09-27T09:22:00Z</time>
      </trkpt>
      <trkpt lat="48.92231" lon="2.08392">
        <ele>69</ele>
        <time>2022-09-27T09:22:05Z</time>
      </trkpt>
      <trkpt lat="48.92232" lon="2.08383">
        <ele>69.2</ele>
        <time>2022-09-27T09:22:10Z</time>
      </trkpt>
      <trkpt lat="48.92232" lon="2.08376">
        <ele>69.6</ele>
        <time>2022-09-27T09:22:14Z</time>
      </trkpt>
      <trkpt lat="48.92234" lon="2.08367">
        <ele>69.2</ele>
        <time>2022-09-27T09:22:19Z</time>
      </trkpt>
      <trkpt lat="48.92237" lon="2.08361">
        <ele>69.9</ele>
        <time>2022-09-27T09:22:24Z</time>
      </trkpt>
      <trkpt lat="48.92236" lon="2.08353">
        <ele>70.9</ele>
        <time>2022-09-27T09:22:28Z</time>
      </trkpt>
      <trkpt lat="48.92238" lon="2.08344">
        <ele>71.7</ele>
        <time>2022-09-27T09:22:33Z</time>
      </trkpt>
      <trkpt lat="48.92241" lon="2.08339">
        <ele>72.2</ele>
        <time>2022-09-27T09:22:37Z</time>
      </trkpt>
      <trkpt lat="48.92242" lon="2.08331">
        <ele>72.6</ele>
        <time>2022-09-27T09:22:41Z</time>
      </trkpt>
      <trkpt lat="48.92241" lon="2.08324">
        <ele>73.8</ele>
        <time>2022-09-27T09:22:45Z</time>
      </trkpt>
      <trkpt lat="48.92241" lon="2.08316">
        <ele>74.7</ele>
        <time>2022-09-27T09:22:49Z</time>
      </trkpt>
      <trkpt lat="48.92242" lon="2.08308">
        <ele>74.7</ele>
        <time>2022-09-27T09:22:53Z</time>
      </trkpt>
      <trkpt lat="48.92244" lon="2.08301">
        <ele>75.3</ele>
        <time>2022-09-27T09:22:57Z</time>
      </trkpt>
      <trkpt lat="48.92246" lon="2.08293">
        <ele>76.9</ele>
        <time>2022-09-27T09:23:01Z</time>
      </trkpt>
      <trkpt lat="48.92247" lon="2.08286">
        <ele>77.6</ele>
        <time>2022-09-27T09:23:04Z</time>
      </trkpt>
      <trkpt lat="48.92248" lon="2.08278">
        <ele>77.9</ele>
        <time>2022-09-27T09:23:08Z</time>
      </trkpt>
      <trkpt lat="48.92249" lon="2.0827">
        <ele>79.3</ele>
        <time>2022-09-27T09:23:11Z</time>
      </trkpt>
      <trkpt lat="48.92249" lon="2.08261">
        <ele>80.5</ele>
        <time>2022-09-27T09:23:15Z</time>
      </trkpt>
      <trkpt lat="48.92249" lon="2.08247">
        <ele>81.9</ele>
        <time>2022-09-27T09:23:23Z</time>
      </trkpt>
      <trkpt lat="48.9225" lon="2.08238">
        <ele>85.6</ele>
        <time>2022-09-27T09:23:27Z</time>
      </trkpt>
      <trkpt lat="48.9225" lon="2.0823">
        <ele>86.9</ele>
        <time>2022-09-27T09:23:31Z</time>
      </trkpt>
      <trkpt lat="48.92251" lon="2.08223">
        <ele>88.1</ele>
        <time>2022-09-27T09:23:34Z</time>
      </trkpt>
      <trkpt lat="48.9225" lon="2.08216">
        <ele>88.4</ele>
        <time>2022-09-27T09:23:38Z</time>
      </trkpt>
      <trkpt lat="48.92251" lon="2.08208">
        <ele>89.2</ele>
        <time>2022-09-27T09:23:41Z</time>
      </trkpt>
      <trkpt lat="48.92251" lon="2.082">
        <ele>89.9</ele>
        <time>2022-09-27T09:23:45Z</time>
      </trkpt>
      <trkpt lat="48.92248" lon="2.08174">
        <ele>89.9</ele>
        <time>2022-09-27T09:24:13Z</time>
      </trkpt>
      <trkpt lat="48.92248" lon="2.08166">
        <ele>89.1</ele>
        <time>2022-09-27T09:24:18Z</time>
      </trkpt>
      <trkpt lat="48.92248" lon="2.08157">
        <ele>88.1</ele>
        <time>2022-09-27T09:24:21Z</time>
      </trkpt>
      <trkpt lat="48.92248" lon="2.0815">
        <ele>87.2</ele>
        <time>2022-09-27T09:24:24Z</time>
      </trkpt>
      <trkpt lat="48.92248" lon="2.08142">
        <ele>85.7</ele>
        <time>2022-09-27T09:24:27Z</time>
      </trkpt>
      <trkpt lat="48.9225" lon="2.08133">
        <ele>83.2</ele>
        <time>2022-09-27T09:24:30Z</time>
      </trkpt>
      <trkpt lat="48.92253" lon="2.08125">
        <ele>77.7</ele>
        <time>2022-09-27T09:24:34Z</time>
      </trkpt>
      <trkpt lat="48.92255" lon="2.08119">
        <ele>77.2</ele>
        <time>2022-09-27T09:24:37Z</time>
      </trkpt>
      <trkpt lat="48.92257" lon="2.08111">
        <ele>77</ele>
        <time>2022-09-27T09:24:41Z</time>
      </trkpt>
      <trkpt lat="48.92259" lon="2.08103">
        <ele>75.3</ele>
        <time>2022-09-27T09:24:45Z</time>
      </trkpt>
      <trkpt lat="48.9226" lon="2.08094">
        <ele>74.5</ele>
        <time>2022-09-27T09:24:49Z</time>
      </trkpt>
      <trkpt lat="48.9226" lon="2.08087">
        <ele>74.3</ele>
        <time>2022-09-27T09:24:52Z</time>
      </trkpt>
      <trkpt lat="48.9226" lon="2.08079">
        <ele>73.8</ele>
        <time>2022-09-27T09:24:55Z</time>
      </trkpt>
      <trkpt lat="48.9226" lon="2.08071">
        <ele>73.2</ele>
        <time>2022-09-27T09:24:59Z</time>
      </trkpt>
      <trkpt lat="48.9226" lon="2.08063">
        <ele>72.7</ele>
        <time>2022-09-27T09:25:03Z</time>
      </trkpt>
      <trkpt lat="48.9226" lon="2.08055">
        <ele>72.5</ele>
        <time>2022-09-27T09:25:07Z</time>
      </trkpt>
      <trkpt lat="48.92262" lon="2.08049">
        <ele>72.7</ele>
        <time>2022-09-27T09:25:10Z</time>
      </trkpt>
      <trkpt lat="48.92263" lon="2.08041">
        <ele>72.6</ele>
        <time>2022-09-27T09:25:13Z</time>
      </trkpt>
      <trkpt lat="48.92264" lon="2.08032">
        <ele>72.6</ele>
        <time>2022-09-27T09:25:16Z</time>
      </trkpt>
      <trkpt lat="48.92264" lon="2.08022">
        <ele>72.8</ele>
        <time>2022-09-27T09:25:19Z</time>
      </trkpt>
      <trkpt lat="48.92264" lon="2.08016">
        <ele>72.8</ele>
        <time>2022-09-27T09:25:22Z</time>
      </trkpt>
      <trkpt lat="48.92264" lon="2.08007">
        <ele>72.8</ele>
        <time>2022-09-27T09:25:25Z</time>
      </trkpt>
      <trkpt lat="48.92265" lon="2.07999">
        <ele>72.8</ele>
        <time>2022-09-27T09:25:28Z</time>
      </trkpt>
      <trkpt lat="48.92266" lon="2.07992">
        <ele>73.4</ele>
        <time>2022-09-27T09:25:31Z</time>
      </trkpt>
      <trkpt lat="48.92267" lon="2.07985">
        <ele>73.9</ele>
        <time>2022-09-27T09:25:34Z</time>
      </trkpt>
      <trkpt lat="48.92267" lon="2.07977">
        <ele>74.4</ele>
        <time>2022-09-27T09:25:38Z</time>
      </trkpt>
      <trkpt lat="48.92269" lon="2.07968">
        <ele>74.6</ele>
        <time>2022-09-27T09:25:42Z</time>
      </trkpt>
      <trkpt lat="48.92269" lon="2.0796">
        <ele>75.1</ele>
        <time>2022-09-27T09:25:45Z</time>
      </trkpt>
      <trkpt lat="48.9227" lon="2.07951">
        <ele>76.1</ele>
        <time>2022-09-27T09:25:49Z</time>
      </trkpt>
      <trkpt lat="48.92271" lon="2.07943">
        <ele>75.9</ele>
        <time>2022-09-27T09:25:52Z</time>
      </trkpt>
      <trkpt lat="48.92271" lon="2.07936">
        <ele>76.9</ele>
        <time>2022-09-27T09:25:55Z</time>
      </trkpt>
      <trkpt lat="48.92272" lon="2.07928">
        <ele>78.3</ele>
        <time>2022-09-27T09:26:00Z</time>
      </trkpt>
      <trkpt lat="48.92273" lon="2.07921">
        <ele>79.7</ele>
        <time>2022-09-27T09:26:03Z</time>
      </trkpt>
      <trkpt lat="48.92274" lon="2.07912">
        <ele>80.1</ele>
        <time>2022-09-27T09:26:07Z</time>
      </trkpt>
      <trkpt lat="48.92275" lon="2.07905">
        <ele>82.1</ele>
        <time>2022-09-27T09:26:10Z</time>
      </trkpt>
      <trkpt lat="48.92275" lon="2.07898">
        <ele>82.4</ele>
        <time>2022-09-27T09:26:13Z</time>
      </trkpt>
      <trkpt lat="48.92276" lon="2.07891">
        <ele>82.7</ele>
        <time>2022-09-27T09:26:16Z</time>
      </trkpt>
      <trkpt lat="48.92276" lon="2.07883">
        <ele>83</ele>
        <time>2022-09-27T09:26:19Z</time>
      </trkpt>
      <trkpt lat="48.92277" lon="2.07875">
        <ele>83.5</ele>
        <time>2022-09-27T09:26:23Z</time>
      </trkpt>
      <trkpt lat="48.92279" lon="2.07789">
        <ele>83.6</ele>
        <time>2022-09-27T09:27:03Z</time>
      </trkpt>
      <trkpt lat="48.92279" lon="2.07782">
        <ele>83.6</ele>
        <time>2022-09-27T09:27:06Z</time>
      </trkpt>
      <trkpt lat="48.92286" lon="2.07744">
        <ele>83.4</ele>
        <time>2022-09-27T09:27:26Z</time>
      </trkpt>
      <trkpt lat="48.92285" lon="2.07736">
        <ele>82.8</ele>
        <time>2022-09-27T09:27:30Z</time>
      </trkpt>
      <trkpt lat="48.92285" lon="2.07728">
        <ele>82.1</ele>
        <time>2022-09-27T09:27:35Z</time>
      </trkpt>
      <trkpt lat="48.92286" lon="2.07721">
        <ele>80.8</ele>
        <time>2022-09-27T09:27:43Z</time>
      </trkpt>
      <trkpt lat="48.92281" lon="2.07718">
        <ele>77.8</ele>
        <time>2022-09-27T09:28:00Z</time>
      </trkpt>
      <trkpt lat="48.92277" lon="2.07719">
        <ele>77.6</ele>
        <time>2022-09-27T09:28:07Z</time>
      </trkpt>
      <trkpt lat="48.92273" lon="2.07715">
        <ele>77.6</ele>
        <time>2022-09-27T09:28:12Z</time>
      </trkpt>
      <trkpt lat="48.92268" lon="2.07711">
        <ele>76.6</ele>
        <time>2022-09-27T09:28:16Z</time>
      </trkpt>
      <trkpt lat="48.92263" lon="2.07708">
        <ele>76.6</ele>
        <time>2022-09-27T09:28:21Z</time>
      </trkpt>
      <trkpt lat="48.92258" lon="2.07706">
        <ele>76.6</ele>
        <time>2022-09-27T09:28:24Z</time>
      </trkpt>
      <trkpt lat="48.92253" lon="2.07703">
        <ele>76.4</ele>
        <time>2022-09-27T09:28:27Z</time>
      </trkpt>
      <trkpt lat="48.92249" lon="2.07698">
        <ele>76</ele>
        <time>2022-09-27T09:28:31Z</time>
      </trkpt>
      <trkpt lat="48.92244" lon="2.07695">
        <ele>75.6</ele>
        <time>2022-09-27T09:28:35Z</time>
      </trkpt>
      <trkpt lat="48.92239" lon="2.07692">
        <ele>75</ele>
        <time>2022-09-27T09:28:39Z</time>
      </trkpt>
      <trkpt lat="48.92235" lon="2.07689">
        <ele>74.3</ele>
        <time>2022-09-27T09:28:43Z</time>
      </trkpt>
      <trkpt lat="48.9223" lon="2.07687">
        <ele>73.5</ele>
        <time>2022-09-27T09:28:46Z</time>
      </trkpt>
      <trkpt lat="48.92224" lon="2.07683">
        <ele>73.1</ele>
        <time>2022-09-27T09:28:49Z</time>
      </trkpt>
      <trkpt lat="48.92219" lon="2.0768">
        <ele>73.1</ele>
        <time>2022-09-27T09:28:53Z</time>
      </trkpt>
      <trkpt lat="48.92214" lon="2.07677">
        <ele>72.6</ele>
        <time>2022-09-27T09:28:57Z</time>
      </trkpt>
      <trkpt lat="48.92209" lon="2.07677">
        <ele>72.2</ele>
        <time>2022-09-27T09:29:00Z</time>
      </trkpt>
      <trkpt lat="48.92203" lon="2.07674">
        <ele>71.4</ele>
        <time>2022-09-27T09:29:03Z</time>
      </trkpt>
      <trkpt lat="48.92113" lon="2.07642">
        <ele>71.1</ele>
        <time>2022-09-27T09:30:08Z</time>
      </trkpt>
      <trkpt lat="48.92108" lon="2.0764">
        <ele>71.2</ele>
        <time>2022-09-27T09:30:12Z</time>
      </trkpt>
      <trkpt lat="48.92103" lon="2.07638">
        <ele>71.4</ele>
        <time>2022-09-27T09:30:16Z</time>
      </trkpt>
      <trkpt lat="48.92099" lon="2.07634">
        <ele>71.4</ele>
        <time>2022-09-27T09:30:19Z</time>
      </trkpt>
      <trkpt lat="48.92095" lon="2.07629">
        <ele>71.4</ele>
        <time>2022-09-27T09:30:22Z</time>
      </trkpt>
      <trkpt lat="48.9209" lon="2.07624">
        <ele>71.9</ele>
        <time>2022-09-27T09:30:26Z</time>
      </trkpt>
      <trkpt lat="48.92085" lon="2.07619">
        <ele>71.5</ele>
        <time>2022-09-27T09:30:30Z</time>
      </trkpt>
      <trkpt lat="48.92081" lon="2.07615">
        <ele>71.8</ele>
        <time>2022-09-27T09:30:33Z</time>
      </trkpt>
      <trkpt lat="48.92077" lon="2.07613">
        <ele>71.8</ele>
        <time>2022-09-27T09:30:37Z</time>
      </trkpt>
      <trkpt lat="48.92072" lon="2.07612">
        <ele>72.1</ele>
        <time>2022-09-27T09:30:40Z</time>
      </trkpt>
      <trkpt lat="48.92066" lon="2.07611">
        <ele>72.6</ele>
        <time>2022-09-27T09:30:45Z</time>
      </trkpt>
      <trkpt lat="48.92061" lon="2.07611">
        <ele>72.9</ele>
        <time>2022-09-27T09:30:48Z</time>
      </trkpt>
      <trkpt lat="48.92056" lon="2.07609">
        <ele>73.3</ele>
        <time>2022-09-27T09:30:51Z</time>
      </trkpt>
      <trkpt lat="48.92051" lon="2.07606">
        <ele>73.5</ele>
        <time>2022-09-27T09:30:55Z</time>
      </trkpt>
      <trkpt lat="48.92046" lon="2.07603">
        <ele>74</ele>
        <time>2022-09-27T09:30:59Z</time>
      </trkpt>
      <trkpt lat="48.92041" lon="2.07601">
        <ele>74.3</ele>
        <time>2022-09-27T09:31:03Z</time>
      </trkpt>
      <trkpt lat="48.92036" lon="2.07599">
        <ele>75.7</ele>
        <time>2022-09-27T09:31:06Z</time>
      </trkpt>
      <trkpt lat="48.92031" lon="2.07597">
        <ele>75.3</ele>
        <time>2022-09-27T09:31:10Z</time>
      </trkpt>
      <trkpt lat="48.92026" lon="2.07593">
        <ele>75.5</ele>
        <time>2022-09-27T09:31:14Z</time>
      </trkpt>
      <trkpt lat="48.92021" lon="2.0759">
        <ele>75.2</ele>
        <time>2022-09-27T09:31:18Z</time>
      </trkpt>
      <trkpt lat="48.92016" lon="2.07587">
        <ele>74.8</ele>
        <time>2022-09-27T09:31:21Z</time>
      </trkpt>
      <trkpt lat="48.92011" lon="2.07585">
        <ele>74.7</ele>
        <time>2022-09-27T09:31:24Z</time>
      </trkpt>
      <trkpt lat="48.92005" lon="2.07583">
        <ele>74.1</ele>
        <time>2022-09-27T09:31:28Z</time>
      </trkpt>
      <trkpt lat="48.91999" lon="2.07581">
        <ele>73</ele>
        <time>2022-09-27T09:31:32Z</time>
      </trkpt>
      <trkpt lat="48.91995" lon="2.07579">
        <ele>71.7</ele>
        <time>2022-09-27T09:31:35Z</time>
      </trkpt>
      <trkpt lat="48.91989" lon="2.07577">
        <ele>71.6</ele>
        <time>2022-09-27T09:31:39Z</time>
      </trkpt>
      <trkpt lat="48.91985" lon="2.07574">
        <ele>71.2</ele>
        <time>2022-09-27T09:31:42Z</time>
      </trkpt>
      <trkpt lat="48.9198" lon="2.07571">
        <ele>71.6</ele>
        <time>2022-09-27T09:31:45Z</time>
      </trkpt>
      <trkpt lat="48.91975" lon="2.07569">
        <ele>71.5</ele>
        <time>2022-09-27T09:31:48Z</time>
      </trkpt>
      <trkpt lat="48.9197" lon="2.07566">
        <ele>71.5</ele>
        <time>2022-09-27T09:31:52Z</time>
      </trkpt>
      <trkpt lat="48.91965" lon="2.07562">
        <ele>72</ele>
        <time>2022-09-27T09:31:56Z</time>
      </trkpt>
      <trkpt lat="48.9196" lon="2.07558">
        <ele>72.7</ele>
        <time>2022-09-27T09:32:00Z</time>
      </trkpt>
      <trkpt lat="48.91955" lon="2.07554">
        <ele>73.2</ele>
        <time>2022-09-27T09:32:04Z</time>
      </trkpt>
      <trkpt lat="48.91881" lon="2.07527">
        <ele>72.7</ele>
        <time>2022-09-27T09:32:57Z</time>
      </trkpt>
      <trkpt lat="48.91875" lon="2.07526">
        <ele>72.8</ele>
        <time>2022-09-27T09:33:01Z</time>
      </trkpt>
      <trkpt lat="48.9187" lon="2.07523">
        <ele>73.2</ele>
        <time>2022-09-27T09:33:05Z</time>
      </trkpt>
      <trkpt lat="48.91866" lon="2.07521">
        <ele>73.3</ele>
        <time>2022-09-27T09:33:08Z</time>
      </trkpt>
      <trkpt lat="48.91861" lon="2.07519">
        <ele>73.7</ele>
        <time>2022-09-27T09:33:11Z</time>
      </trkpt>
      <trkpt lat="48.91857" lon="2.07515">
        <ele>73.3</ele>
        <time>2022-09-27T09:33:14Z</time>
      </trkpt>
      <trkpt lat="48.91852" lon="2.07511">
        <ele>73.3</ele>
        <time>2022-09-27T09:33:18Z</time>
      </trkpt>
      <trkpt lat="48.91848" lon="2.07508">
        <ele>73.1</ele>
        <time>2022-09-27T09:33:22Z</time>
      </trkpt>
      <trkpt lat="48.91843" lon="2.07504">
        <ele>73.1</ele>
        <time>2022-09-27T09:33:26Z</time>
      </trkpt>
      <trkpt lat="48.91839" lon="2.07502">
        <ele>72.9</ele>
        <time>2022-09-27T09:33:29Z</time>
      </trkpt>
      <trkpt lat="48.91834" lon="2.07501">
        <ele>73.1</ele>
        <time>2022-09-27T09:33:33Z</time>
      </trkpt>
      <trkpt lat="48.9183" lon="2.07497">
        <ele>73.5</ele>
        <time>2022-09-27T09:33:36Z</time>
      </trkpt>
      <trkpt lat="48.91825" lon="2.07494">
        <ele>73.6</ele>
        <time>2022-09-27T09:33:40Z</time>
      </trkpt>
      <trkpt lat="48.9182" lon="2.07493">
        <ele>73.1</ele>
        <time>2022-09-27T09:33:44Z</time>
      </trkpt>
      <trkpt lat="48.91815" lon="2.07489">
        <ele>72.5</ele>
        <time>2022-09-27T09:33:48Z</time>
      </trkpt>
      <trkpt lat="48.91811" lon="2.07486">
        <ele>72.4</ele>
        <time>2022-09-27T09:33:52Z</time>
      </trkpt>
      <trkpt lat="48.91806" lon="2.07484">
        <ele>72.1</ele>
        <time>2022-09-27T09:33:56Z</time>
      </trkpt>
      <trkpt lat="48.91801" lon="2.07482">
        <ele>72.4</ele>
        <time>2022-09-27T09:34:00Z</time>
      </trkpt>
      <trkpt lat="48.91796" lon="2.07481">
        <ele>72.7</ele>
        <time>2022-09-27T09:34:04Z</time>
      </trkpt>
      <trkpt lat="48.91791" lon="2.0748">
        <ele>73.1</ele>
        <time>2022-09-27T09:34:08Z</time>
      </trkpt>
      <trkpt lat="48.91786" lon="2.07479">
        <ele>72.7</ele>
        <time>2022-09-27T09:34:12Z</time>
      </trkpt>
      <trkpt lat="48.91781" lon="2.07476">
        <ele>72.9</ele>
        <time>2022-09-27T09:34:16Z</time>
      </trkpt>
      <trkpt lat="48.91776" lon="2.07472">
        <ele>73.7</ele>
        <time>2022-09-27T09:34:20Z</time>
      </trkpt>
      <trkpt lat="48.91772" lon="2.07469">
        <ele>76.2</ele>
        <time>2022-09-27T09:34:24Z</time>
      </trkpt>
      <trkpt lat="48.91767" lon="2.07466">
        <ele>76.3</ele>
        <time>2022-09-27T09:34:28Z</time>
      </trkpt>
      <trkpt lat="48.91764" lon="2.07471">
        <ele>75.9</ele>
        <time>2022-09-27T09:37:03Z</time>
      </trkpt>
      <trkpt lat="48.91765" lon="2.07464">
        <ele>76.3</ele>
        <time>2022-09-27T09:38:06Z</time>
      </trkpt>
      <trkpt lat="48.91764" lon="2.07457">
        <ele>75.9</ele>
        <time>2022-09-27T09:38:12Z</time>
      </trkpt>
      <trkpt lat="48.91762" lon="2.07449">
        <ele>75.2</ele>
        <time>2022-09-27T09:38:16Z</time>
      </trkpt>
      <trkpt lat="48.9176" lon="2.07442">
        <ele>74.6</ele>
        <time>2022-09-27T09:38:19Z</time>
      </trkpt>
      <trkpt lat="48.9176" lon="2.07435">
        <ele>73</ele>
        <time>2022-09-27T09:38:22Z</time>
      </trkpt>
      <trkpt lat="48.91759" lon="2.07427">
        <ele>71.1</ele>
        <time>2022-09-27T09:38:26Z</time>
      </trkpt>
      <trkpt lat="48.91758" lon="2.07418">
        <ele>70.8</ele>
        <time>2022-09-27T09:38:31Z</time>
      </trkpt>
      <trkpt lat="48.91758" lon="2.0741">
        <ele>70.4</ele>
        <time>2022-09-27T09:38:35Z</time>
      </trkpt>
      <trkpt lat="48.91757" lon="2.07402">
        <ele>69.2</ele>
        <time>2022-09-27T09:38:39Z</time>
      </trkpt>
      <trkpt lat="48.91759" lon="2.07393">
        <ele>69.6</ele>
        <time>2022-09-27T09:38:43Z</time>
      </trkpt>
      <trkpt lat="48.9176" lon="2.07385">
        <ele>70</ele>
        <time>2022-09-27T09:38:47Z</time>
      </trkpt>
      <trkpt lat="48.91762" lon="2.07378">
        <ele>71.2</ele>
        <time>2022-09-27T09:38:50Z</time>
      </trkpt>
      <trkpt lat="48.91764" lon="2.07371">
        <ele>71.4</ele>
        <time>2022-09-27T09:38:53Z</time>
      </trkpt>
      <trkpt lat="48.91765" lon="2.07363">
        <ele>71.8</ele>
        <time>2022-09-27T09:38:57Z</time>
      </trkpt>
      <trkpt lat="48.91765" lon="2.07355">
        <ele>73.9</ele>
        <time>2022-09-27T09:39:01Z</time>
      </trkpt>
      <trkpt lat="48.91764" lon="2.07346">
        <ele>76.1</ele>
        <time>2022-09-27T09:39:06Z</time>
      </trkpt>
      <trkpt lat="48.91764" lon="2.07339">
        <ele>79</ele>
        <time>2022-09-27T09:39:10Z</time>
      </trkpt>
      <trkpt lat="48.91764" lon="2.0733">
        <ele>80.5</ele>
        <time>2022-09-27T09:39:14Z</time>
      </trkpt>
      <trkpt lat="48.91764" lon="2.07321">
        <ele>81.4</ele>
        <time>2022-09-27T09:39:19Z</time>
      </trkpt>
      <trkpt lat="48.91764" lon="2.07313">
        <ele>81.8</ele>
        <time>2022-09-27T09:39:24Z</time>
      </trkpt>
      <trkpt lat="48.91765" lon="2.07304">
        <ele>81.8</ele>
        <time>2022-09-27T09:39:28Z</time>
      </trkpt>
      <trkpt lat="48.91765" lon="2.07295">
        <ele>82.1</ele>
        <time>2022-09-27T09:39:33Z</time>
      </trkpt>
      <trkpt lat="48.91765" lon="2.07288">
        <ele>83</ele>
        <time>2022-09-27T09:39:36Z</time>
      </trkpt>
      <trkpt lat="48.91765" lon="2.07279">
        <ele>82.9</ele>
        <time>2022-09-27T09:39:41Z</time>
      </trkpt>
      <trkpt lat="48.91765" lon="2.0727">
        <ele>84.3</ele>
        <time>2022-09-27T09:39:45Z</time>
      </trkpt>
      <trkpt lat="48.91766" lon="2.07262">
        <ele>84.6</ele>
        <time>2022-09-27T09:39:49Z</time>
      </trkpt>
      <trkpt lat="48.91766" lon="2.07255">
        <ele>85.7</ele>
        <time>2022-09-27T09:39:53Z</time>
      </trkpt>
      <trkpt lat="48.91766" lon="2.07246">
        <ele>86.4</ele>
        <time>2022-09-27T09:39:57Z</time>
      </trkpt>
      <trkpt lat="48.91766" lon="2.07237">
        <ele>87.2</ele>
        <time>2022-09-27T09:40:01Z</time>
      </trkpt>
      <trkpt lat="48.91766" lon="2.0723">
        <ele>87.4</ele>
        <time>2022-09-27T09:40:04Z</time>
      </trkpt>
      <trkpt lat="48.91767" lon="2.07222">
        <ele>87.7</ele>
        <time>2022-09-27T09:40:08Z</time>
      </trkpt>
      <trkpt lat="48.91767" lon="2.07214">
        <ele>86.8</ele>
        <time>2022-09-27T09:40:11Z</time>
      </trkpt>
      <trkpt lat="48.91767" lon="2.07206">
        <ele>86.1</ele>
        <time>2022-09-27T09:40:15Z</time>
      </trkpt>
      <trkpt lat="48.91767" lon="2.07199">
        <ele>85.1</ele>
        <time>2022-09-27T09:40:18Z</time>
      </trkpt>
      <trkpt lat="48.91767" lon="2.07191">
        <ele>84.3</ele>
        <time>2022-09-27T09:40:22Z</time>
      </trkpt>
      <trkpt lat="48.91767" lon="2.07183">
        <ele>84</ele>
        <time>2022-09-27T09:40:26Z</time>
      </trkpt>
      <trkpt lat="48.91767" lon="2.07174">
        <ele>83.7</ele>
        <time>2022-09-27T09:40:30Z</time>
      </trkpt>
      <trkpt lat="48.91768" lon="2.07167">
        <ele>83.5</ele>
        <time>2022-09-27T09:40:33Z</time>
      </trkpt>
      <trkpt lat="48.91767" lon="2.07158">
        <ele>83.1</ele>
        <time>2022-09-27T09:40:37Z</time>
      </trkpt>
      <trkpt lat="48.91767" lon="2.0715">
        <ele>83.1</ele>
        <time>2022-09-27T09:40:40Z</time>
      </trkpt>
      <trkpt lat="48.91766" lon="2.07142">
        <ele>83.3</ele>
        <time>2022-09-27T09:40:44Z</time>
      </trkpt>
      <trkpt lat="48.91766" lon="2.07134">
        <ele>83.4</ele>
        <time>2022-09-27T09:40:47Z</time>
      </trkpt>
      <trkpt lat="48.91766" lon="2.07123">
        <ele>83.6</ele>
        <time>2022-09-27T09:40:52Z</time>
      </trkpt>
      <trkpt lat="48.91765" lon="2.07114">
        <ele>84.1</ele>
        <time>2022-09-27T09:40:56Z</time>
      </trkpt>
      <trkpt lat="48.91765" lon="2.07107">
        <ele>84.8</ele>
        <time>2022-09-27T09:40:59Z</time>
      </trkpt>
      <trkpt lat="48.91766" lon="2.07099">
        <ele>85.2</ele>
        <time>2022-09-27T09:41:02Z</time>
      </trkpt>
      <trkpt lat="48.91767" lon="2.0709">
        <ele>85.3</ele>
        <time>2022-09-27T09:41:06Z</time>
      </trkpt>
      <trkpt lat="48.91767" lon="2.07081">
        <ele>85.8</ele>
        <time>2022-09-27T09:41:10Z</time>
      </trkpt>
      <trkpt lat="48.91767" lon="2.07074">
        <ele>85.9</ele>
        <time>2022-09-27T09:41:13Z</time>
      </trkpt>
      <trkpt lat="48.91767" lon="2.07067">
        <ele>85.6</ele>
        <time>2022-09-27T09:41:17Z</time>
      </trkpt>
      <trkpt lat="48.91767" lon="2.07059">
        <ele>85.1</ele>
        <time>2022-09-27T09:41:21Z</time>
      </trkpt>
      <trkpt lat="48.91767" lon="2.07051">
        <ele>85.4</ele>
        <time>2022-09-27T09:41:25Z</time>
      </trkpt>
      <trkpt lat="48.91767" lon="2.07043">
        <ele>85.1</ele>
        <time>2022-09-27T09:41:29Z</time>
      </trkpt>
      <trkpt lat="48.91767" lon="2.07035">
        <ele>85.1</ele>
        <time>2022-09-27T09:41:33Z</time>
      </trkpt>
      <trkpt lat="48.91768" lon="2.07027">
        <ele>84</ele>
        <time>2022-09-27T09:41:37Z</time>
      </trkpt>
      <trkpt lat="48.91768" lon="2.07019">
        <ele>82.9</ele>
        <time>2022-09-27T09:41:41Z</time>
      </trkpt>
      <trkpt lat="48.91767" lon="2.07011">
        <ele>81.7</ele>
        <time>2022-09-27T09:41:45Z</time>
      </trkpt>
      <trkpt lat="48.91766" lon="2.07004">
        <ele>81.9</ele>
        <time>2022-09-27T09:41:49Z</time>
      </trkpt>
      <trkpt lat="48.91763" lon="2.06996">
        <ele>81.9</ele>
        <time>2022-09-27T09:41:54Z</time>
      </trkpt>
      <trkpt lat="48.91758" lon="2.06991">
        <ele>82.2</ele>
        <time>2022-09-27T09:41:59Z</time>
      </trkpt>
      <trkpt lat="48.91754" lon="2.06987">
        <ele>81.9</ele>
        <time>2022-09-27T09:42:02Z</time>
      </trkpt>
      <trkpt lat="48.9175" lon="2.06983">
        <ele>82.1</ele>
        <time>2022-09-27T09:42:06Z</time>
      </trkpt>
      <trkpt lat="48.91746" lon="2.06978">
        <ele>81.5</ele>
        <time>2022-09-27T09:42:10Z</time>
      </trkpt>
      <trkpt lat="48.91743" lon="2.06972">
        <ele>80.8</ele>
        <time>2022-09-27T09:42:14Z</time>
      </trkpt>
      <trkpt lat="48.91739" lon="2.06965">
        <ele>80.4</ele>
        <time>2022-09-27T09:42:19Z</time>
      </trkpt>
      <trkpt lat="48.91736" lon="2.06957">
        <ele>79.7</ele>
        <time>2022-09-27T09:42:23Z</time>
      </trkpt>
      <trkpt lat="48.91733" lon="2.0695">
        <ele>79.5</ele>
        <time>2022-09-27T09:42:27Z</time>
      </trkpt>
      <trkpt lat="48.9173" lon="2.06944">
        <ele>78.8</ele>
        <time>2022-09-27T09:42:31Z</time>
      </trkpt>
      <trkpt lat="48.91727" lon="2.06938">
        <ele>78.4</ele>
        <time>2022-09-27T09:42:35Z</time>
      </trkpt>
      <trkpt lat="48.91724" lon="2.06931">
        <ele>77.5</ele>
        <time>2022-09-27T09:42:39Z</time>
      </trkpt>
      <trkpt lat="48.91722" lon="2.06925">
        <ele>77.5</ele>
        <time>2022-09-27T09:42:42Z</time>
      </trkpt>
      <trkpt lat="48.91718" lon="2.06917">
        <ele>77.8</ele>
        <time>2022-09-27T09:42:47Z</time>
      </trkpt>
      <trkpt lat="48.91716" lon="2.06911">
        <ele>77.8</ele>
        <time>2022-09-27T09:42:50Z</time>
      </trkpt>
      <trkpt lat="48.91713" lon="2.06903">
        <ele>78.3</ele>
        <time>2022-09-27T09:42:54Z</time>
      </trkpt>
      <trkpt lat="48.91711" lon="2.06896">
        <ele>78.3</ele>
        <time>2022-09-27T09:42:58Z</time>
      </trkpt>
      <trkpt lat="48.91709" lon="2.06889">
        <ele>78.9</ele>
        <time>2022-09-27T09:43:02Z</time>
      </trkpt>
      <trkpt lat="48.91706" lon="2.06883">
        <ele>79.1</ele>
        <time>2022-09-27T09:43:05Z</time>
      </trkpt>
      <trkpt lat="48.91703" lon="2.06876">
        <ele>80.3</ele>
        <time>2022-09-27T09:43:10Z</time>
      </trkpt>
      <trkpt lat="48.917" lon="2.0687">
        <ele>82.7</ele>
        <time>2022-09-27T09:43:13Z</time>
      </trkpt>
      <trkpt lat="48.91697" lon="2.06863">
        <ele>83.6</ele>
        <time>2022-09-27T09:43:17Z</time>
      </trkpt>
      <trkpt lat="48.91694" lon="2.06855">
        <ele>84.5</ele>
        <time>2022-09-27T09:43:22Z</time>
      </trkpt>
      <trkpt lat="48.91691" lon="2.06848">
        <ele>84.6</ele>
        <time>2022-09-27T09:43:26Z</time>
      </trkpt>
      <trkpt lat="48.91688" lon="2.06841">
        <ele>84.9</ele>
        <time>2022-09-27T09:43:30Z</time>
      </trkpt>
      <trkpt lat="48.91686" lon="2.06835">
        <ele>84.9</ele>
        <time>2022-09-27T09:43:33Z</time>
      </trkpt>
      <trkpt lat="48.91684" lon="2.06829">
        <ele>85.1</ele>
        <time>2022-09-27T09:43:36Z</time>
      </trkpt>
      <trkpt lat="48.91681" lon="2.06823">
        <ele>85.3</ele>
        <time>2022-09-27T09:43:40Z</time>
      </trkpt>
      <trkpt lat="48.91677" lon="2.06817">
        <ele>85.6</ele>
        <time>2022-09-27T09:43:44Z</time>
      </trkpt>
      <trkpt lat="48.91674" lon="2.0681">
        <ele>86.2</ele>
        <time>2022-09-27T09:43:48Z</time>
      </trkpt>
      <trkpt lat="48.9167" lon="2.06803">
        <ele>85.5</ele>
        <time>2022-09-27T09:43:52Z</time>
      </trkpt>
      <trkpt lat="48.91668" lon="2.06797">
        <ele>85.3</ele>
        <time>2022-09-27T09:43:55Z</time>
      </trkpt>
      <trkpt lat="48.91665" lon="2.06789">
        <ele>85.2</ele>
        <time>2022-09-27T09:43:59Z</time>
      </trkpt>
      <trkpt lat="48.91662" lon="2.06782">
        <ele>85</ele>
        <time>2022-09-27T09:44:03Z</time>
      </trkpt>
      <trkpt lat="48.91659" lon="2.06775">
        <ele>84.6</ele>
        <time>2022-09-27T09:44:07Z</time>
      </trkpt>
      <trkpt lat="48.91656" lon="2.0677">
        <ele>84.3</ele>
        <time>2022-09-27T09:44:10Z</time>
      </trkpt>
      <trkpt lat="48.91653" lon="2.06764">
        <ele>84.6</ele>
        <time>2022-09-27T09:44:14Z</time>
      </trkpt>
      <trkpt lat="48.91651" lon="2.06757">
        <ele>84.1</ele>
        <time>2022-09-27T09:44:17Z</time>
      </trkpt>
      <trkpt lat="48.91648" lon="2.0675">
        <ele>83.6</ele>
        <time>2022-09-27T09:44:21Z</time>
      </trkpt>
      <trkpt lat="48.91646" lon="2.06743">
        <ele>83.8</ele>
        <time>2022-09-27T09:44:24Z</time>
      </trkpt>
      <trkpt lat="48.91643" lon="2.06737">
        <ele>83.2</ele>
        <time>2022-09-27T09:44:28Z</time>
      </trkpt>
      <trkpt lat="48.9164" lon="2.0673">
        <ele>82.4</ele>
        <time>2022-09-27T09:44:31Z</time>
      </trkpt>
      <trkpt lat="48.91637" lon="2.06723">
        <ele>81.6</ele>
        <time>2022-09-27T09:44:35Z</time>
      </trkpt>
      <trkpt lat="48.91633" lon="2.06716">
        <ele>81</ele>
        <time>2022-09-27T09:44:39Z</time>
      </trkpt>
      <trkpt lat="48.9163" lon="2.06709">
        <ele>80.8</ele>
        <time>2022-09-27T09:44:43Z</time>
      </trkpt>
      <trkpt lat="48.91627" lon="2.06702">
        <ele>79.9</ele>
        <time>2022-09-27T09:44:47Z</time>
      </trkpt>
      <trkpt lat="48.91624" lon="2.06695">
        <ele>79.2</ele>
        <time>2022-09-27T09:44:51Z</time>
      </trkpt>
      <trkpt lat="48.91622" lon="2.06688">
        <ele>78.8</ele>
        <time>2022-09-27T09:44:55Z</time>
      </trkpt>
      <trkpt lat="48.91619" lon="2.0668">
        <ele>78.5</ele>
        <time>2022-09-27T09:44:59Z</time>
      </trkpt>
      <trkpt lat="48.91615" lon="2.06674">
        <ele>78.2</ele>
        <time>2022-09-27T09:45:04Z</time>
      </trkpt>
      <trkpt lat="48.91612" lon="2.06666">
        <ele>78.1</ele>
        <time>2022-09-27T09:45:08Z</time>
      </trkpt>
      <trkpt lat="48.9161" lon="2.06658">
        <ele>77.9</ele>
        <time>2022-09-27T09:45:12Z</time>
      </trkpt>
      <trkpt lat="48.91607" lon="2.06651">
        <ele>78.2</ele>
        <time>2022-09-27T09:45:16Z</time>
      </trkpt>
      <trkpt lat="48.91605" lon="2.06645">
        <ele>79.5</ele>
        <time>2022-09-27T09:45:19Z</time>
      </trkpt>
      <trkpt lat="48.91603" lon="2.06638">
        <ele>79.5</ele>
        <time>2022-09-27T09:45:23Z</time>
      </trkpt>
      <trkpt lat="48.91601" lon="2.0663">
        <ele>80</ele>
        <time>2022-09-27T09:45:27Z</time>
      </trkpt>
      <trkpt lat="48.91599" lon="2.06624">
        <ele>80.2</ele>
        <time>2022-09-27T09:45:31Z</time>
      </trkpt>
      <trkpt lat="48.91597" lon="2.06616">
        <ele>79.6</ele>
        <time>2022-09-27T09:45:36Z</time>
      </trkpt>
      <trkpt lat="48.91595" lon="2.06609">
        <ele>79.2</ele>
        <time>2022-09-27T09:45:40Z</time>
      </trkpt>
      <trkpt lat="48.91592" lon="2.06603">
        <ele>79</ele>
        <time>2022-09-27T09:45:44Z</time>
      </trkpt>
      <trkpt lat="48.91589" lon="2.06598">
        <ele>78.6</ele>
        <time>2022-09-27T09:45:48Z</time>
      </trkpt>
      <trkpt lat="48.91595" lon="2.06598">
        <ele>78.9</ele>
        <time>2022-09-27T09:46:55Z</time>
      </trkpt>
      <trkpt lat="48.91599" lon="2.06593">
        <ele>78.2</ele>
        <time>2022-09-27T09:46:58Z</time>
      </trkpt>
      <trkpt lat="48.91604" lon="2.06588">
        <ele>75.2</ele>
        <time>2022-09-27T09:47:01Z</time>
      </trkpt>
      <trkpt lat="48.91607" lon="2.06584">
        <ele>75.4</ele>
        <time>2022-09-27T09:47:04Z</time>
      </trkpt>
      <trkpt lat="48.91612" lon="2.06579">
        <ele>73.9</ele>
        <time>2022-09-27T09:47:08Z</time>
      </trkpt>
      <trkpt lat="48.91617" lon="2.06572">
        <ele>72.3</ele>
        <time>2022-09-27T09:47:12Z</time>
      </trkpt>
      <trkpt lat="48.91619" lon="2.06565">
        <ele>72.5</ele>
        <time>2022-09-27T09:47:15Z</time>
      </trkpt>
      <trkpt lat="48.91621" lon="2.06558">
        <ele>73.1</ele>
        <time>2022-09-27T09:47:19Z</time>
      </trkpt>
      <trkpt lat="48.91624" lon="2.06551">
        <ele>72.9</ele>
        <time>2022-09-27T09:47:23Z</time>
      </trkpt>
      <trkpt lat="48.91628" lon="2.06546">
        <ele>72.9</ele>
        <time>2022-09-27T09:47:27Z</time>
      </trkpt>
      <trkpt lat="48.91632" lon="2.06541">
        <ele>73</ele>
        <time>2022-09-27T09:47:31Z</time>
      </trkpt>
      <trkpt lat="48.91635" lon="2.06536">
        <ele>73.5</ele>
        <time>2022-09-27T09:47:34Z</time>
      </trkpt>
      <trkpt lat="48.91639" lon="2.0653">
        <ele>74.1</ele>
        <time>2022-09-27T09:47:38Z</time>
      </trkpt>
      <trkpt lat="48.91643" lon="2.06523">
        <ele>74.2</ele>
        <time>2022-09-27T09:47:42Z</time>
      </trkpt>
      <trkpt lat="48.91646" lon="2.06519">
        <ele>74</ele>
        <time>2022-09-27T09:47:45Z</time>
      </trkpt>
      <trkpt lat="48.91711" lon="2.06427">
        <ele>74.7</ele>
        <time>2022-09-27T09:48:46Z</time>
      </trkpt>
      <trkpt lat="48.91715" lon="2.06424">
        <ele>73</ele>
        <time>2022-09-27T09:48:49Z</time>
      </trkpt>
      <trkpt lat="48.9172" lon="2.0642">
        <ele>72.8</ele>
        <time>2022-09-27T09:48:53Z</time>
      </trkpt>
      <trkpt lat="48.91724" lon="2.06417">
        <ele>69.9</ele>
        <time>2022-09-27T09:48:56Z</time>
      </trkpt>
      <trkpt lat="48.91729" lon="2.06411">
        <ele>66.2</ele>
        <time>2022-09-27T09:49:00Z</time>
      </trkpt>
      <trkpt lat="48.91733" lon="2.06406">
        <ele>63.2</ele>
        <time>2022-09-27T09:49:04Z</time>
      </trkpt>
      <trkpt lat="48.91736" lon="2.06401">
        <ele>59.5</ele>
        <time>2022-09-27T09:49:07Z</time>
      </trkpt>
      <trkpt lat="48.91739" lon="2.06396">
        <ele>59.5</ele>
        <time>2022-09-27T09:49:10Z</time>
      </trkpt>
      <trkpt lat="48.91743" lon="2.06392">
        <ele>59.4</ele>
        <time>2022-09-27T09:49:14Z</time>
      </trkpt>
      <trkpt lat="48.91747" lon="2.06387">
        <ele>59.2</ele>
        <time>2022-09-27T09:49:17Z</time>
      </trkpt>
      <trkpt lat="48.91751" lon="2.06382">
        <ele>59.2</ele>
        <time>2022-09-27T09:49:21Z</time>
      </trkpt>
      <trkpt lat="48.91755" lon="2.06376">
        <ele>58.9</ele>
        <time>2022-09-27T09:49:25Z</time>
      </trkpt>
      <trkpt lat="48.91759" lon="2.06371">
        <ele>58.7</ele>
        <time>2022-09-27T09:49:28Z</time>
      </trkpt>
      <trkpt lat="48.91763" lon="2.06366">
        <ele>58</ele>
        <time>2022-09-27T09:49:32Z</time>
      </trkpt>
      <trkpt lat="48.91768" lon="2.0636">
        <ele>57.9</ele>
        <time>2022-09-27T09:49:36Z</time>
      </trkpt>
      <trkpt lat="48.91771" lon="2.06355">
        <ele>57.4</ele>
        <time>2022-09-27T09:49:40Z</time>
      </trkpt>
      <trkpt lat="48.91775" lon="2.06347">
        <ele>56.6</ele>
        <time>2022-09-27T09:49:45Z</time>
      </trkpt>
      <trkpt lat="48.91779" lon="2.06341">
        <ele>56.6</ele>
        <time>2022-09-27T09:49:48Z</time>
      </trkpt>
      <trkpt lat="48.91782" lon="2.06336">
        <ele>56.8</ele>
        <time>2022-09-27T09:49:51Z</time>
      </trkpt>
      <trkpt lat="48.91788" lon="2.06329">
        <ele>57</ele>
        <time>2022-09-27T09:49:56Z</time>
      </trkpt>
      <trkpt lat="48.91792" lon="2.06323">
        <ele>57.1</ele>
        <time>2022-09-27T09:50:00Z</time>
      </trkpt>
      <trkpt lat="48.91796" lon="2.06316">
        <ele>57.4</ele>
        <time>2022-09-27T09:50:04Z</time>
      </trkpt>
      <trkpt lat="48.91801" lon="2.06315">
        <ele>58.2</ele>
        <time>2022-09-27T09:50:08Z</time>
      </trkpt>
      <trkpt lat="48.91805" lon="2.06321">
        <ele>59.1</ele>
        <time>2022-09-27T09:50:13Z</time>
      </trkpt>
      <trkpt lat="48.91808" lon="2.06327">
        <ele>59.9</ele>
        <time>2022-09-27T09:50:17Z</time>
      </trkpt>
      <trkpt lat="48.91811" lon="2.06334">
        <ele>62.3</ele>
        <time>2022-09-27T09:50:22Z</time>
      </trkpt>
      <trkpt lat="48.91813" lon="2.06342">
        <ele>62.8</ele>
        <time>2022-09-27T09:50:26Z</time>
      </trkpt>
      <trkpt lat="48.91816" lon="2.06348">
        <ele>64.2</ele>
        <time>2022-09-27T09:50:31Z</time>
      </trkpt>
      <trkpt lat="48.91819" lon="2.06355">
        <ele>65.2</ele>
        <time>2022-09-27T09:50:36Z</time>
      </trkpt>
      <trkpt lat="48.91822" lon="2.0636">
        <ele>65.5</ele>
        <time>2022-09-27T09:50:40Z</time>
      </trkpt>
      <trkpt lat="48.91825" lon="2.06366">
        <ele>65.6</ele>
        <time>2022-09-27T09:50:44Z</time>
      </trkpt>
      <trkpt lat="48.91827" lon="2.06374">
        <ele>66.4</ele>
        <time>2022-09-27T09:50:49Z</time>
      </trkpt>
      <trkpt lat="48.91829" lon="2.0638">
        <ele>66.5</ele>
        <time>2022-09-27T09:50:53Z</time>
      </trkpt>
      <trkpt lat="48.91832" lon="2.06387">
        <ele>67.1</ele>
        <time>2022-09-27T09:50:57Z</time>
      </trkpt>
      <trkpt lat="48.91835" lon="2.06391">
        <ele>67.5</ele>
        <time>2022-09-27T09:51:01Z</time>
      </trkpt>
      <trkpt lat="48.9184" lon="2.06393">
        <ele>67.6</ele>
        <time>2022-09-27T09:51:06Z</time>
      </trkpt>
      <trkpt lat="48.91846" lon="2.06389">
        <ele>67.7</ele>
        <time>2022-09-27T09:51:10Z</time>
      </trkpt>
      <trkpt lat="48.9185" lon="2.06385">
        <ele>67.8</ele>
        <time>2022-09-27T09:51:14Z</time>
      </trkpt>
      <trkpt lat="48.91855" lon="2.06381">
        <ele>68.1</ele>
        <time>2022-09-27T09:51:18Z</time>
      </trkpt>
      <trkpt lat="48.9186" lon="2.06377">
        <ele>68.5</ele>
        <time>2022-09-27T09:51:23Z</time>
      </trkpt>
      <trkpt lat="48.91865" lon="2.06373">
        <ele>68.6</ele>
        <time>2022-09-27T09:51:27Z</time>
      </trkpt>
      <trkpt lat="48.91869" lon="2.0637">
        <ele>67.7</ele>
        <time>2022-09-27T09:51:32Z</time>
      </trkpt>
      <trkpt lat="48.91874" lon="2.06367">
        <ele>67.4</ele>
        <time>2022-09-27T09:51:37Z</time>
      </trkpt>
      <trkpt lat="48.91879" lon="2.06367">
        <ele>67.6</ele>
        <time>2022-09-27T09:51:42Z</time>
      </trkpt>
      <trkpt lat="48.91876" lon="2.06372">
        <ele>67.4</ele>
        <time>2022-09-27T09:51:51Z</time>
      </trkpt>
      <trkpt lat="48.91874" lon="2.06378">
        <ele>67.8</ele>
        <time>2022-09-27T09:53:35Z</time>
      </trkpt>
      <trkpt lat="48.91869" lon="2.06375">
        <ele>68.9</ele>
        <time>2022-09-27T09:53:50Z</time>
      </trkpt>
      <trkpt lat="48.91874" lon="2.06376">
        <ele>69.1</ele>
        <time>2022-09-27T09:54:22Z</time>
      </trkpt>
      <trkpt lat="48.91879" lon="2.06376">
        <ele>70.1</ele>
        <time>2022-09-27T09:54:35Z</time>
      </trkpt>
      <trkpt lat="48.91884" lon="2.06377">
        <ele>70.5</ele>
        <time>2022-09-27T09:54:40Z</time>
      </trkpt>
      <trkpt lat="48.91889" lon="2.0638">
        <ele>71.1</ele>
        <time>2022-09-27T09:54:44Z</time>
      </trkpt>
      <trkpt lat="48.91888" lon="2.06387">
        <ele>71.4</ele>
        <time>2022-09-27T09:54:50Z</time>
      </trkpt>
      <trkpt lat="48.91885" lon="2.06392">
        <ele>72.3</ele>
        <time>2022-09-27T09:54:56Z</time>
      </trkpt>
      <trkpt lat="48.9188" lon="2.06394">
        <ele>72</ele>
        <time>2022-09-27T09:55:01Z</time>
      </trkpt>
      <trkpt lat="48.91883" lon="2.06388">
        <ele>71.3</ele>
        <time>2022-09-27T09:55:53Z</time>
      </trkpt>
      <trkpt lat="48.91887" lon="2.06383">
        <ele>70.9</ele>
        <time>2022-09-27T09:55:57Z</time>
      </trkpt>
      <trkpt lat="48.91891" lon="2.06379">
        <ele>70.3</ele>
        <time>2022-09-27T09:56:01Z</time>
      </trkpt>
      <trkpt lat="48.91896" lon="2.06378">
        <ele>67.1</ele>
        <time>2022-09-27T09:56:03Z</time>
      </trkpt>
      <trkpt lat="48.91901" lon="2.06378">
        <ele>65.7</ele>
        <time>2022-09-27T09:56:05Z</time>
      </trkpt>
      <trkpt lat="48.91906" lon="2.06379">
        <ele>65.9</ele>
        <time>2022-09-27T09:56:09Z</time>
      </trkpt>
      <trkpt lat="48.9191" lon="2.06382">
        <ele>65.1</ele>
        <time>2022-09-27T09:56:12Z</time>
      </trkpt>
      <trkpt lat="48.91914" lon="2.06386">
        <ele>64.5</ele>
        <time>2022-09-27T09:56:15Z</time>
      </trkpt>
      <trkpt lat="48.9192" lon="2.06389">
        <ele>65.1</ele>
        <time>2022-09-27T09:56:19Z</time>
      </trkpt>
      <trkpt lat="48.91926" lon="2.0639">
        <ele>65.1</ele>
        <time>2022-09-27T09:56:23Z</time>
      </trkpt>
      <trkpt lat="48.91931" lon="2.0639">
        <ele>66</ele>
        <time>2022-09-27T09:56:27Z</time>
      </trkpt>
      <trkpt lat="48.91936" lon="2.06391">
        <ele>66.9</ele>
        <time>2022-09-27T09:56:30Z</time>
      </trkpt>
      <trkpt lat="48.91941" lon="2.06391">
        <ele>67.6</ele>
        <time>2022-09-27T09:56:34Z</time>
      </trkpt>
      <trkpt lat="48.91947" lon="2.0639">
        <ele>69.1</ele>
        <time>2022-09-27T09:56:38Z</time>
      </trkpt>
      <trkpt lat="48.91952" lon="2.06388">
        <ele>72</ele>
        <time>2022-09-27T09:56:41Z</time>
      </trkpt>
      <trkpt lat="48.91957" lon="2.06385">
        <ele>71.3</ele>
        <time>2022-09-27T09:56:45Z</time>
      </trkpt>
      <trkpt lat="48.91961" lon="2.06383">
        <ele>71</ele>
        <time>2022-09-27T09:56:48Z</time>
      </trkpt>
      <trkpt lat="48.91966" lon="2.06381">
        <ele>71.2</ele>
        <time>2022-09-27T09:56:52Z</time>
      </trkpt>
      <trkpt lat="48.91971" lon="2.06381">
        <ele>71.2</ele>
        <time>2022-09-27T09:56:55Z</time>
      </trkpt>
      <trkpt lat="48.91976" lon="2.06383">
        <ele>71.3</ele>
        <time>2022-09-27T09:56:58Z</time>
      </trkpt>
      <trkpt lat="48.91982" lon="2.06385">
        <ele>71.3</ele>
        <time>2022-09-27T09:57:02Z</time>
      </trkpt>
      <trkpt lat="48.91987" lon="2.06386">
        <ele>70.6</ele>
        <time>2022-09-27T09:57:05Z</time>
      </trkpt>
      <trkpt lat="48.91993" lon="2.06387">
        <ele>70.3</ele>
        <time>2022-09-27T09:57:08Z</time>
      </trkpt>
      <trkpt lat="48.91998" lon="2.06387">
        <ele>70.7</ele>
        <time>2022-09-27T09:57:11Z</time>
      </trkpt>
      <trkpt lat="48.92008" lon="2.06389">
        <ele>70.5</ele>
        <time>2022-09-27T09:57:18Z</time>
      </trkpt>
      <trkpt lat="48.92013" lon="2.0639">
        <ele>71.1</ele>
        <time>2022-09-27T09:57:21Z</time>
      </trkpt>
      <trkpt lat="48.92018" lon="2.06391">
        <ele>71</ele>
        <time>2022-09-27T09:57:25Z</time>
      </trkpt>
      <trkpt lat="48.92022" lon="2.06393">
        <ele>71.3</ele>
        <time>2022-09-27T09:57:28Z</time>
      </trkpt>
      <trkpt lat="48.92027" lon="2.06395">
        <ele>71.1</ele>
        <time>2022-09-27T09:57:32Z</time>
      </trkpt>
      <trkpt lat="48.92032" lon="2.06397">
        <ele>70.6</ele>
        <time>2022-09-27T09:57:36Z</time>
      </trkpt>
      <trkpt lat="48.92044" lon="2.06397">
        <ele>70.4</ele>
        <time>2022-09-27T09:57:46Z</time>
      </trkpt>
      <trkpt lat="48.92049" lon="2.06397">
        <ele>70.5</ele>
        <time>2022-09-27T09:57:49Z</time>
      </trkpt>
      <trkpt lat="48.9206" lon="2.064">
        <ele>70.2</ele>
        <time>2022-09-27T09:57:56Z</time>
      </trkpt>
      <trkpt lat="48.92065" lon="2.06401">
        <ele>70</ele>
        <time>2022-09-27T09:57:59Z</time>
      </trkpt>
      <trkpt lat="48.92072" lon="2.06402">
        <ele>68.7</ele>
        <time>2022-09-27T09:58:04Z</time>
      </trkpt>
      <trkpt lat="48.92078" lon="2.06401">
        <ele>68.3</ele>
        <time>2022-09-27T09:58:07Z</time>
      </trkpt>
      <trkpt lat="48.92083" lon="2.064">
        <ele>68.3</ele>
        <time>2022-09-27T09:58:10Z</time>
      </trkpt>
      <trkpt lat="48.92089" lon="2.06399">
        <ele>67.7</ele>
        <time>2022-09-27T09:58:14Z</time>
      </trkpt>
      <trkpt lat="48.92094" lon="2.064">
        <ele>67</ele>
        <time>2022-09-27T09:58:17Z</time>
      </trkpt>
      <trkpt lat="48.92099" lon="2.06402">
        <ele>67.3</ele>
        <time>2022-09-27T09:58:21Z</time>
      </trkpt>
      <trkpt lat="48.92104" lon="2.06404">
        <ele>67.5</ele>
        <time>2022-09-27T09:58:24Z</time>
      </trkpt>
      <trkpt lat="48.92108" lon="2.06407">
        <ele>67.2</ele>
        <time>2022-09-27T09:58:27Z</time>
      </trkpt>
      <trkpt lat="48.92114" lon="2.06407">
        <ele>67.4</ele>
        <time>2022-09-27T09:58:31Z</time>
      </trkpt>
      <trkpt lat="48.92119" lon="2.06408">
        <ele>67.3</ele>
        <time>2022-09-27T09:58:35Z</time>
      </trkpt>
      <trkpt lat="48.92124" lon="2.06408">
        <ele>67.9</ele>
        <time>2022-09-27T09:58:39Z</time>
      </trkpt>
      <trkpt lat="48.92129" lon="2.06408">
        <ele>67.9</ele>
        <time>2022-09-27T09:58:42Z</time>
      </trkpt>
      <trkpt lat="48.92134" lon="2.06407">
        <ele>68.5</ele>
        <time>2022-09-27T09:58:46Z</time>
      </trkpt>
      <trkpt lat="48.92139" lon="2.06406">
        <ele>69.3</ele>
        <time>2022-09-27T09:58:49Z</time>
      </trkpt>
      <trkpt lat="48.92144" lon="2.06406">
        <ele>70.1</ele>
        <time>2022-09-27T09:58:52Z</time>
      </trkpt>
      <trkpt lat="48.9215" lon="2.06405">
        <ele>70.3</ele>
        <time>2022-09-27T09:58:56Z</time>
      </trkpt>
      <trkpt lat="48.92155" lon="2.06406">
        <ele>70.4</ele>
        <time>2022-09-27T09:59:00Z</time>
      </trkpt>
      <trkpt lat="48.9216" lon="2.06407">
        <ele>70.8</ele>
        <time>2022-09-27T09:59:03Z</time>
      </trkpt>
      <trkpt lat="48.92165" lon="2.06408">
        <ele>70.5</ele>
        <time>2022-09-27T09:59:06Z</time>
      </trkpt>
      <trkpt lat="48.9217" lon="2.06409">
        <ele>70.8</ele>
        <time>2022-09-27T09:59:10Z</time>
      </trkpt>
      <trkpt lat="48.92175" lon="2.0641">
        <ele>70.9</ele>
        <time>2022-09-27T10:00:08Z</time>
      </trkpt>
      <trkpt lat="48.92179" lon="2.06412">
        <ele>71.1</ele>
        <time>2022-09-27T10:00:22Z</time>
      </trkpt>
      <trkpt lat="48.92183" lon="2.06416">
        <ele>71.3</ele>
        <time>2022-09-27T10:00:27Z</time>
      </trkpt>
      <trkpt lat="48.92186" lon="2.06421">
        <ele>71.6</ele>
        <time>2022-09-27T10:00:31Z</time>
      </trkpt>
      <trkpt lat="48.92189" lon="2.06427">
        <ele>71.6</ele>
        <time>2022-09-27T10:00:35Z</time>
      </trkpt>
      <trkpt lat="48.92191" lon="2.06434">
        <ele>72.4</ele>
        <time>2022-09-27T10:00:39Z</time>
      </trkpt>
      <trkpt lat="48.92193" lon="2.06441">
        <ele>73</ele>
        <time>2022-09-27T10:00:43Z</time>
      </trkpt>
      <trkpt lat="48.92195" lon="2.06448">
        <ele>73.6</ele>
        <time>2022-09-27T10:00:48Z</time>
      </trkpt>
      <trkpt lat="48.92198" lon="2.06455">
        <ele>74.5</ele>
        <time>2022-09-27T10:00:52Z</time>
      </trkpt>
      <trkpt lat="48.92201" lon="2.06461">
        <ele>75.1</ele>
        <time>2022-09-27T10:00:57Z</time>
      </trkpt>
      <trkpt lat="48.92201" lon="2.06469">
        <ele>75.1</ele>
        <time>2022-09-27T10:01:01Z</time>
      </trkpt>
      <trkpt lat="48.92201" lon="2.06477">
        <ele>74.9</ele>
        <time>2022-09-27T10:01:06Z</time>
      </trkpt>
      <trkpt lat="48.92202" lon="2.06485">
        <ele>75.1</ele>
        <time>2022-09-27T10:01:10Z</time>
      </trkpt>
      <trkpt lat="48.92205" lon="2.06491">
        <ele>74.7</ele>
        <time>2022-09-27T10:01:14Z</time>
      </trkpt>
      <trkpt lat="48.92209" lon="2.06496">
        <ele>74.3</ele>
        <time>2022-09-27T10:01:18Z</time>
      </trkpt>
      <trkpt lat="48.92213" lon="2.06502">
        <ele>73.8</ele>
        <time>2022-09-27T10:01:22Z</time>
      </trkpt>
      <trkpt lat="48.92216" lon="2.06508">
        <ele>72.2</ele>
        <time>2022-09-27T10:01:26Z</time>
      </trkpt>
      <trkpt lat="48.9222" lon="2.06513">
        <ele>72.4</ele>
        <time>2022-09-27T10:01:29Z</time>
      </trkpt>
      <trkpt lat="48.92223" lon="2.06518">
        <ele>72.4</ele>
        <time>2022-09-27T10:01:33Z</time>
      </trkpt>
      <trkpt lat="48.92225" lon="2.06524">
        <ele>72.2</ele>
        <time>2022-09-27T10:01:36Z</time>
      </trkpt>
      <trkpt lat="48.92227" lon="2.06531">
        <ele>72.3</ele>
        <time>2022-09-27T10:01:40Z</time>
      </trkpt>
      <trkpt lat="48.9223" lon="2.06539">
        <ele>72.2</ele>
        <time>2022-09-27T10:01:44Z</time>
      </trkpt>
      <trkpt lat="48.92233" lon="2.06544">
        <ele>70.8</ele>
        <time>2022-09-27T10:01:48Z</time>
      </trkpt>
      <trkpt lat="48.92236" lon="2.06552">
        <ele>71.9</ele>
        <time>2022-09-27T10:01:53Z</time>
      </trkpt>
      <trkpt lat="48.92238" lon="2.0656">
        <ele>71.2</ele>
        <time>2022-09-27T10:01:57Z</time>
      </trkpt>
      <trkpt lat="48.92242" lon="2.06564">
        <ele>71.5</ele>
        <time>2022-09-27T10:02:03Z</time>
      </trkpt>
      <trkpt lat="48.92246" lon="2.0657">
        <ele>69.7</ele>
        <time>2022-09-27T10:02:07Z</time>
      </trkpt>
      <trkpt lat="48.92251" lon="2.06596">
        <ele>65.8</ele>
        <time>2022-09-27T10:02:16Z</time>
      </trkpt>
      <trkpt lat="48.92256" lon="2.06601">
        <ele>64.6</ele>
        <time>2022-09-27T10:02:19Z</time>
      </trkpt>
      <trkpt lat="48.9226" lon="2.06606">
        <ele>63.7</ele>
        <time>2022-09-27T10:02:22Z</time>
      </trkpt>
      <trkpt lat="48.92265" lon="2.06611">
        <ele>64</ele>
        <time>2022-09-27T10:02:26Z</time>
      </trkpt>
      <trkpt lat="48.92269" lon="2.06614">
        <ele>64</ele>
        <time>2022-09-27T10:02:29Z</time>
      </trkpt>
      <trkpt lat="48.92273" lon="2.06618">
        <ele>64.4</ele>
        <time>2022-09-27T10:02:33Z</time>
      </trkpt>
      <trkpt lat="48.92276" lon="2.06625">
        <ele>64.9</ele>
        <time>2022-09-27T10:02:37Z</time>
      </trkpt>
      <trkpt lat="48.92276" lon="2.06634">
        <ele>66.2</ele>
        <time>2022-09-27T10:02:40Z</time>
      </trkpt>
      <trkpt lat="48.92276" lon="2.06641">
        <ele>67.3</ele>
        <time>2022-09-27T10:02:42Z</time>
      </trkpt>
      <trkpt lat="48.92277" lon="2.06651">
        <ele>67.6</ele>
        <time>2022-09-27T10:02:45Z</time>
      </trkpt>
      <trkpt lat="48.92286" lon="2.06671">
        <ele>67.8</ele>
        <time>2022-09-27T10:02:57Z</time>
      </trkpt>
      <trkpt lat="48.9229" lon="2.06676">
        <ele>68.8</ele>
        <time>2022-09-27T10:03:03Z</time>
      </trkpt>
      <trkpt lat="48.92293" lon="2.06681">
        <ele>69.4</ele>
        <time>2022-09-27T10:03:07Z</time>
      </trkpt>
      <trkpt lat="48.92295" lon="2.0669">
        <ele>69.7</ele>
        <time>2022-09-27T10:03:12Z</time>
      </trkpt>
      <trkpt lat="48.92295" lon="2.06699">
        <ele>69.6</ele>
        <time>2022-09-27T10:03:16Z</time>
      </trkpt>
      <trkpt lat="48.92296" lon="2.06706">
        <ele>70.1</ele>
        <time>2022-09-27T10:03:20Z</time>
      </trkpt>
      <trkpt lat="48.92296" lon="2.06716">
        <ele>70.6</ele>
        <time>2022-09-27T10:03:25Z</time>
      </trkpt>
      <trkpt lat="48.92295" lon="2.06725">
        <ele>71.7</ele>
        <time>2022-09-27T10:03:30Z</time>
      </trkpt>
      <trkpt lat="48.92295" lon="2.06733">
        <ele>71.2</ele>
        <time>2022-09-27T10:03:35Z</time>
      </trkpt>
      <trkpt lat="48.92295" lon="2.06741">
        <ele>71.4</ele>
        <time>2022-09-27T10:03:40Z</time>
      </trkpt>
      <trkpt lat="48.92296" lon="2.0675">
        <ele>71.5</ele>
        <time>2022-09-27T10:03:44Z</time>
      </trkpt>
      <trkpt lat="48.92297" lon="2.06757">
        <ele>72.2</ele>
        <time>2022-09-27T10:03:48Z</time>
      </trkpt>
      <trkpt lat="48.92299" lon="2.06764">
        <ele>72.7</ele>
        <time>2022-09-27T10:03:52Z</time>
      </trkpt>
      <trkpt lat="48.923" lon="2.06772">
        <ele>72.7</ele>
        <time>2022-09-27T10:03:56Z</time>
      </trkpt>
      <trkpt lat="48.92301" lon="2.0678">
        <ele>72.3</ele>
        <time>2022-09-27T10:04:00Z</time>
      </trkpt>
      <trkpt lat="48.92301" lon="2.06788">
        <ele>72.3</ele>
        <time>2022-09-27T10:04:04Z</time>
      </trkpt>
      <trkpt lat="48.92302" lon="2.06795">
        <ele>72.6</ele>
        <time>2022-09-27T10:04:07Z</time>
      </trkpt>
      <trkpt lat="48.92302" lon="2.06803">
        <ele>72.9</ele>
        <time>2022-09-27T10:04:11Z</time>
      </trkpt>
      <trkpt lat="48.92302" lon="2.06811">
        <ele>72.9</ele>
        <time>2022-09-27T10:04:15Z</time>
      </trkpt>
      <trkpt lat="48.92303" lon="2.06818">
        <ele>73.2</ele>
        <time>2022-09-27T10:04:18Z</time>
      </trkpt>
      <trkpt lat="48.92304" lon="2.06826">
        <ele>73.2</ele>
        <time>2022-09-27T10:04:21Z</time>
      </trkpt>
      <trkpt lat="48.92304" lon="2.06834">
        <ele>72.8</ele>
        <time>2022-09-27T10:04:25Z</time>
      </trkpt>
      <trkpt lat="48.92305" lon="2.06842">
        <ele>72.5</ele>
        <time>2022-09-27T10:04:29Z</time>
      </trkpt>
      <trkpt lat="48.92306" lon="2.0685">
        <ele>72.3</ele>
        <time>2022-09-27T10:04:33Z</time>
      </trkpt>
      <trkpt lat="48.92307" lon="2.06856">
        <ele>72.2</ele>
        <time>2022-09-27T10:04:36Z</time>
      </trkpt>
      <trkpt lat="48.92307" lon="2.06864">
        <ele>71.7</ele>
        <time>2022-09-27T10:04:39Z</time>
      </trkpt>
      <trkpt lat="48.92307" lon="2.06873">
        <ele>70.9</ele>
        <time>2022-09-27T10:04:43Z</time>
      </trkpt>
      <trkpt lat="48.92308" lon="2.06881">
        <ele>70.9</ele>
        <time>2022-09-27T10:04:47Z</time>
      </trkpt>
      <trkpt lat="48.92309" lon="2.06889">
        <ele>70.3</ele>
        <time>2022-09-27T10:04:51Z</time>
      </trkpt>
      <trkpt lat="48.9231" lon="2.06897">
        <ele>70.5</ele>
        <time>2022-09-27T10:04:54Z</time>
      </trkpt>
      <trkpt lat="48.9231" lon="2.06906">
        <ele>70.6</ele>
        <time>2022-09-27T10:04:58Z</time>
      </trkpt>
      <trkpt lat="48.9231" lon="2.06914">
        <ele>70.9</ele>
        <time>2022-09-27T10:05:02Z</time>
      </trkpt>
      <trkpt lat="48.92311" lon="2.06923">
        <ele>70.8</ele>
        <time>2022-09-27T10:05:06Z</time>
      </trkpt>
      <trkpt lat="48.92312" lon="2.06931">
        <ele>71.6</ele>
        <time>2022-09-27T10:05:10Z</time>
      </trkpt>
      <trkpt lat="48.92313" lon="2.06939">
        <ele>71.8</ele>
        <time>2022-09-27T10:05:14Z</time>
      </trkpt>
      <trkpt lat="48.92316" lon="2.06945">
        <ele>72</ele>
        <time>2022-09-27T10:05:31Z</time>
      </trkpt>
      <trkpt lat="48.92317" lon="2.06955">
        <ele>71.9</ele>
        <time>2022-09-27T10:05:36Z</time>
      </trkpt>
      <trkpt lat="48.92318" lon="2.06962">
        <ele>71.8</ele>
        <time>2022-09-27T10:05:39Z</time>
      </trkpt>
      <trkpt lat="48.92318" lon="2.0697">
        <ele>72</ele>
        <time>2022-09-27T10:05:42Z</time>
      </trkpt>
      <trkpt lat="48.92318" lon="2.06977">
        <ele>72.8</ele>
        <time>2022-09-27T10:05:45Z</time>
      </trkpt>
      <trkpt lat="48.92318" lon="2.06984">
        <ele>72.8</ele>
        <time>2022-09-27T10:05:49Z</time>
      </trkpt>
      <trkpt lat="48.92317" lon="2.06991">
        <ele>72.5</ele>
        <time>2022-09-27T10:05:52Z</time>
      </trkpt>
      <trkpt lat="48.92317" lon="2.06998">
        <ele>72.3</ele>
        <time>2022-09-27T10:05:56Z</time>
      </trkpt>
      <trkpt lat="48.92317" lon="2.07006">
        <ele>71.9</ele>
        <time>2022-09-27T10:06:00Z</time>
      </trkpt>
      <trkpt lat="48.92317" lon="2.07015">
        <ele>71.7</ele>
        <time>2022-09-27T10:06:04Z</time>
      </trkpt>
      <trkpt lat="48.92317" lon="2.07023">
        <ele>71.7</ele>
        <time>2022-09-27T10:06:07Z</time>
      </trkpt>
      <trkpt lat="48.92318" lon="2.07032">
        <ele>71</ele>
        <time>2022-09-27T10:06:12Z</time>
      </trkpt>
      <trkpt lat="48.92318" lon="2.07039">
        <ele>71.3</ele>
        <time>2022-09-27T10:06:15Z</time>
      </trkpt>
      <trkpt lat="48.92319" lon="2.07047">
        <ele>71</ele>
        <time>2022-09-27T10:06:19Z</time>
      </trkpt>
      <trkpt lat="48.9232" lon="2.07054">
        <ele>71</ele>
        <time>2022-09-27T10:06:23Z</time>
      </trkpt>
      <trkpt lat="48.92321" lon="2.07061">
        <ele>71</ele>
        <time>2022-09-27T10:06:27Z</time>
      </trkpt>
      <trkpt lat="48.92322" lon="2.0707">
        <ele>71.2</ele>
        <time>2022-09-27T10:06:31Z</time>
      </trkpt>
      <trkpt lat="48.92323" lon="2.07077">
        <ele>71</ele>
        <time>2022-09-27T10:06:35Z</time>
      </trkpt>
      <trkpt lat="48.92322" lon="2.07084">
        <ele>71</ele>
        <time>2022-09-27T10:06:38Z</time>
      </trkpt>
      <trkpt lat="48.92323" lon="2.07092">
        <ele>71.1</ele>
        <time>2022-09-27T10:06:41Z</time>
      </trkpt>
      <trkpt lat="48.92323" lon="2.071">
        <ele>70.7</ele>
        <time>2022-09-27T10:06:46Z</time>
      </trkpt>
      <trkpt lat="48.92323" lon="2.07109">
        <ele>70.7</ele>
        <time>2022-09-27T10:06:50Z</time>
      </trkpt>
      <trkpt lat="48.92322" lon="2.07116">
        <ele>70.7</ele>
        <time>2022-09-27T10:06:54Z</time>
      </trkpt>
      <trkpt lat="48.92322" lon="2.07124">
        <ele>69.8</ele>
        <time>2022-09-27T10:06:58Z</time>
      </trkpt>
      <trkpt lat="48.92322" lon="2.07131">
        <ele>69.3</ele>
        <time>2022-09-27T10:07:06Z</time>
      </trkpt>
      <trkpt lat="48.92322" lon="2.07138">
        <ele>69.1</ele>
        <time>2022-09-27T10:07:11Z</time>
      </trkpt>
      <trkpt lat="48.92326" lon="2.07134">
        <ele>69.8</ele>
        <time>2022-09-27T10:07:26Z</time>
      </trkpt>
      <trkpt lat="48.92328" lon="2.07126">
        <ele>69.8</ele>
        <time>2022-09-27T10:07:31Z</time>
      </trkpt>
      <trkpt lat="48.92332" lon="2.07121">
        <ele>69.9</ele>
        <time>2022-09-27T10:07:36Z</time>
      </trkpt>
      <trkpt lat="48.92335" lon="2.07115">
        <ele>68.7</ele>
        <time>2022-09-27T10:07:40Z</time>
      </trkpt>
      <trkpt lat="48.92338" lon="2.07108">
        <ele>69.1</ele>
        <time>2022-09-27T10:07:48Z</time>
      </trkpt>
      <trkpt lat="48.92341" lon="2.07098">
        <ele>69.2</ele>
        <time>2022-09-27T10:08:01Z</time>
      </trkpt>
      <trkpt lat="48.92343" lon="2.07091">
        <ele>69.4</ele>
        <time>2022-09-27T10:08:04Z</time>
      </trkpt>
      <trkpt lat="48.92345" lon="2.07084">
        <ele>70.1</ele>
        <time>2022-09-27T10:08:07Z</time>
      </trkpt>
      <trkpt lat="48.92347" lon="2.07078">
        <ele>70.9</ele>
        <time>2022-09-27T10:08:11Z</time>
      </trkpt>
      <trkpt lat="48.9235" lon="2.07072">
        <ele>71.3</ele>
        <time>2022-09-27T10:08:14Z</time>
      </trkpt>
      <trkpt lat="48.92353" lon="2.07063">
        <ele>71.6</ele>
        <time>2022-09-27T10:08:19Z</time>
      </trkpt>
      <trkpt lat="48.92355" lon="2.07056">
        <ele>71.7</ele>
        <time>2022-09-27T10:08:23Z</time>
      </trkpt>
      <trkpt lat="48.92358" lon="2.07049">
        <ele>72</ele>
        <time>2022-09-27T10:08:27Z</time>
      </trkpt>
      <trkpt lat="48.92361" lon="2.07042">
        <ele>74</ele>
        <time>2022-09-27T10:08:31Z</time>
      </trkpt>
      <trkpt lat="48.92365" lon="2.07035">
        <ele>73.9</ele>
        <time>2022-09-27T10:08:36Z</time>
      </trkpt>
      <trkpt lat="48.92367" lon="2.07028">
        <ele>74.7</ele>
        <time>2022-09-27T10:08:41Z</time>
      </trkpt>
      <trkpt lat="48.92369" lon="2.0702">
        <ele>74.9</ele>
        <time>2022-09-27T10:08:46Z</time>
      </trkpt>
      <trkpt lat="48.92369" lon="2.07013">
        <ele>74.9</ele>
        <time>2022-09-27T10:08:50Z</time>
      </trkpt>
      <trkpt lat="48.92371" lon="2.07006">
        <ele>74.4</ele>
        <time>2022-09-27T10:08:54Z</time>
      </trkpt>
      <trkpt lat="48.92374" lon="2.06998">
        <ele>74.6</ele>
        <time>2022-09-27T10:08:58Z</time>
      </trkpt>
      <trkpt lat="48.92377" lon="2.06991">
        <ele>74.3</ele>
        <time>2022-09-27T10:09:02Z</time>
      </trkpt>
      <trkpt lat="48.92379" lon="2.06984">
        <ele>73.8</ele>
        <time>2022-09-27T10:09:05Z</time>
      </trkpt>
      <trkpt lat="48.92382" lon="2.06976">
        <ele>72.3</ele>
        <time>2022-09-27T10:09:09Z</time>
      </trkpt>
      <trkpt lat="48.92384" lon="2.0697">
        <ele>71.2</ele>
        <time>2022-09-27T10:09:12Z</time>
      </trkpt>
      <trkpt lat="48.92388" lon="2.06962">
        <ele>71</ele>
        <time>2022-09-27T10:09:17Z</time>
      </trkpt>
      <trkpt lat="48.92389" lon="2.06955">
        <ele>70.6</ele>
        <time>2022-09-27T10:09:21Z</time>
      </trkpt>
      <trkpt lat="48.92392" lon="2.06949">
        <ele>70.7</ele>
        <time>2022-09-27T10:09:25Z</time>
      </trkpt>
      <trkpt lat="48.92395" lon="2.06942">
        <ele>70.3</ele>
        <time>2022-09-27T10:09:28Z</time>
      </trkpt>
      <trkpt lat="48.92398" lon="2.06936">
        <ele>69.8</ele>
        <time>2022-09-27T10:09:31Z</time>
      </trkpt>
      <trkpt lat="48.924" lon="2.06929">
        <ele>69.5</ele>
        <time>2022-09-27T10:09:34Z</time>
      </trkpt>
      <trkpt lat="48.92403" lon="2.06922">
        <ele>68.9</ele>
        <time>2022-09-27T10:09:38Z</time>
      </trkpt>
      <trkpt lat="48.92405" lon="2.06914">
        <ele>68.8</ele>
        <time>2022-09-27T10:09:42Z</time>
      </trkpt>
      <trkpt lat="48.92407" lon="2.06906">
        <ele>69.2</ele>
        <time>2022-09-27T10:09:46Z</time>
      </trkpt>
      <trkpt lat="48.92409" lon="2.06897">
        <ele>69.6</ele>
        <time>2022-09-27T10:09:50Z</time>
      </trkpt>
      <trkpt lat="48.92411" lon="2.0689">
        <ele>69.3</ele>
        <time>2022-09-27T10:09:53Z</time>
      </trkpt>
      <trkpt lat="48.92412" lon="2.06882">
        <ele>69.9</ele>
        <time>2022-09-27T10:09:57Z</time>
      </trkpt>
      <trkpt lat="48.92414" lon="2.06875">
        <ele>70</ele>
        <time>2022-09-27T10:10:00Z</time>
      </trkpt>
      <trkpt lat="48.92416" lon="2.06869">
        <ele>70.1</ele>
        <time>2022-09-27T10:10:03Z</time>
      </trkpt>
      <trkpt lat="48.92419" lon="2.06863">
        <ele>70.3</ele>
        <time>2022-09-27T10:10:07Z</time>
      </trkpt>
      <trkpt lat="48.92421" lon="2.06856">
        <ele>70.5</ele>
        <time>2022-09-27T10:10:10Z</time>
      </trkpt>
      <trkpt lat="48.92423" lon="2.0685">
        <ele>70.4</ele>
        <time>2022-09-27T10:10:14Z</time>
      </trkpt>
      <trkpt lat="48.92427" lon="2.06844">
        <ele>70.6</ele>
        <time>2022-09-27T10:10:18Z</time>
      </trkpt>
      <trkpt lat="48.9243" lon="2.06838">
        <ele>70.7</ele>
        <time>2022-09-27T10:10:22Z</time>
      </trkpt>
      <trkpt lat="48.92434" lon="2.06832">
        <ele>70.8</ele>
        <time>2022-09-27T10:10:26Z</time>
      </trkpt>
      <trkpt lat="48.92438" lon="2.06826">
        <ele>70.3</ele>
        <time>2022-09-27T10:10:30Z</time>
      </trkpt>
      <trkpt lat="48.92442" lon="2.0682">
        <ele>69.5</ele>
        <time>2022-09-27T10:10:34Z</time>
      </trkpt>
      <trkpt lat="48.92445" lon="2.06814">
        <ele>69.6</ele>
        <time>2022-09-27T10:10:38Z</time>
      </trkpt>
      <trkpt lat="48.92449" lon="2.06809">
        <ele>69.3</ele>
        <time>2022-09-27T10:10:42Z</time>
      </trkpt>
      <trkpt lat="48.92452" lon="2.06802">
        <ele>70</ele>
        <time>2022-09-27T10:10:46Z</time>
      </trkpt>
      <trkpt lat="48.92453" lon="2.06794">
        <ele>70.1</ele>
        <time>2022-09-27T10:10:50Z</time>
      </trkpt>
      <trkpt lat="48.92455" lon="2.06785">
        <ele>70</ele>
        <time>2022-09-27T10:10:54Z</time>
      </trkpt>
      <trkpt lat="48.92459" lon="2.06778">
        <ele>69.4</ele>
        <time>2022-09-27T10:10:58Z</time>
      </trkpt>
      <trkpt lat="48.92462" lon="2.06771">
        <ele>68.7</ele>
        <time>2022-09-27T10:11:03Z</time>
      </trkpt>
      <trkpt lat="48.92465" lon="2.06764">
        <ele>69.8</ele>
        <time>2022-09-27T10:11:08Z</time>
      </trkpt>
      <trkpt lat="48.92467" lon="2.06757">
        <ele>69.9</ele>
        <time>2022-09-27T10:11:11Z</time>
      </trkpt>
      <trkpt lat="48.92468" lon="2.06751">
        <ele>71</ele>
        <time>2022-09-27T10:11:14Z</time>
      </trkpt>
      <trkpt lat="48.9247" lon="2.06744">
        <ele>71.7</ele>
        <time>2022-09-27T10:11:18Z</time>
      </trkpt>
      <trkpt lat="48.92473" lon="2.06738">
        <ele>72.2</ele>
        <time>2022-09-27T10:11:21Z</time>
      </trkpt>
      <trkpt lat="48.92475" lon="2.06731">
        <ele>72.2</ele>
        <time>2022-09-27T10:11:24Z</time>
      </trkpt>
      <trkpt lat="48.92477" lon="2.06725">
        <ele>72.7</ele>
        <time>2022-09-27T10:11:28Z</time>
      </trkpt>
      <trkpt lat="48.92479" lon="2.06717">
        <ele>73.6</ele>
        <time>2022-09-27T10:11:32Z</time>
      </trkpt>
      <trkpt lat="48.92482" lon="2.0671">
        <ele>73.8</ele>
        <time>2022-09-27T10:11:36Z</time>
      </trkpt>
      <trkpt lat="48.92484" lon="2.06703">
        <ele>73.4</ele>
        <time>2022-09-27T10:11:40Z</time>
      </trkpt>
      <trkpt lat="48.92486" lon="2.06697">
        <ele>73.6</ele>
        <time>2022-09-27T10:11:44Z</time>
      </trkpt>
      <trkpt lat="48.92486" lon="2.06689">
        <ele>73.7</ele>
        <time>2022-09-27T10:11:49Z</time>
      </trkpt>
      <trkpt lat="48.92488" lon="2.06681">
        <ele>73.4</ele>
        <time>2022-09-27T10:11:53Z</time>
      </trkpt>
      <trkpt lat="48.92489" lon="2.06674">
        <ele>73.8</ele>
        <time>2022-09-27T10:11:56Z</time>
      </trkpt>
      <trkpt lat="48.92492" lon="2.06667">
        <ele>73.3</ele>
        <time>2022-09-27T10:12:00Z</time>
      </trkpt>
      <trkpt lat="48.92494" lon="2.06661">
        <ele>73.5</ele>
        <time>2022-09-27T10:12:03Z</time>
      </trkpt>
      <trkpt lat="48.92496" lon="2.06654">
        <ele>72.7</ele>
        <time>2022-09-27T10:12:07Z</time>
      </trkpt>
      <trkpt lat="48.92498" lon="2.06647">
        <ele>72.3</ele>
        <time>2022-09-27T10:12:11Z</time>
      </trkpt>
      <trkpt lat="48.92501" lon="2.0664">
        <ele>72.2</ele>
        <time>2022-09-27T10:12:14Z</time>
      </trkpt>
      <trkpt lat="48.92504" lon="2.06635">
        <ele>72.1</ele>
        <time>2022-09-27T10:12:18Z</time>
      </trkpt>
      <trkpt lat="48.92507" lon="2.06627">
        <ele>72.3</ele>
        <time>2022-09-27T10:12:22Z</time>
      </trkpt>
      <trkpt lat="48.92509" lon="2.0662">
        <ele>72.1</ele>
        <time>2022-09-27T10:12:27Z</time>
      </trkpt>
      <trkpt lat="48.92513" lon="2.06612">
        <ele>71.9</ele>
        <time>2022-09-27T10:12:31Z</time>
      </trkpt>
      <trkpt lat="48.92516" lon="2.06606">
        <ele>71.5</ele>
        <time>2022-09-27T10:12:35Z</time>
      </trkpt>
      <trkpt lat="48.92518" lon="2.066">
        <ele>71.4</ele>
        <time>2022-09-27T10:12:39Z</time>
      </trkpt>
      <trkpt lat="48.9252" lon="2.06594">
        <ele>71.4</ele>
        <time>2022-09-27T10:12:42Z</time>
      </trkpt>
      <trkpt lat="48.92523" lon="2.06588">
        <ele>71.1</ele>
        <time>2022-09-27T10:12:46Z</time>
      </trkpt>
      <trkpt lat="48.92526" lon="2.06582">
        <ele>71</ele>
        <time>2022-09-27T10:12:49Z</time>
      </trkpt>
      <trkpt lat="48.92528" lon="2.06575">
        <ele>68.6</ele>
        <time>2022-09-27T10:12:54Z</time>
      </trkpt>
      <trkpt lat="48.9253" lon="2.06568">
        <ele>68.3</ele>
        <time>2022-09-27T10:12:57Z</time>
      </trkpt>
      <trkpt lat="48.92533" lon="2.06561">
        <ele>67.8</ele>
        <time>2022-09-27T10:13:02Z</time>
      </trkpt>
      <trkpt lat="48.92536" lon="2.06555">
        <ele>67.4</ele>
        <time>2022-09-27T10:13:06Z</time>
      </trkpt>
      <trkpt lat="48.92539" lon="2.06549">
        <ele>66.4</ele>
        <time>2022-09-27T10:13:15Z</time>
      </trkpt>
      <trkpt lat="48.92542" lon="2.06542">
        <ele>64.9</ele>
        <time>2022-09-27T10:13:21Z</time>
      </trkpt>
      <trkpt lat="48.92543" lon="2.06535">
        <ele>63.3</ele>
        <time>2022-09-27T10:13:26Z</time>
      </trkpt>
      <trkpt lat="48.92545" lon="2.06528">
        <ele>63.3</ele>
        <time>2022-09-27T10:13:30Z</time>
      </trkpt>
      <trkpt lat="48.92542" lon="2.06522">
        <ele>62.3</ele>
        <time>2022-09-27T10:13:35Z</time>
      </trkpt>
      <trkpt lat="48.92538" lon="2.0652">
        <ele>60.7</ele>
        <time>2022-09-27T10:13:39Z</time>
      </trkpt>
      <trkpt lat="48.92535" lon="2.06514">
        <ele>60.4</ele>
        <time>2022-09-27T10:13:43Z</time>
      </trkpt>
      <trkpt lat="48.92534" lon="2.06506">
        <ele>60.4</ele>
        <time>2022-09-27T10:13:48Z</time>
      </trkpt>
      <trkpt lat="48.92534" lon="2.06499">
        <ele>60.7</ele>
        <time>2022-09-27T10:13:54Z</time>
      </trkpt>
      <trkpt lat="48.92533" lon="2.06491">
        <ele>60.7</ele>
        <time>2022-09-27T10:13:59Z</time>
      </trkpt>
      <trkpt lat="48.9253" lon="2.06484">
        <ele>60.9</ele>
        <time>2022-09-27T10:14:04Z</time>
      </trkpt>
      <trkpt lat="48.92528" lon="2.06477">
        <ele>60.7</ele>
        <time>2022-09-27T10:14:08Z</time>
      </trkpt>
      <trkpt lat="48.92525" lon="2.0647">
        <ele>62.7</ele>
        <time>2022-09-27T10:14:12Z</time>
      </trkpt>
      <trkpt lat="48.92522" lon="2.06463">
        <ele>63.9</ele>
        <time>2022-09-27T10:14:16Z</time>
      </trkpt>
      <trkpt lat="48.92518" lon="2.06461">
        <ele>64.2</ele>
        <time>2022-09-27T10:14:20Z</time>
      </trkpt>
      <trkpt lat="48.92514" lon="2.06457">
        <ele>65.1</ele>
        <time>2022-09-27T10:14:25Z</time>
      </trkpt>
      <trkpt lat="48.92513" lon="2.0645">
        <ele>65.1</ele>
        <time>2022-09-27T10:14:28Z</time>
      </trkpt>
      <trkpt lat="48.92511" lon="2.06441">
        <ele>66</ele>
        <time>2022-09-27T10:14:32Z</time>
      </trkpt>
      <trkpt lat="48.9251" lon="2.06434">
        <ele>66.4</ele>
        <time>2022-09-27T10:14:35Z</time>
      </trkpt>
      <trkpt lat="48.92508" lon="2.06427">
        <ele>66.2</ele>
        <time>2022-09-27T10:14:39Z</time>
      </trkpt>
      <trkpt lat="48.92506" lon="2.06421">
        <ele>66.1</ele>
        <time>2022-09-27T10:14:42Z</time>
      </trkpt>
      <trkpt lat="48.92504" lon="2.06413">
        <ele>66</ele>
        <time>2022-09-27T10:14:46Z</time>
      </trkpt>
      <trkpt lat="48.92501" lon="2.06406">
        <ele>66.1</ele>
        <time>2022-09-27T10:14:50Z</time>
      </trkpt>
      <trkpt lat="48.92498" lon="2.06398">
        <ele>66.2</ele>
        <time>2022-09-27T10:14:54Z</time>
      </trkpt>
      <trkpt lat="48.92496" lon="2.06392">
        <ele>65.8</ele>
        <time>2022-09-27T10:14:57Z</time>
      </trkpt>
      <trkpt lat="48.92493" lon="2.06385">
        <ele>65.7</ele>
        <time>2022-09-27T10:15:01Z</time>
      </trkpt>
      <trkpt lat="48.92491" lon="2.06378">
        <ele>65.1</ele>
        <time>2022-09-27T10:15:04Z</time>
      </trkpt>
      <trkpt lat="48.92489" lon="2.06371">
        <ele>64.8</ele>
        <time>2022-09-27T10:15:08Z</time>
      </trkpt>
      <trkpt lat="48.92487" lon="2.06363">
        <ele>64.3</ele>
        <time>2022-09-27T10:15:12Z</time>
      </trkpt>
      <trkpt lat="48.92485" lon="2.06356">
        <ele>63.7</ele>
        <time>2022-09-27T10:15:16Z</time>
      </trkpt>
      <trkpt lat="48.92483" lon="2.06348">
        <ele>62.8</ele>
        <time>2022-09-27T10:15:20Z</time>
      </trkpt>
      <trkpt lat="48.92481" lon="2.0634">
        <ele>63.1</ele>
        <time>2022-09-27T10:15:24Z</time>
      </trkpt>
      <trkpt lat="48.92479" lon="2.06334">
        <ele>62.5</ele>
        <time>2022-09-27T10:15:27Z</time>
      </trkpt>
      <trkpt lat="48.92478" lon="2.06327">
        <ele>61.6</ele>
        <time>2022-09-27T10:15:30Z</time>
      </trkpt>
      <trkpt lat="48.92475" lon="2.0632">
        <ele>61.6</ele>
        <time>2022-09-27T10:15:34Z</time>
      </trkpt>
      <trkpt lat="48.92472" lon="2.06313">
        <ele>61.3</ele>
        <time>2022-09-27T10:15:38Z</time>
      </trkpt>
      <trkpt lat="48.92469" lon="2.06307">
        <ele>61.3</ele>
        <time>2022-09-27T10:15:42Z</time>
      </trkpt>
      <trkpt lat="48.92467" lon="2.063">
        <ele>61.2</ele>
        <time>2022-09-27T10:15:46Z</time>
      </trkpt>
      <trkpt lat="48.92465" lon="2.06293">
        <ele>61.2</ele>
        <time>2022-09-27T10:15:50Z</time>
      </trkpt>
      <trkpt lat="48.92463" lon="2.06287">
        <ele>61.1</ele>
        <time>2022-09-27T10:15:54Z</time>
      </trkpt>
      <trkpt lat="48.9246" lon="2.0628">
        <ele>61</ele>
        <time>2022-09-27T10:15:58Z</time>
      </trkpt>
      <trkpt lat="48.92458" lon="2.06273">
        <ele>61</ele>
        <time>2022-09-27T10:16:01Z</time>
      </trkpt>
      <trkpt lat="48.92455" lon="2.06267">
        <ele>60.9</ele>
        <time>2022-09-27T10:16:04Z</time>
      </trkpt>
      <trkpt lat="48.92453" lon="2.06261">
        <ele>61.2</ele>
        <time>2022-09-27T10:16:07Z</time>
      </trkpt>
      <trkpt lat="48.9245" lon="2.06254">
        <ele>61.2</ele>
        <time>2022-09-27T10:16:11Z</time>
      </trkpt>
      <trkpt lat="48.92447" lon="2.06247">
        <ele>61.3</ele>
        <time>2022-09-27T10:16:15Z</time>
      </trkpt>
      <trkpt lat="48.92445" lon="2.06241">
        <ele>61.5</ele>
        <time>2022-09-27T10:16:18Z</time>
      </trkpt>
      <trkpt lat="48.92443" lon="2.06234">
        <ele>62.3</ele>
        <time>2022-09-27T10:16:22Z</time>
      </trkpt>
      <trkpt lat="48.92441" lon="2.06228">
        <ele>62.5</ele>
        <time>2022-09-27T10:16:25Z</time>
      </trkpt>
      <trkpt lat="48.92439" lon="2.06221">
        <ele>62.9</ele>
        <time>2022-09-27T10:16:28Z</time>
      </trkpt>
      <trkpt lat="48.92437" lon="2.06215">
        <ele>62.5</ele>
        <time>2022-09-27T10:16:32Z</time>
      </trkpt>
      <trkpt lat="48.92436" lon="2.06208">
        <ele>62.4</ele>
        <time>2022-09-27T10:16:35Z</time>
      </trkpt>
      <trkpt lat="48.92433" lon="2.06201">
        <ele>62.1</ele>
        <time>2022-09-27T10:16:39Z</time>
      </trkpt>
      <trkpt lat="48.9243" lon="2.06193">
        <ele>62.2</ele>
        <time>2022-09-27T10:16:43Z</time>
      </trkpt>
      <trkpt lat="48.92428" lon="2.06185">
        <ele>61.2</ele>
        <time>2022-09-27T10:16:47Z</time>
      </trkpt>
      <trkpt lat="48.92426" lon="2.06177">
        <ele>59.6</ele>
        <time>2022-09-27T10:16:51Z</time>
      </trkpt>
      <trkpt lat="48.92424" lon="2.06169">
        <ele>58.4</ele>
        <time>2022-09-27T10:16:56Z</time>
      </trkpt>
      <trkpt lat="48.92422" lon="2.0616">
        <ele>58.5</ele>
        <time>2022-09-27T10:17:00Z</time>
      </trkpt>
      <trkpt lat="48.9242" lon="2.06153">
        <ele>58.6</ele>
        <time>2022-09-27T10:17:04Z</time>
      </trkpt>
      <trkpt lat="48.92419" lon="2.06145">
        <ele>58.9</ele>
        <time>2022-09-27T10:17:07Z</time>
      </trkpt>
      <trkpt lat="48.92419" lon="2.06137">
        <ele>58.9</ele>
        <time>2022-09-27T10:17:11Z</time>
      </trkpt>
      <trkpt lat="48.92414" lon="2.06138">
        <ele>59</ele>
        <time>2022-09-27T10:17:14Z</time>
      </trkpt>
      <trkpt lat="48.92412" lon="2.06132">
        <ele>59.8</ele>
        <time>2022-09-27T10:17:19Z</time>
      </trkpt>
      <trkpt lat="48.92411" lon="2.06125">
        <ele>60.3</ele>
        <time>2022-09-27T10:17:23Z</time>
      </trkpt>
      <trkpt lat="48.92409" lon="2.06117">
        <ele>60.1</ele>
        <time>2022-09-27T10:17:27Z</time>
      </trkpt>
      <trkpt lat="48.92408" lon="2.0611">
        <ele>60.9</ele>
        <time>2022-09-27T10:17:31Z</time>
      </trkpt>
      <trkpt lat="48.92406" lon="2.06103">
        <ele>62.5</ele>
        <time>2022-09-27T10:17:41Z</time>
      </trkpt>
      <trkpt lat="48.92407" lon="2.06096">
        <ele>63.2</ele>
        <time>2022-09-27T10:17:54Z</time>
      </trkpt>
      <trkpt lat="48.92409" lon="2.06089">
        <ele>64.5</ele>
        <time>2022-09-27T10:17:59Z</time>
      </trkpt>
      <trkpt lat="48.92408" lon="2.06081">
        <ele>65</ele>
        <time>2022-09-27T10:18:05Z</time>
      </trkpt>
      <trkpt lat="48.92409" lon="2.06073">
        <ele>66.3</ele>
        <time>2022-09-27T10:18:10Z</time>
      </trkpt>
      <trkpt lat="48.92412" lon="2.06068">
        <ele>67</ele>
        <time>2022-09-27T10:18:15Z</time>
      </trkpt>
      <trkpt lat="48.92415" lon="2.06062">
        <ele>67.3</ele>
        <time>2022-09-27T10:18:18Z</time>
      </trkpt>
      <trkpt lat="48.92418" lon="2.06057">
        <ele>67.3</ele>
        <time>2022-09-27T10:18:21Z</time>
      </trkpt>
      <trkpt lat="48.92423" lon="2.06052">
        <ele>67.8</ele>
        <time>2022-09-27T10:18:26Z</time>
      </trkpt>
      <trkpt lat="48.92427" lon="2.06046">
        <ele>68.4</ele>
        <time>2022-09-27T10:18:30Z</time>
      </trkpt>
      <trkpt lat="48.9243" lon="2.06039">
        <ele>68.7</ele>
        <time>2022-09-27T10:18:34Z</time>
      </trkpt>
      <trkpt lat="48.92432" lon="2.06033">
        <ele>69.7</ele>
        <time>2022-09-27T10:18:38Z</time>
      </trkpt>
      <trkpt lat="48.92437" lon="2.06028">
        <ele>70.1</ele>
        <time>2022-09-27T10:18:42Z</time>
      </trkpt>
      <trkpt lat="48.92439" lon="2.0602">
        <ele>71</ele>
        <time>2022-09-27T10:18:47Z</time>
      </trkpt>
      <trkpt lat="48.9244" lon="2.06011">
        <ele>72.6</ele>
        <time>2022-09-27T10:18:51Z</time>
      </trkpt>
      <trkpt lat="48.9244" lon="2.06004">
        <ele>72.2</ele>
        <time>2022-09-27T10:18:56Z</time>
      </trkpt>
      <trkpt lat="48.92442" lon="2.05996">
        <ele>72.6</ele>
        <time>2022-09-27T10:19:05Z</time>
      </trkpt>
      <trkpt lat="48.92441" lon="2.05988">
        <ele>72.8</ele>
        <time>2022-09-27T10:19:09Z</time>
      </trkpt>
      <trkpt lat="48.92439" lon="2.0598">
        <ele>72.1</ele>
        <time>2022-09-27T10:19:13Z</time>
      </trkpt>
      <trkpt lat="48.92438" lon="2.05974">
        <ele>72.2</ele>
        <time>2022-09-27T10:19:17Z</time>
      </trkpt>
      <trkpt lat="48.92438" lon="2.05965">
        <ele>71.8</ele>
        <time>2022-09-27T10:19:21Z</time>
      </trkpt>
      <trkpt lat="48.92439" lon="2.05959">
        <ele>70.3</ele>
        <time>2022-09-27T10:19:25Z</time>
      </trkpt>
      <trkpt lat="48.92442" lon="2.05952">
        <ele>68.3</ele>
        <time>2022-09-27T10:19:28Z</time>
      </trkpt>
      <trkpt lat="48.92448" lon="2.05948">
        <ele>67.7</ele>
        <time>2022-09-27T10:19:33Z</time>
      </trkpt>
      <trkpt lat="48.92449" lon="2.0594">
        <ele>66.2</ele>
        <time>2022-09-27T10:19:38Z</time>
      </trkpt>
      <trkpt lat="48.92445" lon="2.05937">
        <ele>64.2</ele>
        <time>2022-09-27T10:19:41Z</time>
      </trkpt>
      <trkpt lat="48.92441" lon="2.0594">
        <ele>63.1</ele>
        <time>2022-09-27T10:19:49Z</time>
      </trkpt>
      <trkpt lat="48.92436" lon="2.05936">
        <ele>63.2</ele>
        <time>2022-09-27T10:20:07Z</time>
      </trkpt>
      <trkpt lat="48.92432" lon="2.05928">
        <ele>62.7</ele>
        <time>2022-09-27T10:20:10Z</time>
      </trkpt>
      <trkpt lat="48.92428" lon="2.05921">
        <ele>62.2</ele>
        <time>2022-09-27T10:20:13Z</time>
      </trkpt>
      <trkpt lat="48.92424" lon="2.05916">
        <ele>61.6</ele>
        <time>2022-09-27T10:20:16Z</time>
      </trkpt>
      <trkpt lat="48.9242" lon="2.05912">
        <ele>61</ele>
        <time>2022-09-27T10:20:19Z</time>
      </trkpt>
      <trkpt lat="48.92416" lon="2.05907">
        <ele>61.1</ele>
        <time>2022-09-27T10:20:23Z</time>
      </trkpt>
      <trkpt lat="48.92412" lon="2.05901">
        <ele>60.6</ele>
        <time>2022-09-27T10:20:27Z</time>
      </trkpt>
      <trkpt lat="48.92408" lon="2.05896">
        <ele>61</ele>
        <time>2022-09-27T10:20:31Z</time>
      </trkpt>
      <trkpt lat="48.92404" lon="2.05891">
        <ele>61.3</ele>
        <time>2022-09-27T10:20:35Z</time>
      </trkpt>
      <trkpt lat="48.924" lon="2.05885">
        <ele>61.5</ele>
        <time>2022-09-27T10:20:39Z</time>
      </trkpt>
      <trkpt lat="48.92396" lon="2.0588">
        <ele>61.9</ele>
        <time>2022-09-27T10:20:43Z</time>
      </trkpt>
      <trkpt lat="48.92392" lon="2.05875">
        <ele>61.8</ele>
        <time>2022-09-27T10:20:47Z</time>
      </trkpt>
      <trkpt lat="48.92388" lon="2.05869">
        <ele>61.8</ele>
        <time>2022-09-27T10:20:51Z</time>
      </trkpt>
      <trkpt lat="48.92385" lon="2.05863">
        <ele>62.4</ele>
        <time>2022-09-27T10:20:55Z</time>
      </trkpt>
      <trkpt lat="48.92381" lon="2.05858">
        <ele>62.5</ele>
        <time>2022-09-27T10:20:59Z</time>
      </trkpt>
      <trkpt lat="48.92377" lon="2.05854">
        <ele>62.8</ele>
        <time>2022-09-27T10:21:03Z</time>
      </trkpt>
      <trkpt lat="48.92372" lon="2.0585">
        <ele>63.1</ele>
        <time>2022-09-27T10:21:07Z</time>
      </trkpt>
      <trkpt lat="48.92368" lon="2.05846">
        <ele>64.2</ele>
        <time>2022-09-27T10:21:11Z</time>
      </trkpt>
      <trkpt lat="48.92363" lon="2.0584">
        <ele>64.3</ele>
        <time>2022-09-27T10:21:15Z</time>
      </trkpt>
      <trkpt lat="48.9236" lon="2.05835">
        <ele>64.3</ele>
        <time>2022-09-27T10:21:19Z</time>
      </trkpt>
      <trkpt lat="48.92356" lon="2.0583">
        <ele>64</ele>
        <time>2022-09-27T10:21:23Z</time>
      </trkpt>
      <trkpt lat="48.92352" lon="2.05824">
        <ele>64.3</ele>
        <time>2022-09-27T10:21:27Z</time>
      </trkpt>
      <trkpt lat="48.92348" lon="2.05818">
        <ele>64.6</ele>
        <time>2022-09-27T10:21:31Z</time>
      </trkpt>
      <trkpt lat="48.92343" lon="2.05813">
        <ele>64.5</ele>
        <time>2022-09-27T10:21:35Z</time>
      </trkpt>
      <trkpt lat="48.92339" lon="2.05807">
        <ele>64.6</ele>
        <time>2022-09-27T10:21:40Z</time>
      </trkpt>
      <trkpt lat="48.92335" lon="2.05802">
        <ele>64.5</ele>
        <time>2022-09-27T10:21:44Z</time>
      </trkpt>
      <trkpt lat="48.92331" lon="2.05797">
        <ele>64</ele>
        <time>2022-09-27T10:21:48Z</time>
      </trkpt>
      <trkpt lat="48.92326" lon="2.05792">
        <ele>63.7</ele>
        <time>2022-09-27T10:21:53Z</time>
      </trkpt>
      <trkpt lat="48.92322" lon="2.05788">
        <ele>63.1</ele>
        <time>2022-09-27T10:21:58Z</time>
      </trkpt>
      <trkpt lat="48.92318" lon="2.05784">
        <ele>63.1</ele>
        <time>2022-09-27T10:22:02Z</time>
      </trkpt>
      <trkpt lat="48.92314" lon="2.0578">
        <ele>62.3</ele>
        <time>2022-09-27T10:22:06Z</time>
      </trkpt>
      <trkpt lat="48.9231" lon="2.05775">
        <ele>60.5</ele>
        <time>2022-09-27T10:22:10Z</time>
      </trkpt>
      <trkpt lat="48.92308" lon="2.05767">
        <ele>59.8</ele>
        <time>2022-09-27T10:22:14Z</time>
      </trkpt>
      <trkpt lat="48.9231" lon="2.0576">
        <ele>59.1</ele>
        <time>2022-09-27T10:22:17Z</time>
      </trkpt>
      <trkpt lat="48.92311" lon="2.05752">
        <ele>58.5</ele>
        <time>2022-09-27T10:22:20Z</time>
      </trkpt>
      <trkpt lat="48.92312" lon="2.05744">
        <ele>58.2</ele>
        <time>2022-09-27T10:22:24Z</time>
      </trkpt>
      <trkpt lat="48.92313" lon="2.05736">
        <ele>58.2</ele>
        <time>2022-09-27T10:22:27Z</time>
      </trkpt>
      <trkpt lat="48.92314" lon="2.05729">
        <ele>57.6</ele>
        <time>2022-09-27T10:22:31Z</time>
      </trkpt>
      <trkpt lat="48.92307" lon="2.05731">
        <ele>57.8</ele>
        <time>2022-09-27T10:22:33Z</time>
      </trkpt>
      <trkpt lat="48.92314" lon="2.05735">
        <ele>57.7</ele>
        <time>2022-09-27T10:22:36Z</time>
      </trkpt>
      <trkpt lat="48.92316" lon="2.05721">
        <ele>56.7</ele>
        <time>2022-09-27T10:22:42Z</time>
      </trkpt>
      <trkpt lat="48.92318" lon="2.05714">
        <ele>56.3</ele>
        <time>2022-09-27T10:22:45Z</time>
      </trkpt>
      <trkpt lat="48.92319" lon="2.05707">
        <ele>56.1</ele>
        <time>2022-09-27T10:22:48Z</time>
      </trkpt>
      <trkpt lat="48.9232" lon="2.057">
        <ele>56.7</ele>
        <time>2022-09-27T10:22:52Z</time>
      </trkpt>
      <trkpt lat="48.92317" lon="2.05692">
        <ele>56.5</ele>
        <time>2022-09-27T10:22:57Z</time>
      </trkpt>
      <trkpt lat="48.92319" lon="2.05685">
        <ele>55</ele>
        <time>2022-09-27T10:23:01Z</time>
      </trkpt>
      <trkpt lat="48.9232" lon="2.05677">
        <ele>54.7</ele>
        <time>2022-09-27T10:23:05Z</time>
      </trkpt>
      <trkpt lat="48.92322" lon="2.0567">
        <ele>54.9</ele>
        <time>2022-09-27T10:23:08Z</time>
      </trkpt>
      <trkpt lat="48.92323" lon="2.05661">
        <ele>54.6</ele>
        <time>2022-09-27T10:23:12Z</time>
      </trkpt>
      <trkpt lat="48.92324" lon="2.05654">
        <ele>54.1</ele>
        <time>2022-09-27T10:23:15Z</time>
      </trkpt>
      <trkpt lat="48.92325" lon="2.05646">
        <ele>54.2</ele>
        <time>2022-09-27T10:23:20Z</time>
      </trkpt>
      <trkpt lat="48.92327" lon="2.05638">
        <ele>53.8</ele>
        <time>2022-09-27T10:23:24Z</time>
      </trkpt>
      <trkpt lat="48.9233" lon="2.05632">
        <ele>53</ele>
        <time>2022-09-27T10:23:28Z</time>
      </trkpt>
      <trkpt lat="48.92333" lon="2.05624">
        <ele>52.7</ele>
        <time>2022-09-27T10:23:32Z</time>
      </trkpt>
      <trkpt lat="48.92334" lon="2.05615">
        <ele>52.4</ele>
        <time>2022-09-27T10:23:36Z</time>
      </trkpt>
      <trkpt lat="48.92335" lon="2.05608">
        <ele>53.2</ele>
        <time>2022-09-27T10:23:40Z</time>
      </trkpt>
      <trkpt lat="48.92331" lon="2.05605">
        <ele>53.4</ele>
        <time>2022-09-27T10:23:44Z</time>
      </trkpt>
      <trkpt lat="48.92331" lon="2.05597">
        <ele>54.1</ele>
        <time>2022-09-27T10:23:48Z</time>
      </trkpt>
      <trkpt lat="48.92332" lon="2.05588">
        <ele>54</ele>
        <time>2022-09-27T10:23:52Z</time>
      </trkpt>
      <trkpt lat="48.92333" lon="2.0558">
        <ele>54.7</ele>
        <time>2022-09-27T10:23:56Z</time>
      </trkpt>
      <trkpt lat="48.92336" lon="2.05571">
        <ele>55.2</ele>
        <time>2022-09-27T10:24:00Z</time>
      </trkpt>
      <trkpt lat="48.92337" lon="2.05564">
        <ele>56.3</ele>
        <time>2022-09-27T10:24:04Z</time>
      </trkpt>
      <trkpt lat="48.92339" lon="2.05557">
        <ele>57.1</ele>
        <time>2022-09-27T10:24:07Z</time>
      </trkpt>
      <trkpt lat="48.92341" lon="2.0555">
        <ele>57.8</ele>
        <time>2022-09-27T10:24:10Z</time>
      </trkpt>
      <trkpt lat="48.92343" lon="2.05543">
        <ele>58.8</ele>
        <time>2022-09-27T10:24:14Z</time>
      </trkpt>
      <trkpt lat="48.92344" lon="2.05535">
        <ele>59.3</ele>
        <time>2022-09-27T10:24:18Z</time>
      </trkpt>
      <trkpt lat="48.92345" lon="2.05527">
        <ele>59.3</ele>
        <time>2022-09-27T10:24:22Z</time>
      </trkpt>
      <trkpt lat="48.92347" lon="2.05519">
        <ele>60.2</ele>
        <time>2022-09-27T10:24:26Z</time>
      </trkpt>
      <trkpt lat="48.92348" lon="2.05511">
        <ele>60.6</ele>
        <time>2022-09-27T10:24:30Z</time>
      </trkpt>
      <trkpt lat="48.9235" lon="2.05503">
        <ele>61.8</ele>
        <time>2022-09-27T10:24:34Z</time>
      </trkpt>
      <trkpt lat="48.92353" lon="2.05495">
        <ele>61.9</ele>
        <time>2022-09-27T10:24:38Z</time>
      </trkpt>
      <trkpt lat="48.92355" lon="2.05488">
        <ele>61.3</ele>
        <time>2022-09-27T10:24:42Z</time>
      </trkpt>
      <trkpt lat="48.92358" lon="2.05482">
        <ele>61.7</ele>
        <time>2022-09-27T10:24:46Z</time>
      </trkpt>
      <trkpt lat="48.92359" lon="2.05474">
        <ele>62</ele>
        <time>2022-09-27T10:24:50Z</time>
      </trkpt>
      <trkpt lat="48.92361" lon="2.05467">
        <ele>61</ele>
        <time>2022-09-27T10:24:54Z</time>
      </trkpt>
      <trkpt lat="48.92361" lon="2.05459">
        <ele>59.2</ele>
        <time>2022-09-27T10:24:58Z</time>
      </trkpt>
      <trkpt lat="48.92361" lon="2.05451">
        <ele>56.6</ele>
        <time>2022-09-27T10:25:03Z</time>
      </trkpt>
      <trkpt lat="48.92357" lon="2.05447">
        <ele>55.5</ele>
        <time>2022-09-27T10:25:07Z</time>
      </trkpt>
      <trkpt lat="48.92362" lon="2.05445">
        <ele>55.2</ele>
        <time>2022-09-27T10:25:25Z</time>
      </trkpt>
      <trkpt lat="48.92366" lon="2.05438">
        <ele>54.3</ele>
        <time>2022-09-27T10:25:30Z</time>
      </trkpt>
      <trkpt lat="48.92369" lon="2.05432">
        <ele>53.3</ele>
        <time>2022-09-27T10:25:33Z</time>
      </trkpt>
      <trkpt lat="48.92372" lon="2.05425">
        <ele>53.5</ele>
        <time>2022-09-27T10:25:37Z</time>
      </trkpt>
      <trkpt lat="48.92375" lon="2.05419">
        <ele>53.6</ele>
        <time>2022-09-27T10:25:40Z</time>
      </trkpt>
      <trkpt lat="48.92377" lon="2.05412">
        <ele>55.1</ele>
        <time>2022-09-27T10:25:44Z</time>
      </trkpt>
      <trkpt lat="48.92374" lon="2.05407">
        <ele>55.6</ele>
        <time>2022-09-27T10:26:03Z</time>
      </trkpt>
    </trkseg>
  </trk>
</gpx>